
Distance (Route):
Temperature : -47.7°C
Humidity : 0.6%
Pressure : 18.3hPa| Receiver | Frames | First received | Last received |
|---|---|---|---|
| SQ9EZE-13 | 334 | 2026-08-30 11:19:42 | 2026-08-30 13:04:08 |
| SP9KGR-15 | 257 | 2026-08-30 11:21:07 | 2026-08-30 12:45:31 |
| HA6NAB-11 | 126 | 2026-08-30 11:39:56 | 2026-08-30 13:03:22 |
| GYPAP8-17 | 91 | 2026-08-30 11:16:56 | 2026-08-30 13:06:55 |
| SQ9EZE-15 | 88 | 2026-08-30 11:20:58 | 2026-08-30 13:06:39 |
| SQ9EZE-14 | 82 | 2026-08-30 11:21:12 | 2026-08-30 13:05:47 |
| OE5DRO-10 | 81 | 2026-08-30 12:28:03 | 2026-08-30 13:03:51 |
| OE3JTB-15 | 67 | 2026-08-30 11:27:49 | 2026-08-30 12:22:05 |
| OM5KV | 47 | 2026-08-30 11:48:16 | 2026-08-30 11:52:18 |
| LZ4TU-5 | 17 | 2026-08-30 12:40:55 | 2026-08-30 13:05:04 |
| S52SK | 11 | 2026-08-30 12:22:00 | 2026-08-30 12:26:36 |
| Receiver | Date | Latitude | Longitude | Direction | Speed | Altitude | Climb | Temperature | Humidity | Pressure | Voltage | Killtimer | Uptime | BKT | XDATA |
|---|---|---|---|---|---|---|---|---|---|---|---|---|---|---|---|
| GYPAP8-17 | 2026-08-30 13:06:55 | -12.04681 | -77.04224 | 198° | 201km/h | 969m | -2.1m/s | -47.7°C | 0.6% | 18.3hPa | 2.6V | 00:00:00 | 00:00:00 | 00:00:00 | |
| SQ9EZE-15 | 2026-08-30 13:06:39 | -12.04779 | -77.04253 | 0° | 0km/h | 964m | 0.0m/s | -46.6°C | 0.6% | 16.8hPa | 2.6V | 00:00:00 | 00:00:00 | 00:00:00 | |
| SQ9EZE-15 | 2026-08-30 13:06:18 | -12.04779 | -77.04253 | 0° | 0km/h | 964m | 0.0m/s | -46.7°C | 0.6% | 14.8hPa | 2.6V | 00:00:00 | 00:00:00 | 00:00:00 | |
| GYPAP8-17 | 2026-08-30 13:06:03 | -12.04681 | -77.04224 | 198° | 201km/h | 969m | -2.1m/s | -45.0°C | 0.5% | 13.5hPa | 2.6V | 00:00:00 | 00:00:00 | 00:00:00 | |
| SQ9EZE-14 | 2026-08-30 13:05:47 | -12.03036 | -77.05050 | 85° | 199km/h | 990m | 0.1m/s | -42.3°C | 0.4% | 12.1hPa | 2.6V | 00:00:00 | 00:00:00 | 00:00:00 | |
| SQ9EZE-14 | 2026-08-30 13:05:31 | -12.03036 | -77.05050 | 85° | 199km/h | 990m | 0.1m/s | -40.6°C | 0.4% | 10.9hPa | 2.6V | 00:00:00 | 00:00:00 | 00:00:00 | |
| SQ9EZE-14 | 2026-08-30 13:05:15 | -12.03036 | -77.05050 | 85° | 199km/h | 990m | 0.1m/s | -39.9°C | 0.4% | 9.8hPa | 2.6V | 00:00:00 | 00:00:00 | 00:00:00 | |
| SQ9EZE-15 | 2026-08-30 13:05:10 | -12.04779 | -77.04253 | 0° | 0km/h | 964m | 0.0m/s | -39.1°C | 0.3% | 9.5hPa | 2.6V | 00:00:00 | 00:00:00 | 00:00:00 | |
| GYPAP8-17 | 2026-08-30 13:05:10 | -12.04681 | -77.04224 | 198° | 201km/h | 969m | -2.1m/s | -39.1°C | 0.3% | 9.5hPa | 2.6V | 00:00:00 | 00:00:00 | 00:00:00 | |
| LZ4TU-5 | 2026-08-30 13:05:04 | -12.04823 | -77.04777 | 260° | 199km/h | 981m | -0.0m/s | -37.8°C | 0% | 0hPa | 2.6V | 00:00:00 | 00:00:00 | 00:00:00 | |
| LZ4TU-5 | 2026-08-30 13:04:59 | -12.04823 | -77.04777 | 260° | 199km/h | 981m | -0.0m/s | -37.7°C | 0% | 0hPa | 2.6V | 00:00:00 | 00:00:00 | 00:00:00 | |
| SQ9EZE-15 | 2026-08-30 13:04:09 | -12.04730 | -77.04239 | 198° | 201km/h | 967m | -2.1m/s | -34.8°C | 0.3% | 5.6hPa | 2.6V | 00:00:00 | 00:00:00 | 00:00:00 | |
| SQ9EZE-13 | 2026-08-30 13:04:08 | -12.04681 | -77.04224 | 198° | 201km/h | 969m | -2.1m/s | -34.5°C | 0.2% | 5.6hPa | 2.6V | 00:00:00 | 00:00:00 | 00:00:00 | |
| GYPAP8-17 | 2026-08-30 13:04:04 | -12.04486 | -77.04166 | 198° | 201km/h | 977m | -2.1m/s | -33.2°C | 0.2% | 5.4hPa | 2.6V | 00:00:00 | 00:00:00 | 00:00:00 | |
| SQ9EZE-13 | 2026-08-30 13:03:52 | -12.03892 | -77.04040 | 178° | 199km/h | 990m | -0.1m/s | -33.5°C | 0.2% | 5.1hPa | 2.6V | 00:00:00 | 00:00:00 | 00:00:00 | |
| OE5DRO-10 | 2026-08-30 13:03:51 | -12.03842 | -77.04044 | 175° | 199km/h | 990m | -0.0m/s | -33.5°C | 1.4% | 5.1hPa | 2.6V | 00:00:00 | 00:00:00 | 00:00:00 | |
| SQ9EZE-15 | 2026-08-30 13:03:48 | -12.03693 | -77.04073 | 165° | 199km/h | 990m | -0.1m/s | -33.6°C | 0.2% | 5.1hPa | 2.7V | 00:00:00 | 00:00:00 | 00:00:00 | |
| SQ9EZE-13 | 2026-08-30 13:03:36 | -12.03203 | -77.04419 | 127° | 199km/h | 990m | -0.1m/s | -33.2°C | 0.2% | 5.2hPa | 2.7V | 00:00:00 | 00:00:00 | 00:00:00 | |
| OE5DRO-10 | 2026-08-30 13:03:32 | -12.03104 | -77.04598 | 114° | 199km/h | 990m | 0.0m/s | -33.2°C | 1.4% | 5.1hPa | 2.7V | 00:00:00 | 00:00:00 | 00:00:00 | |
| SQ9EZE-15 | 2026-08-30 13:03:28 | -12.03046 | -77.04794 | 101° | 199km/h | 990m | 0.1m/s | -33.4°C | 0.2% | 5.2hPa | 2.7V | 00:00:00 | 00:00:00 | 00:00:00 | |
| HA6NAB-11 | 2026-08-30 13:03:22 | -12.03043 | -77.05101 | 82° | 199km/h | 990m | 0.1m/s | -33.6°C | 0.2% | 5.2hPa | 2.7V | 00:00:00 | 00:00:00 | 00:00:00 | |
| SQ9EZE-13 | 2026-08-30 13:03:20 | -12.03065 | -77.05202 | 76° | 199km/h | 989m | -0.1m/s | -33.7°C | 0.2% | 5.2hPa | 2.7V | 00:00:00 | 00:00:00 | 00:00:00 | |
| SQ9EZE-14 | 2026-08-30 13:03:19 | -12.03080 | -77.05251 | 72° | 199km/h | 990m | 0.0m/s | -33.8°C | 0.2% | 5.2hPa | 2.7V | 00:00:00 | 00:00:00 | 00:00:00 | |
| HA6NAB-11 | 2026-08-30 13:03:15 | -12.03164 | -77.05437 | 60° | 199km/h | 990m | -0.1m/s | -34.0°C | 0.2% | 5.2hPa | 2.7V | 00:00:00 | 00:00:00 | 00:00:00 | |
| OE5DRO-10 | 2026-08-30 13:03:13 | -12.03221 | -77.05522 | 52° | 199km/h | 990m | -0.9m/s | -34.1°C | 1.5% | 5.2hPa | 2.7V | 00:00:00 | 00:00:00 | 00:00:00 | |
| HA6NAB-11 | 2026-08-30 13:03:09 | -12.03364 | -77.05669 | 40° | 199km/h | 990m | 0.1m/s | -34.6°C | 0.2% | 5.2hPa | 2.7V | 00:00:00 | 00:00:00 | 00:00:00 | |
| OE5DRO-10 | 2026-08-30 13:03:07 | -12.03445 | -77.05729 | 33° | 199km/h | 990m | -0.0m/s | -34.6°C | 1.6% | 5.2hPa | 2.7V | 00:00:00 | 00:00:00 | 08:30:00 | |
| SQ9EZE-13 | 2026-08-30 13:03:04 | -12.03579 | -77.05801 | 24° | 199km/h | 990m | 0.1m/s | -34.4°C | 0.2% | 5.3hPa | 2.7V | 00:00:00 | 00:00:00 | 00:00:00 | |
| SQ9EZE-14 | 2026-08-30 13:03:04 | -12.03579 | -77.05801 | 24° | 199km/h | 990m | 0.1m/s | -34.4°C | 0.2% | 5.3hPa | 2.7V | 00:00:00 | 00:00:00 | 00:00:00 | |
| HA6NAB-11 | 2026-08-30 13:03:03 | -12.03626 | -77.05820 | 21° | 199km/h | 990m | 0.1m/s | -34.4°C | 0.2% | 5.3hPa | 2.7V | 00:00:00 | 00:00:00 | 00:00:00 | |
| GYPAP8-17 | 2026-08-30 13:03:01 | -12.03723 | -77.05850 | 15° | 199km/h | 990m | -0.1m/s | -34.5°C | 0.2% | 5.3hPa | 2.7V | 00:00:00 | 00:00:00 | 00:00:00 | |
| HA6NAB-11 | 2026-08-30 13:02:54 | -12.04075 | -77.05865 | 352° | 199km/h | 990m | 0.0m/s | -34.7°C | 0.2% | 5.3hPa | 2.7V | 00:00:00 | 00:00:00 | 00:00:00 | |
| SQ9EZE-13 | 2026-08-30 13:02:49 | -12.04316 | -77.05791 | 336° | 199km/h | 990m | -0.1m/s | -34.6°C | 0.2% | 5.3hPa | 2.7V | 00:00:00 | 00:00:00 | 00:00:00 | |
| OE5DRO-10 | 2026-08-30 13:02:48 | -12.04361 | -77.05767 | 332° | 199km/h | 990m | -0.0m/s | -34.5°C | 1.6% | 5.3hPa | 2.7V | 00:00:00 | 00:00:00 | 00:00:00 | |
| HA6NAB-11 | 2026-08-30 13:02:48 | -12.04361 | -77.05768 | 333° | 199km/h | 990m | -0.0m/s | -34.6°C | 0.2% | 5.3hPa | 2.7V | 00:00:00 | 00:00:00 | 00:00:00 | |
| SQ9EZE-14 | 2026-08-30 13:02:48 | -12.04361 | -77.05768 | 333° | 199km/h | 990m | -0.0m/s | -34.6°C | 0.2% | 5.3hPa | 2.7V | 00:00:00 | 00:00:00 | 00:00:00 | |
| HA6NAB-11 | 2026-08-30 13:02:43 | -12.04565 | -77.05617 | 317° | 199km/h | 990m | -0.0m/s | -34.7°C | 0.2% | 5.3hPa | 2.7V | 00:00:00 | 00:00:00 | 00:00:00 | |
| HA6NAB-11 | 2026-08-30 13:02:37 | -12.04743 | -77.05369 | 298° | 199km/h | 992m | 0.1m/s | -34.7°C | 0.2% | 5.4hPa | 2.7V | 00:00:00 | 00:00:00 | 00:00:00 | |
| SQ9EZE-13 | 2026-08-30 13:02:34 | -12.04799 | -77.05226 | 288° | 199km/h | 991m | 0.1m/s | -34.9°C | 0.2% | 5.4hPa | 2.7V | 00:00:00 | 00:00:00 | 00:00:00 | |
| HA6NAB-11 | 2026-08-30 13:02:31 | -12.04832 | -77.05075 | 278° | 199km/h | 990m | -0.1m/s | -35.0°C | 0.2% | 5.4hPa | 2.7V | 00:00:00 | 00:00:00 | 00:00:00 | |
| OE5DRO-10 | 2026-08-30 13:02:29 | -12.04839 | -77.04973 | 271° | 199km/h | 990m | -0.0m/s | -34.9°C | 1.6% | 5.4hPa | 2.7V | 00:00:00 | 00:00:00 | 00:00:00 | |
| SQ9EZE-15 | 2026-08-30 13:02:24 | -12.04808 | -77.04719 | 256° | 199km/h | 991m | -0.0m/s | -35.0°C | 0.2% | 5.5hPa | 2.7V | 00:00:00 | 00:00:00 | 00:00:00 | |
| SQ9EZE-13 | 2026-08-30 13:02:14 | -12.04549 | -77.04285 | 224° | 199km/h | 992m | -0.0m/s | -35.6°C | 0.3% | 5.5hPa | 2.7V | 00:00:00 | 00:00:00 | 00:00:00 | |
| OE5DRO-10 | 2026-08-30 13:02:10 | -12.04387 | -77.04162 | 210° | 199km/h | 992m | 0.0m/s | -35.6°C | 1.6% | 5.4hPa | 2.7V | 00:00:00 | 00:00:00 | 00:00:00 | |
| SQ9EZE-15 | 2026-08-30 13:02:04 | -12.04103 | -77.04056 | 192° | 199km/h | 991m | 0.1m/s | -35.8°C | 0.2% | 5.5hPa | 2.7V | 00:00:00 | 00:00:00 | 00:00:00 | |
| HA6NAB-11 | 2026-08-30 13:01:57 | -12.03752 | -77.04058 | 169° | 199km/h | 989m | 0.0m/s | -36.3°C | 0.3% | 5.6hPa | 2.7V | 00:00:00 | 00:00:00 | 00:00:00 | |
| SQ9EZE-13 | 2026-08-30 13:01:52 | -12.03514 | -77.04144 | 153° | 199km/h | 989m | -0.5m/s | -36.5°C | 0.2% | 5.5hPa | 2.7V | 00:00:00 | 00:00:00 | 00:00:00 | |
| OE5DRO-10 | 2026-08-30 13:01:51 | -12.03470 | -77.04170 | 150° | 199km/h | 990m | -0.1m/s | -36.3°C | 1.7% | 5.5hPa | 2.7V | 00:00:00 | 00:00:00 | 00:00:00 | |
| HA6NAB-11 | 2026-08-30 13:01:51 | -12.03470 | -77.04170 | 150° | 199km/h | 990m | -0.1m/s | -36.4°C | 0.2% | 5.6hPa | 2.7V | 00:00:00 | 00:00:00 | 00:00:00 | |
| GYPAP8-17 | 2026-08-30 13:01:50 | -12.03427 | -77.04198 | 147° | 199km/h | 990m | 0.0m/s | -36.4°C | 0.3% | 5.6hPa | 2.7V | 00:00:00 | 00:00:00 | 00:00:00 | |
| HA6NAB-11 | 2026-08-30 13:01:43 | -12.03180 | -77.04453 | 124° | 199km/h | 991m | 0.0m/s | -36.7°C | 0.3% | 5.6hPa | 2.7V | 00:00:00 | 00:00:00 | 00:00:00 | |
| SQ9EZE-13 | 2026-08-30 13:01:36 | -12.03047 | -77.04784 | 102° | 199km/h | 991m | 0.0m/s | -36.9°C | 0.3% | 5.6hPa | 2.7V | 00:00:00 | 00:00:00 | 00:00:00 | |
| OE5DRO-10 | 2026-08-30 13:01:32 | -12.03032 | -77.04988 | 89° | 199km/h | 991m | 0.0m/s | -37.1°C | 1.8% | 5.6hPa | 2.7V | 00:00:00 | 00:00:00 | 00:00:00 | |
| SQ9EZE-13 | 2026-08-30 13:01:15 | -12.03436 | -77.05722 | 34° | 199km/h | 992m | 1.2m/s | -37.3°C | 0.3% | 5.7hPa | 2.7V | 00:00:00 | 00:00:00 | 00:00:00 | |
| OE5DRO-10 | 2026-08-30 13:01:13 | -12.03523 | -77.05774 | 28° | 199km/h | 992m | -0.4m/s | -37.2°C | 1.8% | 5.7hPa | 2.7V | 00:00:00 | 00:00:00 | 00:00:00 | |
| OE5DRO-10 | 2026-08-30 13:01:09 | -12.03712 | -77.05847 | 15° | 199km/h | 991m | -0.0m/s | -37.3°C | 1.8% | 5.7hPa | 2.7V | 00:00:00 | 00:00:00 | 00:00:00 | |
| SQ9EZE-15 | 2026-08-30 13:01:00 | -12.04163 | -77.05845 | 346° | 199km/h | 991m | -0.0m/s | -37.4°C | 0.3% | 5.8hPa | 2.7V | 00:00:00 | 00:00:00 | 00:00:00 | |
| SQ9EZE-13 | 2026-08-30 13:00:59 | -12.04212 | -77.05831 | 343° | 199km/h | 991m | 0.1m/s | -37.5°C | 0.3% | 5.8hPa | 2.7V | 00:00:00 | 00:00:00 | 00:00:00 | |
| OE5DRO-10 | 2026-08-30 13:00:50 | -12.04593 | -77.05587 | 314° | 199km/h | 989m | -0.4m/s | -37.5°C | 1.8% | 5.8hPa | 2.7V | 00:00:00 | 00:00:00 | 00:00:00 | |
| GYPAP8-17 | 2026-08-30 13:00:46 | -12.04714 | -77.05423 | 301° | 199km/h | 990m | 0.1m/s | -37.7°C | 0.3% | 5.9hPa | 2.7V | 00:00:00 | 00:00:00 | 00:00:00 | |
| SQ9EZE-14 | 2026-08-30 13:00:45 | -12.04739 | -77.05378 | 298° | 201km/h | 988m | 1.5m/s | -37.8°C | 0.3% | 5.8hPa | 2.7V | 00:00:00 | 00:00:00 | 00:00:00 | |
| SQ9EZE-13 | 2026-08-30 13:00:40 | -12.04823 | -77.05135 | 282° | 199km/h | 987m | 0.0m/s | -37.8°C | 0.3% | 5.9hPa | 2.7V | 00:00:00 | 00:00:00 | 00:00:00 | |
| SQ9EZE-15 | 2026-08-30 13:00:40 | -12.04823 | -77.05135 | 282° | 199km/h | 987m | 0.0m/s | -37.8°C | 0.3% | 5.9hPa | 2.7V | 00:00:00 | 00:00:00 | 00:00:00 | |
| OE5DRO-10 | 2026-08-30 13:00:34 | -12.04831 | -77.04828 | 262° | 199km/h | 979m | -0.6m/s | -37.8°C | 1.9% | 5.8hPa | 2.7V | 00:00:00 | 00:00:00 | 08:30:00 | |
| LZ4TU-5 | 2026-08-30 13:00:33 | -12.04823 | -77.04777 | 260° | 199km/h | 981m | -0.0m/s | -37.8°C | 0% | 0hPa | 2.7V | 00:00:00 | 00:00:00 | 00:00:00 | |
| SQ9EZE-14 | 2026-08-30 13:00:29 | -12.04762 | -77.04580 | 247° | 199km/h | 981m | 0.4m/s | -37.8°C | 0.3% | 5.9hPa | 2.7V | 00:00:00 | 00:00:00 | 00:00:00 | |
| LZ4TU-5 | 2026-08-30 13:00:28 | -12.04740 | -77.04533 | 244° | 199km/h | 983m | -0.2m/s | -37.8°C | 0% | 0hPa | 2.7V | 00:00:00 | 00:00:00 | 00:00:00 | |
| OE5DRO-10 | 2026-08-30 13:00:25 | -12.04660 | -77.04403 | 232° | 197km/h | 988m | -0.9m/s | -37.7°C | 1.8% | 5.9hPa | 2.7V | 00:00:00 | 00:00:00 | 00:00:00 | |
| SQ9EZE-13 | 2026-08-30 13:00:25 | -12.04660 | -77.04404 | 233° | 197km/h | 988m | -0.9m/s | -37.8°C | 0.3% | 6.0hPa | 2.7V | 00:00:00 | 00:00:00 | 00:00:00 | |
| OE5DRO-10 | 2026-08-30 13:00:23 | -12.04593 | -77.04326 | 226° | 199km/h | 992m | -1.7m/s | -37.7°C | 1.8% | 5.9hPa | 2.7V | 00:00:00 | 00:00:00 | 00:00:00 | |
| SQ9EZE-14 | 2026-08-30 13:00:14 | -12.04211 | -77.04083 | 199° | 199km/h | 989m | -0.1m/s | -37.3°C | 0.3% | 6.0hPa | 2.7V | 00:00:00 | 00:00:00 | 00:00:00 | |
| HA6NAB-11 | 2026-08-30 13:00:13 | -12.04162 | -77.04069 | 196° | 199km/h | 990m | -0.2m/s | -37.4°C | 0.3% | 6.0hPa | 2.7V | 00:00:00 | 00:00:00 | 00:00:00 | |
| OE5DRO-10 | 2026-08-30 13:00:12 | -12.04113 | -77.04057 | 191° | 199km/h | 990m | -0.7m/s | -37.4°C | 1.7% | 5.9hPa | 2.7V | 00:00:00 | 00:00:00 | 00:00:00 | |
| SQ9EZE-13 | 2026-08-30 13:00:09 | -12.03962 | -77.04040 | 183° | 199km/h | 991m | -0.1m/s | -37.7°C | 0.3% | 6.0hPa | 2.7V | 00:00:00 | 00:00:00 | 00:00:00 | |
| HA6NAB-11 | 2026-08-30 13:00:04 | -12.03712 | -77.04069 | 167° | 199km/h | 991m | -0.2m/s | -37.8°C | 0.3% | 6.1hPa | 2.7V | 00:00:00 | 00:00:00 | 00:00:00 | |
| OE5DRO-10 | 2026-08-30 12:59:53 | -12.03247 | -77.04364 | 131° | 199km/h | 992m | -0.0m/s | -38.3°C | 1.8% | 6.0hPa | 2.7V | 00:00:00 | 00:00:00 | 00:00:00 | |
| SQ9EZE-13 | 2026-08-30 12:59:53 | -12.03247 | -77.04364 | 131° | 199km/h | 992m | -0.0m/s | -38.4°C | 0.3% | 6.1hPa | 2.7V | 00:00:00 | 00:00:00 | 00:00:00 | |
| SQ9EZE-13 | 2026-08-30 12:59:38 | -12.03040 | -77.05081 | 83° | 199km/h | 991m | 0.1m/s | -38.2°C | 0.3% | 6.2hPa | 2.7V | 00:00:00 | 00:00:00 | 00:00:00 | |
| GYPAP8-17 | 2026-08-30 12:59:38 | -12.03040 | -77.05081 | 83° | 199km/h | 991m | 0.1m/s | -38.2°C | 0.3% | 6.2hPa | 2.7V | 00:00:00 | 00:00:00 | 00:00:00 | |
| OE5DRO-10 | 2026-08-30 12:59:35 | -12.03089 | -77.05280 | 70° | 199km/h | 991m | 0.0m/s | -37.8°C | 1.8% | 6.2hPa | 2.7V | 00:00:00 | 00:00:00 | 00:00:00 | |
| HA6NAB-11 | 2026-08-30 12:59:28 | -12.03241 | -77.05546 | 51° | 199km/h | 990m | -0.1m/s | -38.3°C | 0.3% | 6.2hPa | 2.7V | 00:00:00 | 00:00:00 | 00:00:00 | |
| SQ9EZE-15 | 2026-08-30 12:59:26 | -12.03310 | -77.05621 | 45° | 199km/h | 990m | -0.1m/s | -38.2°C | 0.3% | 6.3hPa | 2.7V | 00:00:00 | 00:00:00 | 00:00:00 | |
| SQ9EZE-13 | 2026-08-30 12:59:23 | -12.03428 | -77.05717 | 35° | 199km/h | 990m | 0.0m/s | -38.0°C | 0.3% | 6.3hPa | 2.7V | 00:00:00 | 00:00:00 | 00:00:00 | |
| OE5DRO-10 | 2026-08-30 12:59:15 | -12.03802 | -77.05865 | 9° | 199km/h | 990m | -0.0m/s | -38.0°C | 1.9% | 6.3hPa | 2.7V | 00:00:00 | 00:00:00 | 00:00:00 | |
| SQ9EZE-13 | 2026-08-30 12:59:07 | -12.04203 | -77.05833 | 344° | 199km/h | 989m | 0.0m/s | -37.9°C | 0.3% | 6.3hPa | 2.7V | 00:00:00 | 00:00:00 | 00:00:00 | |
| SQ9EZE-15 | 2026-08-30 12:59:05 | -12.04297 | -77.05797 | 337° | 199km/h | 988m | -0.1m/s | -38.0°C | 0.3% | 6.3hPa | 2.7V | 00:00:00 | 00:00:00 | 00:00:00 | |
| OE5DRO-10 | 2026-08-30 12:58:56 | -12.04652 | -77.05516 | 308° | 199km/h | 989m | -0.4m/s | -37.5°C | 1.8% | 6.3hPa | 2.7V | 00:00:00 | 00:00:00 | 00:00:00 | |
| HA6NAB-11 | 2026-08-30 12:58:51 | -12.04777 | -77.05293 | 293° | 199km/h | 986m | -0.2m/s | -37.4°C | 0.3% | 6.4hPa | 2.7V | 00:00:00 | 00:00:00 | 00:00:00 | |
| LZ4TU-5 | 2026-08-30 12:58:49 | -12.04808 | -77.05197 | 286° | 197km/h | 988m | 1.4m/s | -37.3°C | 0% | 0hPa | 2.7V | 00:00:00 | 00:00:00 | 00:00:00 | |
| SQ9EZE-13 | 2026-08-30 12:58:49 | -12.04808 | -77.05197 | 286° | 197km/h | 988m | 1.4m/s | -37.3°C | 0.3% | 6.4hPa | 2.7V | 00:00:00 | 00:00:00 | 00:00:00 | |
| OE5DRO-10 | 2026-08-30 12:58:47 | -12.04829 | -77.05095 | 279° | 199km/h | 989m | -0.5m/s | -37.4°C | 1.8% | 6.4hPa | 2.7V | 00:00:00 | 00:00:00 | 08:30:00 | |
| LZ4TU-5 | 2026-08-30 12:58:44 | -12.04840 | -77.04941 | 270° | 199km/h | 986m | -0.0m/s | -37.7°C | 0% | 0hPa | 2.7V | 00:00:00 | 00:00:00 | 00:00:00 | |
| HA6NAB-11 | 2026-08-30 12:58:43 | -12.04838 | -77.04890 | 267° | 199km/h | 988m | 0.2m/s | -37.7°C | 0.3% | 6.5hPa | 2.7V | 00:00:00 | 00:00:00 | 00:00:00 | |
| GYPAP8-17 | 2026-08-30 12:58:35 | -12.04719 | -77.04499 | 241° | 199km/h | 991m | -0.0m/s | -37.4°C | 0.3% | 6.5hPa | 2.7V | 00:00:00 | 00:00:00 | 00:00:00 | |
| SQ9EZE-13 | 2026-08-30 12:58:33 | -12.04664 | -77.04413 | 235° | 199km/h | 992m | -0.3m/s | -37.4°C | 0.3% | 6.5hPa | 2.7V | 00:00:00 | 00:00:00 | 00:00:00 | |
| OE5DRO-10 | 2026-08-30 12:58:26 | -12.04404 | -77.04172 | 212° | 199km/h | 992m | 0.0m/s | -36.9°C | 1.8% | 6.5hPa | 2.7V | 00:00:00 | 00:00:00 | 00:00:00 | |
| SQ9EZE-13 | 2026-08-30 12:58:17 | -12.03973 | -77.04039 | 183° | 199km/h | 994m | 0.0m/s | -37.1°C | 0.3% | 6.6hPa | 2.7V | 00:00:00 | 00:00:00 | 00:00:00 | |
| OE5DRO-10 | 2026-08-30 12:58:07 | -12.03488 | -77.04159 | 151° | 199km/h | 992m | -0.0m/s | -37.1°C | 1.8% | 6.6hPa | 2.7V | 00:00:00 | 00:00:00 | 00:00:00 | |
| SQ9EZE-14 | 2026-08-30 12:58:04 | -12.03363 | -77.04247 | 142° | 199km/h | 992m | 0.2m/s | -36.8°C | 0.3% | 6.7hPa | 2.6V | 00:00:00 | 00:00:00 | 00:00:00 | |
| SQ9EZE-15 | 2026-08-30 12:58:03 | -12.03325 | -77.04280 | 138° | 199km/h | 992m | -0.0m/s | -36.8°C | 0.3% | 6.7hPa | 2.6V | 00:00:00 | 00:00:00 | 00:00:00 | |
| SQ9EZE-13 | 2026-08-30 12:58:01 | -12.03254 | -77.04353 | 132° | 199km/h | 991m | 0.1m/s | -36.8°C | 0.3% | 6.7hPa | 2.6V | 00:00:00 | 00:00:00 | 00:00:00 | |
| OE5DRO-10 | 2026-08-30 12:57:48 | -12.03032 | -77.04967 | 90° | 199km/h | 991m | 0.1m/s | -36.4°C | 1.7% | 6.7hPa | 2.6V | 00:00:00 | 00:00:00 | 00:00:00 | |
| SQ9EZE-13 | 2026-08-30 12:57:46 | -12.03039 | -77.05070 | 84° | 199km/h | 992m | -0.1m/s | -36.6°C | 0.3% | 6.8hPa | 2.6V | 00:00:00 | 00:00:00 | 00:00:00 | |
| SQ9EZE-15 | 2026-08-30 12:57:43 | -12.03070 | -77.05220 | 74° | 199km/h | 992m | -0.0m/s | -36.6°C | 0.3% | 6.8hPa | 2.6V | 00:00:00 | 00:00:00 | 00:00:00 | |
| GYPAP8-17 | 2026-08-30 12:57:33 | -12.03379 | -77.05681 | 39° | 199km/h | 991m | 0.0m/s | -36.5°C | 0.2% | 6.9hPa | 2.6V | 00:00:00 | 00:00:00 | 00:00:00 | |
| SQ9EZE-13 | 2026-08-30 12:57:31 | -12.03420 | -77.05710 | 36° | 199km/h | 991m | 0.0m/s | -36.6°C | 0.3% | 6.9hPa | 2.6V | 00:00:00 | 00:00:00 | 00:00:00 | |
| OE5DRO-10 | 2026-08-30 12:57:29 | -12.03506 | -77.05765 | 29° | 199km/h | 991m | -0.2m/s | -36.4°C | 1.8% | 6.8hPa | 2.6V | 00:00:00 | 00:00:00 | 00:00:00 | |
| SQ9EZE-15 | 2026-08-30 12:57:22 | -12.03842 | -77.05871 | 7° | 199km/h | 990m | -0.0m/s | -36.2°C | 0.3% | 6.9hPa | 2.6V | 00:00:00 | 00:00:00 | 00:00:00 | |
| SQ9EZE-13 | 2026-08-30 12:57:16 | -12.04144 | -77.05851 | 348° | 199km/h | 990m | 0.0m/s | -35.9°C | 0.3% | 6.9hPa | 2.6V | 00:00:00 | 00:00:00 | 00:00:00 | |
| LZ4TU-5 | 2026-08-30 12:57:13 | -12.04288 | -77.05803 | 338° | 199km/h | 990m | 0.1m/s | -35.9°C | 0% | 0hPa | 2.6V | 00:00:00 | 00:00:00 | 00:00:00 | |
| OE5DRO-10 | 2026-08-30 12:57:10 | -12.04422 | -77.05731 | 328° | 199km/h | 991m | -0.4m/s | -35.8°C | 1.7% | 6.9hPa | 2.6V | 00:00:00 | 00:00:00 | 00:00:00 | |
| LZ4TU-5 | 2026-08-30 12:57:08 | -12.04505 | -77.05672 | 322° | 199km/h | 991m | 0.1m/s | -36.0°C | 0% | 0hPa | 2.7V | 00:00:00 | 00:00:00 | 00:00:00 | |
| SQ9EZE-15 | 2026-08-30 12:57:02 | -12.04705 | -77.05440 | 303° | 199km/h | 990m | -0.2m/s | -35.9°C | 0.3% | 7.0hPa | 2.7V | 00:00:00 | 00:00:00 | 00:00:00 | |
| SQ9EZE-13 | 2026-08-30 12:56:56 | -12.04819 | -77.05156 | 283° | 199km/h | 990m | -0.1m/s | -35.6°C | 0.3% | 7.1hPa | 2.7V | 00:00:00 | 00:00:00 | 00:00:00 | |
| OE5DRO-10 | 2026-08-30 12:56:55 | -12.04828 | -77.05105 | 280° | 199km/h | 990m | -0.0m/s | -35.5°C | 1.7% | 7.0hPa | 2.7V | 00:00:00 | 00:00:00 | 00:00:00 | |
| HA6NAB-11 | 2026-08-30 12:56:50 | -12.04835 | -77.04848 | 264° | 199km/h | 990m | 0.1m/s | -35.4°C | 0.2% | 7.1hPa | 2.7V | 00:00:00 | 00:00:00 | 00:00:00 | |
| HA6NAB-11 | 2026-08-30 12:56:38 | -12.04573 | -77.04304 | 226° | 199km/h | 990m | 0.2m/s | -35.5°C | 0.3% | 7.2hPa | 2.7V | 00:00:00 | 00:00:00 | 00:00:00 | |
| OE5DRO-10 | 2026-08-30 12:56:36 | -12.04497 | -77.04234 | 218° | 197km/h | 991m | -3.5m/s | -35.5°C | 1.7% | 7.2hPa | 2.7V | 00:00:00 | 00:00:00 | 00:00:00 | |
| OE5DRO-10 | 2026-08-30 12:56:34 | -12.04416 | -77.04169 | 211° | 197km/h | 991m | -2.2m/s | -35.6°C | 1.7% | 7.2hPa | 2.7V | 00:00:00 | 00:00:00 | 08:30:00 | |
| HA6NAB-11 | 2026-08-30 12:56:32 | -12.04326 | -77.04126 | 204° | 197km/h | 989m | -0.4m/s | -35.8°C | 0.3% | 7.2hPa | 2.7V | 00:00:00 | 00:00:00 | 00:00:00 | |
| GYPAP8-17 | 2026-08-30 12:56:30 | -12.04232 | -77.04089 | 200° | 201km/h | 990m | -0.1m/s | -35.9°C | 0.3% | 7.3hPa | 2.7V | 00:00:00 | 00:00:00 | 00:00:00 | |
| OE5DRO-10 | 2026-08-30 12:56:28 | -12.04134 | -77.04061 | 193° | 199km/h | 990m | 0.4m/s | -36.0°C | 1.7% | 7.2hPa | 2.7V | 00:00:00 | 00:00:00 | 00:00:00 | |
| HA6NAB-11 | 2026-08-30 12:56:27 | -12.04085 | -77.04051 | 190° | 199km/h | 990m | 0.3m/s | -36.0°C | 0.3% | 7.3hPa | 2.7V | 00:00:00 | 00:00:00 | 00:00:00 | |
| SQ9EZE-13 | 2026-08-30 12:56:26 | -12.04034 | -77.04044 | 187° | 199km/h | 991m | 0.2m/s | -35.9°C | 0.3% | 7.3hPa | 2.7V | 00:00:00 | 00:00:00 | 00:00:00 | |
| HA6NAB-11 | 2026-08-30 12:56:21 | -12.04023 | -77.04042 | 186° | 199km/h | 989m | -0.2m/s | -35.8°C | 0.3% | 7.3hPa | 2.7V | 00:00:00 | 00:00:00 | 00:00:00 | |
| SQ9EZE-15 | 2026-08-30 12:56:00 | -12.04108 | -77.05880 | 338° | 203km/h | 994m | 0.8m/s | -36.0°C | 0.3% | 7.4hPa | 2.7V | 00:00:00 | 00:00:00 | 00:00:00 | |
| SQ9EZE-13 | 2026-08-30 12:55:55 | -12.04343 | -77.05777 | 334° | 199km/h | 991m | -0.1m/s | -35.9°C | 0.3% | 7.4hPa | 2.7V | 00:00:00 | 00:00:00 | 00:00:00 | |
| OE5DRO-10 | 2026-08-30 12:55:46 | -12.04682 | -77.05475 | 305° | 199km/h | 991m | 0.0m/s | -35.9°C | 1.7% | 7.4hPa | 2.7V | 00:00:00 | 00:00:00 | 00:00:00 | |
| SQ9EZE-14 | 2026-08-30 12:55:46 | -12.04682 | -77.05475 | 305° | 199km/h | 991m | 0.0m/s | -35.9°C | 0.3% | 7.5hPa | 2.7V | 00:00:00 | 00:00:00 | 00:00:00 | |
| SQ9EZE-13 | 2026-08-30 12:55:39 | -12.04820 | -77.05146 | 283° | 199km/h | 990m | 0.0m/s | -35.6°C | 0.3% | 7.6hPa | 2.7V | 00:00:00 | 00:00:00 | 00:00:00 | |
| SQ9EZE-15 | 2026-08-30 12:55:39 | -12.04820 | -77.05146 | 283° | 199km/h | 990m | 0.0m/s | -35.6°C | 0.3% | 7.6hPa | 2.7V | 00:00:00 | 00:00:00 | 00:00:00 | |
| OE5DRO-10 | 2026-08-30 12:55:27 | -12.04743 | -77.04545 | 244° | 199km/h | 989m | 0.0m/s | -35.8°C | 1.7% | 7.6hPa | 2.7V | 00:00:00 | 00:00:00 | 00:00:00 | |
| GYPAP8-17 | 2026-08-30 12:55:27 | -12.04743 | -77.04545 | 244° | 199km/h | 989m | 0.0m/s | -35.8°C | 0.3% | 7.7hPa | 2.7V | 00:00:00 | 00:00:00 | 00:00:00 | |
| SQ9EZE-13 | 2026-08-30 12:55:24 | -12.04664 | -77.04414 | 235° | 199km/h | 989m | -0.2m/s | -35.9°C | 0.3% | 7.7hPa | 2.7V | 00:00:00 | 00:00:00 | 00:00:00 | |
| SQ9EZE-15 | 2026-08-30 12:55:19 | -12.04488 | -77.04230 | 219° | 199km/h | 988m | 0.0m/s | -36.0°C | 0.3% | 7.7hPa | 2.7V | 00:00:00 | 00:00:00 | 00:00:00 | |
| HA6NAB-11 | 2026-08-30 12:55:09 | -12.04023 | -77.04042 | 186° | 199km/h | 989m | -0.2m/s | -35.4°C | 0.3% | 7.8hPa | 2.7V | 00:00:00 | 00:00:00 | 00:00:00 | |
| OE5DRO-10 | 2026-08-30 12:55:08 | -12.03973 | -77.04040 | 181° | 199km/h | 988m | 0.3m/s | -35.4°C | 1.6% | 7.8hPa | 2.7V | 00:00:00 | 00:00:00 | 00:00:00 | |
| SQ9EZE-13 | 2026-08-30 12:55:08 | -12.03973 | -77.04040 | 182° | 195km/h | 988m | 0.3m/s | -35.4°C | 0.3% | 7.8hPa | 2.7V | 00:00:00 | 00:00:00 | 00:00:00 | |
| HA6NAB-11 | 2026-08-30 12:55:03 | -12.03722 | -77.04065 | 167° | 199km/h | 987m | -0.0m/s | -35.4°C | 0.3% | 7.8hPa | 2.7V | 00:00:00 | 00:00:00 | 00:00:00 | |
| HA6NAB-11 | 2026-08-30 12:54:58 | -12.03488 | -77.04159 | 151° | 199km/h | 984m | 0.0m/s | -35.4°C | 0.3% | 7.8hPa | 2.7V | 00:00:00 | 00:00:00 | 00:00:00 | |
| SQ9EZE-13 | 2026-08-30 12:54:53 | -12.03288 | -77.04314 | 135° | 199km/h | 985m | 0.1m/s | -35.3°C | 0.3% | 7.9hPa | 2.7V | 00:00:00 | 00:00:00 | 00:00:00 | |
| HA6NAB-11 | 2026-08-30 12:54:52 | -12.03253 | -77.04352 | 132° | 199km/h | 987m | 0.0m/s | -35.2°C | 0.3% | 7.9hPa | 2.7V | 00:00:00 | 00:00:00 | 00:00:00 | |
| OE5DRO-10 | 2026-08-30 12:54:49 | -12.03162 | -77.04477 | 122° | 199km/h | 991m | -1.0m/s | -35.1°C | 1.6% | 7.8hPa | 2.7V | 00:00:00 | 00:00:00 | 00:00:00 | |
| HA6NAB-11 | 2026-08-30 12:54:46 | -12.03097 | -77.04615 | 113° | 199km/h | 989m | -0.1m/s | -35.4°C | 0.3% | 7.9hPa | 2.7V | 00:00:00 | 00:00:00 | 00:00:00 | |
| HA6NAB-11 | 2026-08-30 12:54:40 | -12.03033 | -77.04917 | 94° | 199km/h | 989m | -0.0m/s | -35.4°C | 0.3% | 7.9hPa | 2.7V | 00:00:00 | 00:00:00 | 00:00:00 | |
| SQ9EZE-13 | 2026-08-30 12:54:36 | -12.03047 | -77.05121 | 81° | 197km/h | 990m | 0.6m/s | -35.6°C | 0.3% | 8.0hPa | 2.7V | 00:00:00 | 00:00:00 | 00:00:00 | |
| OE5DRO-10 | 2026-08-30 12:54:25 | -12.03303 | -77.05613 | 45° | 199km/h | 990m | -0.5m/s | -36.6°C | 1.7% | 8.0hPa | 2.7V | 00:00:00 | 00:00:00 | 00:00:00 | |
| GYPAP8-17 | 2026-08-30 12:54:24 | -12.03340 | -77.05648 | 43° | 199km/h | 991m | -0.2m/s | -36.6°C | 0.3% | 8.1hPa | 2.7V | 00:00:00 | 00:00:00 | 00:00:00 | |
| SQ9EZE-13 | 2026-08-30 12:54:21 | -12.03462 | -77.05740 | 32° | 199km/h | 991m | -0.2m/s | -36.6°C | 0.3% | 8.1hPa | 2.7V | 00:00:00 | 00:00:00 | 00:00:00 | |
| OE5DRO-10 | 2026-08-30 12:54:13 | -12.03842 | -77.05871 | 6° | 199km/h | 991m | 0.2m/s | -36.9°C | 1.7% | 8.1hPa | 2.7V | 00:00:00 | 00:00:00 | 00:00:00 | |
| SQ9EZE-13 | 2026-08-30 12:54:05 | -12.04241 | -77.05822 | 341° | 199km/h | 991m | 0.1m/s | -36.8°C | 0.3% | 8.2hPa | 2.7V | 00:00:00 | 00:00:00 | 00:00:00 | |
| SQ9EZE-15 | 2026-08-30 12:53:55 | -12.04646 | -77.05525 | 309° | 199km/h | 991m | 0.0m/s | -36.9°C | 0.3% | 8.2hPa | 2.7V | 00:00:00 | 00:00:00 | 00:00:00 | |
| OE5DRO-10 | 2026-08-30 12:53:54 | -12.04676 | -77.05484 | 305° | 199km/h | 991m | 0.0m/s | -36.9°C | 1.7% | 8.2hPa | 2.7V | 00:00:00 | 00:00:00 | 00:00:00 | |
| SQ9EZE-13 | 2026-08-30 12:53:50 | -12.04773 | -77.05304 | 293° | 199km/h | 991m | -0.0m/s | -37.0°C | 0.3% | 8.3hPa | 2.7V | 00:00:00 | 00:00:00 | 00:00:00 | |
| SQ9EZE-14 | 2026-08-30 12:53:43 | -12.04838 | -77.04954 | 271° | 199km/h | 992m | -0.1m/s | -37.3°C | 0.3% | 8.3hPa | 2.7V | 00:00:00 | 00:00:00 | 00:00:00 | |
| OE5DRO-10 | 2026-08-30 12:53:35 | -12.04747 | -77.04556 | 244° | 199km/h | 992m | -0.6m/s | -37.3°C | 1.8% | 8.3hPa | 2.7V | 00:00:00 | 00:00:00 | 08:30:00 | |
| SQ9EZE-13 | 2026-08-30 12:53:34 | -12.04724 | -77.04510 | 242° | 199km/h | 993m | -0.1m/s | -37.4°C | 0.3% | 8.4hPa | 2.7V | 00:00:00 | 00:00:00 | 00:00:00 | |
| SQ9EZE-14 | 2026-08-30 12:53:28 | -12.04534 | -77.04272 | 223° | 199km/h | 993m | -0.0m/s | -37.6°C | 0.3% | 8.4hPa | 2.7V | 00:00:00 | 00:00:00 | 00:00:00 | |
| OE5DRO-10 | 2026-08-30 12:53:27 | -12.04495 | -77.04238 | 219° | 199km/h | 993m | -0.0m/s | -37.7°C | 1.8% | 8.4hPa | 2.7V | 00:00:00 | 00:00:00 | 00:00:00 | |
| GYPAP8-17 | 2026-08-30 12:53:22 | -12.04278 | -77.04109 | 203° | 199km/h | 993m | -0.0m/s | -37.8°C | 0.3% | 8.4hPa | 2.7V | 00:00:00 | 00:00:00 | 00:00:00 | |
| SQ9EZE-13 | 2026-08-30 12:53:19 | -12.04133 | -77.04062 | 194° | 199km/h | 994m | -0.1m/s | -38.0°C | 0.3% | 8.5hPa | 2.7V | 00:00:00 | 00:00:00 | 00:00:00 | |
| OE5DRO-10 | 2026-08-30 12:53:08 | -12.03588 | -77.04112 | 158° | 199km/h | 994m | 0.0m/s | -38.4°C | 1.9% | 8.5hPa | 2.7V | 00:00:00 | 00:00:00 | 00:00:00 | |
| SQ9EZE-13 | 2026-08-30 12:53:00 | -12.03261 | -77.04349 | 133° | 199km/h | 994m | 0.0m/s | -38.3°C | 0.3% | 8.6hPa | 2.7V | 00:00:00 | 00:00:00 | 00:00:00 | |
| OE5DRO-10 | 2026-08-30 12:52:49 | -12.03037 | -77.04856 | 97° | 199km/h | 993m | -0.1m/s | -38.5°C | 1.9% | 8.6hPa | 2.7V | 00:00:00 | 00:00:00 | 00:00:00 | |
| SQ9EZE-13 | 2026-08-30 12:52:44 | -12.03044 | -77.05112 | 81° | 199km/h | 993m | 0.0m/s | -38.4°C | 0.4% | 8.7hPa | 2.7V | 00:00:00 | 00:00:00 | 00:00:00 | |
| OE5DRO-10 | 2026-08-30 12:52:30 | -12.03412 | -77.05706 | 36° | 199km/h | 993m | 0.0m/s | -38.4°C | 1.9% | 8.7hPa | 2.7V | 00:00:00 | 00:00:00 | 00:00:00 | |
| SQ9EZE-13 | 2026-08-30 12:52:28 | -12.03542 | -77.05785 | 27° | 199km/h | 993m | 0.0m/s | -38.5°C | 0.3% | 8.8hPa | 2.7V | 00:00:00 | 00:00:00 | 00:00:00 | |
| GYPAP8-17 | 2026-08-30 12:52:19 | -12.03933 | -77.05877 | 1° | 199km/h | 993m | -0.0m/s | -38.5°C | 0.3% | 8.9hPa | 2.7V | 00:00:00 | 00:00:00 | 00:00:00 | |
| SQ9EZE-15 | 2026-08-30 12:52:16 | -12.04084 | -77.05865 | 351° | 199km/h | 993m | -0.0m/s | -38.5°C | 0.3% | 8.9hPa | 2.7V | 00:00:00 | 00:00:00 | 00:00:00 | |
| SQ9EZE-13 | 2026-08-30 12:52:12 | -12.04278 | -77.05808 | 339° | 199km/h | 994m | 0.0m/s | -38.5°C | 0.3% | 8.9hPa | 2.7V | 00:00:00 | 00:00:00 | 00:00:00 | |
| OE5DRO-10 | 2026-08-30 12:52:11 | -12.04325 | -77.05787 | 335° | 199km/h | 994m | -0.0m/s | -38.4°C | 1.9% | 8.9hPa | 2.7V | 00:00:00 | 00:00:00 | 00:00:00 | |
| SQ9EZE-15 | 2026-08-30 12:51:56 | -12.04803 | -77.05216 | 287° | 199km/h | 994m | 0.2m/s | -38.8°C | 0.4% | 9.0hPa | 2.7V | 00:00:00 | 00:00:00 | 00:00:00 | |
| SQ9EZE-13 | 2026-08-30 12:51:55 | -12.04816 | -77.05167 | 284° | 199km/h | 994m | -0.0m/s | -38.9°C | 0.4% | 9.1hPa | 2.7V | 00:00:00 | 00:00:00 | 00:00:00 | |
| SQ9EZE-13 | 2026-08-30 12:51:39 | -12.04646 | -77.04389 | 233° | 199km/h | 993m | -0.0m/s | -39.7°C | 0.3% | 9.2hPa | 2.7V | 00:00:00 | 00:00:00 | 00:00:00 | |
| OE5DRO-10 | 2026-08-30 12:51:37 | -12.04580 | -77.04312 | 226° | 199km/h | 993m | 0.0m/s | -39.7°C | 2.0% | 9.1hPa | 2.7V | 00:00:00 | 00:00:00 | 00:00:00 | |
| HA6NAB-11 | 2026-08-30 12:51:37 | -12.04580 | -77.04312 | 226° | 199km/h | 993m | 0.0m/s | -39.7°C | 0.4% | 9.2hPa | 2.7V | 00:00:00 | 00:00:00 | 00:00:00 | |
| GYPAP8-17 | 2026-08-30 12:51:25 | -12.04045 | -77.04046 | 188° | 199km/h | 993m | 0.2m/s | -39.8°C | 0.4% | 9.3hPa | 2.7V | 00:00:00 | 00:00:00 | 00:00:00 | |
| SQ9EZE-14 | 2026-08-30 12:51:25 | -12.04045 | -77.04046 | 188° | 199km/h | 993m | 0.2m/s | -39.8°C | 0.4% | 9.3hPa | 2.7V | 00:00:00 | 00:00:00 | 00:00:00 | |
| SQ9EZE-13 | 2026-08-30 12:51:24 | -12.03994 | -77.04041 | 185° | 199km/h | 993m | 0.0m/s | -39.9°C | 0.4% | 9.3hPa | 2.7V | 00:00:00 | 00:00:00 | 00:00:00 | |
| OE5DRO-10 | 2026-08-30 12:51:11 | -12.03379 | -77.04233 | 142° | 199km/h | 998m | 0.6m/s | -39.7°C | 1.9% | 9.3hPa | 2.7V | 00:00:00 | 00:00:00 | 00:00:00 | |
| SQ9EZE-14 | 2026-08-30 12:51:10 | -12.03340 | -77.04266 | 140° | 199km/h | 997m | 0.2m/s | -39.9°C | 0.4% | 9.4hPa | 2.7V | 00:00:00 | 00:00:00 | 00:00:00 | |
| SQ9EZE-13 | 2026-08-30 12:51:08 | -12.03267 | -77.04337 | 133° | 199km/h | 997m | 0.1m/s | -40.1°C | 0.4% | 9.4hPa | 2.7V | 00:00:00 | 00:00:00 | 00:00:00 | |
| SQ9EZE-13 | 2026-08-30 12:50:52 | -12.03043 | -77.05101 | 82° | 199km/h | 993m | 0.0m/s | -40.9°C | 0.4% | 9.6hPa | 2.7V | 00:00:00 | 00:00:00 | 00:00:00 | |
| OE5DRO-10 | 2026-08-30 12:50:51 | -12.03053 | -77.05151 | 78° | 199km/h | 992m | -0.0m/s | -40.7°C | 2.0% | 9.5hPa | 2.7V | 00:00:00 | 00:00:00 | 00:00:00 | |
| SQ9EZE-13 | 2026-08-30 12:50:33 | -12.03626 | -77.05820 | 21° | 199km/h | 993m | -0.0m/s | -41.6°C | 0.4% | 9.7hPa | 2.7V | 00:00:00 | 00:00:00 | 00:00:00 | |
| GYPAP8-17 | 2026-08-30 12:50:23 | -12.04125 | -77.05856 | 349° | 199km/h | 994m | 0.3m/s | -41.3°C | 0.4% | 9.8hPa | 2.7V | 00:00:00 | 00:00:00 | 00:00:00 | |
| LZ4TU-5 | 2026-08-30 12:50:04 | -21.72502 | -79.73533 | 0° | 0km/h | 2909m | 0.0m/s | -40.7°C | 0% | 0hPa | 2.7V | 00:00:00 | 00:00:00 | 00:00:00 | |
| SQ9EZE-13 | 2026-08-30 12:49:57 | -21.59701 | -79.79105 | 0° | 0km/h | 2876m | 0.0m/s | -40.5°C | 0.4% | 10.1hPa | 2.7V | 00:00:00 | 00:00:00 | 00:00:00 | |
| SQ9EZE-13 | 2026-08-30 12:49:40 | -21.68209 | -79.74014 | 0° | 0km/h | 2898m | 0.0m/s | -40.4°C | 0.4% | 10.2hPa | 2.7V | 00:00:00 | 00:00:00 | 00:00:00 | |
| GYPAP8-17 | 2026-08-30 12:49:29 | -18.68486 | -82.81914 | 0° | 0km/h | 2178m | 0.0m/s | -40.5°C | 0.4% | 10.3hPa | 2.7V | 00:00:00 | 00:00:00 | 00:00:00 | |
| SQ9EZE-13 | 2026-08-30 12:49:25 | -18.31392 | -82.88776 | 0° | 0km/h | 2096m | 0.0m/s | -40.6°C | 0.4% | 10.3hPa | 2.7V | 00:00:00 | 00:00:00 | 00:00:00 | |
| HA6NAB-11 | 2026-08-30 12:49:24 | -18.88632 | -82.74363 | 0° | 0km/h | 2224m | 0.0m/s | -40.7°C | 0.4% | 10.4hPa | 2.7V | 00:00:00 | 00:00:00 | 00:00:00 | |
| HA6NAB-11 | 2026-08-30 12:49:18 | -18.39947 | -82.84023 | 0° | 0km/h | 2114m | 0.0m/s | -40.9°C | 0.4% | 10.4hPa | 2.7V | 00:00:00 | 00:00:00 | 00:00:00 | |
| HA6NAB-11 | 2026-08-30 12:49:12 | -18.82344 | -83.45510 | 0° | 0km/h | 2209m | 0.0m/s | -41.1°C | 0.4% | 10.5hPa | 2.7V | 00:00:00 | 00:00:00 | 00:00:00 | |
| SQ9EZE-13 | 2026-08-30 12:49:09 | -18.59463 | -82.96111 | 0° | 0km/h | 2158m | 0.0m/s | -41.3°C | 0.4% | 10.5hPa | 2.7V | 00:00:00 | 00:00:00 | 00:00:00 | |
| HA6NAB-11 | 2026-08-30 12:49:06 | -18.98997 | -84.16499 | 0° | 0km/h | 2247m | 0.0m/s | -41.3°C | 0.4% | 10.5hPa | 2.7V | 00:00:00 | 00:00:00 | 00:00:00 | |
| SQ9EZE-14 | 2026-08-30 12:49:03 | -18.64851 | -84.64525 | 0° | 0km/h | 2170m | 0.0m/s | -41.2°C | 0.4% | 10.6hPa | 2.7V | 00:00:00 | 00:00:00 | 00:00:00 | |
| HA6NAB-11 | 2026-08-30 12:49:01 | -21.65969 | -85.86823 | 0° | 0km/h | 2892m | 0.0m/s | -41.2°C | 0.4% | 10.6hPa | 2.7V | 00:00:00 | 00:00:00 | 00:00:00 | |
| HA6NAB-11 | 2026-08-30 12:48:54 | -20.06235 | -83.99717 | 0° | 0km/h | 2498m | 0.0m/s | -41.3°C | 0.4% | 10.6hPa | 2.7V | 00:00:00 | 00:00:00 | 00:00:00 | |
| HA6NAB-11 | 2026-08-30 12:48:49 | -22.66413 | -78.75194 | 0° | 0km/h | 3153m | 0.0m/s | -41.4°C | 0.4% | 10.7hPa | 2.7V | 00:00:00 | 00:00:00 | 00:00:00 | |
| SQ9EZE-13 | 2026-08-30 12:48:44 | -21.23401 | -79.50742 | 0° | 0km/h | 2785m | 0.0m/s | -41.3°C | 0.4% | 10.7hPa | 2.7V | 00:00:00 | 00:00:00 | 00:00:00 | |
| HA6NAB-11 | 2026-08-30 12:48:43 | -21.21646 | -79.46521 | 0° | 0km/h | 2780m | 0.0m/s | -41.4°C | 0.4% | 10.7hPa | 2.7V | 00:00:00 | 00:00:00 | 00:00:00 | |
| HA6NAB-11 | 2026-08-30 12:48:35 | -21.29537 | -79.67764 | 0° | 0km/h | 2800m | 0.0m/s | -41.2°C | 0.4% | 10.8hPa | 2.7V | 00:00:00 | 00:00:00 | 00:00:00 | |
| SQ9EZE-14 | 2026-08-30 12:48:31 | -19.10964 | -78.62710 | 0° | 0km/h | 2275m | 0.0m/s | -41.0°C | 0.4% | 10.8hPa | 2.7V | 00:00:00 | 00:00:00 | 00:00:00 | |
| HA6NAB-11 | 2026-08-30 12:48:30 | -13.04187 | -83.31650 | 0° | 0km/h | 1080m | 0.0m/s | -41.0°C | 0.4% | 10.9hPa | 2.7V | 00:00:00 | 00:00:00 | 00:00:00 | |
| SQ9EZE-13 | 2026-08-30 12:48:28 | -21.13361 | -78.95625 | 0° | 0km/h | 2760m | 0.0m/s | -41.0°C | 0.4% | 10.8hPa | 2.7V | 00:00:00 | 00:00:00 | 00:00:00 | |
| HA6NAB-11 | 2026-08-30 12:48:24 | -20.74660 | -79.05897 | 0° | 0km/h | 2664m | 0.0m/s | -41.1°C | 0.4% | 10.9hPa | 2.7V | 00:00:00 | 00:00:00 | 00:00:00 | |
| HA6NAB-11 | 2026-08-30 12:48:19 | -22.48280 | -79.56129 | 0° | 0km/h | 3105m | 0.0m/s | -41.3°C | 0.4% | 10.9hPa | 2.7V | 00:00:00 | 00:00:00 | 00:00:00 | |
| GYPAP8-17 | 2026-08-30 12:48:16 | -20.88625 | -79.70524 | 0° | 0km/h | 2698m | 0.0m/s | -41.3°C | 0.4% | 11.0hPa | 2.7V | 00:00:00 | 00:00:00 | 00:00:00 | |
| SQ9EZE-13 | 2026-08-30 12:48:13 | -21.25663 | -81.26385 | 0° | 0km/h | 2790m | 0.0m/s | -41.3°C | 0.4% | 11.0hPa | 2.7V | 00:00:00 | 00:00:00 | 00:00:00 | |
| SQ9EZE-15 | 2026-08-30 12:48:05 | -18.50221 | -79.40465 | 0° | 0km/h | 2137m | 0.0m/s | -41.1°C | 0.4% | 11.1hPa | 2.7V | 00:00:00 | 00:00:00 | 00:00:00 | |
| LZ4TU-5 | 2026-08-30 12:48:00 | -18.56119 | -78.66297 | 0° | 0km/h | 2151m | 0.0m/s | -41.4°C | 0% | 0hPa | 2.7V | 00:00:00 | 00:00:00 | 00:00:00 | |
| SQ9EZE-13 | 2026-08-30 12:47:58 | -18.64254 | -78.63535 | 0° | 0km/h | 2169m | 0.0m/s | -41.3°C | 0.4% | 11.1hPa | 2.7V | 00:00:00 | 00:00:00 | 00:00:00 | |
| LZ4TU-5 | 2026-08-30 12:47:56 | -18.19905 | -79.41587 | 0° | 0km/h | 2070m | 0.0m/s | -41.4°C | 0% | 0hPa | 2.7V | 00:00:00 | 00:00:00 | 00:00:00 | |
| SQ9EZE-13 | 2026-08-30 12:47:43 | -20.35074 | -80.67510 | 0° | 0km/h | 2567m | 0.0m/s | -41.8°C | 0.4% | 11.3hPa | 2.7V | 00:00:00 | 00:00:00 | 00:00:00 | |
| SQ9EZE-13 | 2026-08-30 12:47:27 | -15.02220 | -76.87951 | 0° | 0km/h | 1426m | 0.0m/s | -41.9°C | 0.4% | 11.4hPa | 2.7V | 00:00:00 | 00:00:00 | 00:00:00 | |
| GYPAP8-17 | 2026-08-30 12:47:13 | -13.62282 | -83.16698 | 0° | 0km/h | 1177m | 0.0m/s | -42.4°C | 0.4% | 11.6hPa | 2.7V | 00:00:00 | 00:00:00 | 00:00:00 | |
| SQ9EZE-15 | 2026-08-30 12:46:59 | -12.04794 | -77.05244 | 289° | 199km/h | 990m | 0.1m/s | -42.6°C | 0.5% | 11.7hPa | 2.7V | 00:00:00 | 00:00:00 | 00:00:00 | |
| SQ9EZE-15 | 2026-08-30 12:46:38 | -12.04794 | -77.05244 | 289° | 199km/h | 990m | 0.1m/s | -42.9°C | 0.5% | 12.0hPa | 2.7V | 00:00:00 | 00:00:00 | 00:00:00 | |
| HA6NAB-11 | 2026-08-30 12:46:07 | -9.54716 | -88.48426 | 0° | 0km/h | 583m | 0.0m/s | -43.3°C | 0.5% | 12.3hPa | 2.7V | 00:00:00 | 00:00:00 | 00:00:00 | |
| SQ9EZE-13 | 2026-08-30 12:46:06 | -18.26040 | -84.33607 | 0° | 0km/h | 2084m | 0.0m/s | -43.2°C | 0.5% | 12.3hPa | 2.7V | 00:00:00 | 00:00:00 | 00:00:00 | |
| SQ9EZE-14 | 2026-08-30 12:46:03 | -14.44373 | -83.11477 | 0° | 0km/h | 1320m | 0.0m/s | -43.2°C | 0.5% | 12.3hPa | 2.7V | 00:00:00 | 00:00:00 | 00:00:00 | |
| HA6NAB-11 | 2026-08-30 12:46:02 | -14.60706 | -82.56522 | 0° | 0km/h | 1349m | 0.0m/s | -43.2°C | 0.5% | 12.3hPa | 2.7V | 00:00:00 | 00:00:00 | 00:00:00 | |
| HA6NAB-11 | 2026-08-30 12:45:55 | -15.21670 | -86.90181 | 0° | 0km/h | 1462m | 0.0m/s | -43.4°C | 0.5% | 12.4hPa | 2.7V | 00:00:00 | 00:00:00 | 00:00:00 | |
| SQ9EZE-13 | 2026-08-30 12:45:51 | -13.62282 | -83.16698 | 0° | 0km/h | 1177m | 0.0m/s | -43.4°C | 0.5% | 12.5hPa | 2.7V | 00:00:00 | 00:00:00 | 00:00:00 | |
| GYPAP8-17 | 2026-08-30 12:45:50 | -15.13160 | -83.50889 | 0° | 0km/h | 1446m | 0.0m/s | -43.4°C | 0.5% | 12.5hPa | 2.7V | 00:00:00 | 00:00:00 | 00:00:00 | |
| HA6NAB-11 | 2026-08-30 12:45:49 | -13.55164 | -83.30069 | 0° | 0km/h | 1165m | 0.0m/s | -43.4°C | 0.5% | 12.5hPa | 2.7V | 00:00:00 | 00:00:00 | 00:00:00 | |
| SQ9EZE-14 | 2026-08-30 12:45:47 | -12.60691 | -81.78136 | 0° | 0km/h | 1011m | 0.0m/s | -43.5°C | 0.5% | 12.5hPa | 2.7V | 00:00:00 | 00:00:00 | 00:00:00 | |
| HA6NAB-11 | 2026-08-30 12:45:42 | -13.40404 | -83.44530 | 0° | 0km/h | 1140m | 0.0m/s | -43.5°C | 0.5% | 12.6hPa | 2.7V | 00:00:00 | 00:00:00 | 00:00:00 | |
| HA6NAB-11 | 2026-08-30 12:45:36 | -11.39461 | -81.63882 | 0° | 0km/h | 828m | 0.0m/s | -43.5°C | 0.5% | 12.6hPa | 2.7V | 00:00:00 | 00:00:00 | 00:00:00 | |
| SP9KGR-15 | 2026-08-30 12:45:31 | -12.75663 | -88.40762 | 0° | 0km/h | 1034m | 0.0m/s | -43.6°C | 0.5% | 12.7hPa | 2.7V | 00:00:00 | 00:00:00 | 00:00:00 | |
| LZ4TU-5 | 2026-08-30 12:45:30 | -12.04158 | -77.05856 | 348° | 168km/h | 998m | 12.5m/s | -43.6°C | 0% | 0hPa | 2.7V | 00:00:00 | 00:00:00 | 00:00:00 | |
| SQ9EZE-13 | 2026-08-30 12:45:26 | -13.17177 | -87.55836 | 0° | 0km/h | 1102m | 0.0m/s | -43.6°C | 0.5% | 12.8hPa | 2.7V | 00:00:00 | 00:00:00 | 00:00:00 | |
| SP9KGR-15 | 2026-08-30 12:45:14 | -12.75663 | -88.40762 | 0° | 0km/h | 1034m | 0.0m/s | -43.5°C | 0.5% | 12.9hPa | 2.7V | 00:00:00 | 00:00:00 | 00:00:00 | |
| SQ9EZE-13 | 2026-08-30 12:45:04 | -13.17177 | -87.55836 | 0° | 0km/h | 1102m | 0.0m/s | -44.0°C | 0.5% | 13.0hPa | 2.7V | 00:00:00 | 00:00:00 | 00:00:00 | |
| SP9KGR-15 | 2026-08-30 12:44:58 | -12.75663 | -88.40762 | 0° | 0km/h | 1034m | 0.0m/s | -44.2°C | 0.5% | 13.1hPa | 2.7V | 00:00:00 | 00:00:00 | 00:00:00 | |
| SQ9EZE-13 | 2026-08-30 12:44:44 | -11.81383 | -89.37299 | 0° | 0km/h | 889m | 0.0m/s | -44.5°C | 0.5% | 13.2hPa | 2.7V | 00:00:00 | 00:00:00 | 00:00:00 | |
| GYPAP8-17 | 2026-08-30 12:44:44 | -11.81383 | -89.37299 | 0° | 0km/h | 889m | 0.0m/s | -44.5°C | 0.5% | 13.2hPa | 2.7V | 00:00:00 | 00:00:00 | 00:00:00 | |
| SP9KGR-15 | 2026-08-30 12:44:33 | -10.80517 | -88.47702 | 0° | 0km/h | 746m | 0.0m/s | -44.5°C | 0.5% | 13.4hPa | 2.7V | 00:00:00 | 00:00:00 | 00:00:00 | |
| SQ9EZE-13 | 2026-08-30 12:44:24 | -12.04158 | -77.05856 | 0° | 0km/h | 998m | 0.0m/s | -44.8°C | 0.5% | 13.5hPa | 2.7V | 00:00:00 | 00:00:00 | 00:00:00 | |
| SP9KGR-15 | 2026-08-30 12:44:16 | -12.04158 | -77.05856 | 0° | 0km/h | 998m | 0.0m/s | -44.8°C | 0.5% | 13.5hPa | 2.7V | 00:00:00 | 00:00:00 | 00:00:00 | |
| SQ9EZE-13 | 2026-08-30 12:43:59 | -12.00100 | -77.05198 | 360° | 980km/h | 293m | -83.5m/s | -45.3°C | 0.5% | 13.7hPa | 2.7V | 00:00:00 | 00:00:00 | 00:00:00 | |
| HA6NAB-11 | 2026-08-30 12:43:47 | -11.99601 | -77.05204 | 360° | 980km/h | 126m | -83.5m/s | -45.2°C | 0.5% | 13.9hPa | 2.7V | 00:00:00 | 00:00:00 | 00:00:00 | |
| HA6NAB-11 | 2026-08-30 12:43:42 | -12.00849 | -77.05190 | 360° | 980km/h | 543m | -83.6m/s | -45.3°C | 0.5% | 14.0hPa | 2.7V | 00:00:00 | 00:00:00 | 00:00:00 | |
| HA6NAB-11 | 2026-08-30 12:43:34 | -12.03951 | -77.05905 | 348° | 168km/h | 1060m | 12.5m/s | -45.9°C | 0.6% | 14.0hPa | 2.7V | 00:00:00 | 00:00:00 | 00:00:00 | |
| SQ9EZE-13 | 2026-08-30 12:43:32 | -12.04034 | -77.05885 | 348° | 168km/h | 1035m | 12.5m/s | -45.9°C | 0.6% | 14.1hPa | 2.7V | 00:00:00 | 00:00:00 | 00:00:00 | |
| SQ9EZE-14 | 2026-08-30 12:43:29 | -12.04158 | -77.05856 | 348° | 168km/h | 998m | 12.5m/s | -45.9°C | 0.6% | 14.1hPa | 2.7V | 00:00:00 | 00:00:00 | 00:00:00 | |
| HA6NAB-11 | 2026-08-30 12:43:29 | -12.04158 | -77.05856 | 348° | 168km/h | 998m | 12.5m/s | -45.9°C | 0.6% | 14.1hPa | 2.7V | 00:00:00 | 00:00:00 | 00:00:00 | |
| LZ4TU-5 | 2026-08-30 12:43:25 | -12.04343 | -77.05776 | 334° | 199km/h | 989m | -0.0m/s | 0°C | 0% | 0hPa | 2.7V | 00:00:00 | 00:00:00 | 00:00:00 | |
| HA6NAB-11 | 2026-08-30 12:43:23 | -12.04431 | -77.05724 | 328° | 199km/h | 990m | -0.0m/s | -46.0°C | 0.6% | 14.2hPa | 2.7V | 00:00:00 | 00:00:00 | 00:00:00 | |
| HA6NAB-11 | 2026-08-30 12:43:18 | -12.04620 | -77.05556 | 312° | 199km/h | 990m | 0.0m/s | -45.8°C | 0.6% | 14.3hPa | 2.7V | 00:00:00 | 00:00:00 | 00:00:00 | |
| SQ9EZE-13 | 2026-08-30 12:43:16 | -12.04682 | -77.05474 | 305° | 199km/h | 990m | 0.2m/s | -45.7°C | 0.6% | 14.3hPa | 2.7V | 00:00:00 | 00:00:00 | 00:00:00 | |
| HA6NAB-11 | 2026-08-30 12:43:13 | -12.04757 | -77.05340 | 296° | 199km/h | 990m | 0.1m/s | -45.8°C | 0.5% | 14.3hPa | 2.7V | 00:00:00 | 00:00:00 | 00:00:00 | |
| HA6NAB-11 | 2026-08-30 12:43:08 | -12.04830 | -77.05093 | 279° | 197km/h | 991m | 1.2m/s | -45.5°C | 0.5% | 14.4hPa | 2.7V | 00:00:00 | 00:00:00 | 00:00:00 | |
| HA6NAB-11 | 2026-08-30 12:43:04 | -12.04832 | -77.04839 | 264° | 199km/h | 990m | -0.0m/s | -45.9°C | 0.5% | 14.4hPa | 2.7V | 00:00:00 | 00:00:00 | 00:00:00 | |
| SQ9EZE-15 | 2026-08-30 12:42:57 | -12.04743 | -77.04545 | 244° | 199km/h | 990m | 0.0m/s | -45.8°C | 0.5% | 14.5hPa | 2.7V | 00:00:00 | 00:00:00 | 00:00:00 | |
| HA6NAB-11 | 2026-08-30 12:42:57 | -12.04743 | -77.04545 | 244° | 199km/h | 990m | 0.0m/s | -45.8°C | 0.5% | 14.5hPa | 2.7V | 00:00:00 | 00:00:00 | 00:00:00 | |
| SQ9EZE-13 | 2026-08-30 12:42:52 | -12.04600 | -77.04335 | 228° | 199km/h | 990m | -0.0m/s | -46.0°C | 0.6% | 14.6hPa | 2.7V | 00:00:00 | 00:00:00 | 00:00:00 | |
| HA6NAB-11 | 2026-08-30 12:42:52 | -12.04600 | -77.04335 | 228° | 199km/h | 990m | -0.0m/s | -46.0°C | 0.6% | 14.6hPa | 2.7V | 00:00:00 | 00:00:00 | 00:00:00 | |
| HA6NAB-11 | 2026-08-30 12:42:46 | -12.04361 | -77.04147 | 209° | 199km/h | 990m | -0.0m/s | -46.4°C | 0.6% | 14.6hPa | 2.7V | 00:00:00 | 00:00:00 | 00:00:00 | |
| GYPAP8-17 | 2026-08-30 12:42:39 | -12.04023 | -77.04043 | 187° | 199km/h | 990m | 0.0m/s | -46.2°C | 0.6% | 14.7hPa | 2.7V | 00:00:00 | 00:00:00 | 00:00:00 | |
| SQ9EZE-13 | 2026-08-30 12:42:31 | -12.03625 | -77.04095 | 161° | 199km/h | 990m | 0.1m/s | -46.5°C | 0.6% | 14.8hPa | 2.7V | 00:00:00 | 00:00:00 | 00:00:00 | |
| OE5DRO-10 | 2026-08-30 12:42:26 | -12.03363 | -77.04247 | 141° | 199km/h | 989m | 0.0m/s | -46.6°C | 2.7% | 14.8hPa | 2.7V | 00:00:00 | 00:00:00 | 08:30:00 | |
| SQ9EZE-13 | 2026-08-30 12:42:12 | -12.03043 | -77.04814 | 100° | 199km/h | 989m | -0.0m/s | -46.7°C | 0.6% | 15.1hPa | 2.6V | 00:00:00 | 00:00:00 | 00:00:00 | |
| OE5DRO-10 | 2026-08-30 12:42:06 | -12.03047 | -77.05121 | 80° | 199km/h | 989m | -0.0m/s | -46.8°C | 2.7% | 15.1hPa | 2.6V | 00:00:00 | 00:00:00 | 00:00:00 | |
| SQ9EZE-13 | 2026-08-30 12:41:57 | -12.03236 | -77.05536 | 52° | 199km/h | 989m | 0.0m/s | -46.8°C | 0.6% | 15.3hPa | 2.6V | 00:00:00 | 00:00:00 | 00:00:00 | |
| OE5DRO-10 | 2026-08-30 12:41:44 | -12.03843 | -77.05870 | 6° | 199km/h | 988m | -0.6m/s | -46.4°C | 2.7% | 15.4hPa | 2.6V | 00:00:00 | 00:00:00 | 00:00:00 | |
| SQ9EZE-13 | 2026-08-30 12:41:41 | -12.03944 | -77.05875 | 360° | 199km/h | 989m | 0.0m/s | -46.6°C | 0.6% | 15.5hPa | 2.6V | 00:00:00 | 00:00:00 | 00:00:00 | |
| OE5DRO-10 | 2026-08-30 12:41:39 | -12.04045 | -77.05869 | 354° | 199km/h | 989m | 0.0m/s | -46.4°C | 2.6% | 15.5hPa | 2.6V | 00:00:00 | 00:00:00 | 00:00:00 | |
| GYPAP8-17 | 2026-08-30 12:41:37 | -12.04145 | -77.05851 | 348° | 199km/h | 989m | -0.1m/s | -46.6°C | 0.6% | 15.6hPa | 2.6V | 00:00:00 | 00:00:00 | 00:00:00 | |
| SQ9EZE-14 | 2026-08-30 12:41:27 | -12.04580 | -77.05601 | 316° | 199km/h | 990m | 0.0m/s | -47.0°C | 0.6% | 15.7hPa | 2.6V | 00:00:00 | 00:00:00 | 00:00:00 | |
| SQ9EZE-13 | 2026-08-30 12:41:23 | -12.04704 | -77.05440 | 303° | 199km/h | 989m | -0.2m/s | -46.8°C | 0.6% | 15.8hPa | 2.6V | 00:00:00 | 00:00:00 | 00:00:00 | |
| OE5DRO-10 | 2026-08-30 12:41:20 | -12.04773 | -77.05303 | 293° | 199km/h | 990m | 0.0m/s | -46.7°C | 2.8% | 15.7hPa | 2.6V | 00:00:00 | 00:00:00 | 00:00:00 | |
| SQ9EZE-14 | 2026-08-30 12:41:11 | -12.04834 | -77.04848 | 264° | 199km/h | 989m | -0.1m/s | -46.4°C | 0.6% | 15.9hPa | 2.6V | 00:00:00 | 00:00:00 | 00:00:00 | |
| LZ4TU-5 | 2026-08-30 12:41:10 | -12.04826 | -77.04798 | 261° | 199km/h | 989m | 0.0m/s | 0°C | 0% | 0hPa | 2.6V | 00:00:00 | 00:00:00 | 00:00:00 | |
| LZ4TU-5 | 2026-08-30 12:41:06 | -12.04769 | -77.04601 | 248° | 199km/h | 989m | 0.0m/s | 0°C | 0% | 0hPa | 2.6V | 00:00:00 | 00:00:00 | 00:00:00 | |
| SQ9EZE-13 | 2026-08-30 12:41:03 | -12.04699 | -77.04464 | 239° | 199km/h | 989m | -0.0m/s | -46.2°C | 0.6% | 16.1hPa | 2.6V | 00:00:00 | 00:00:00 | 00:00:00 | |
| OE5DRO-10 | 2026-08-30 12:41:01 | -12.04640 | -77.04381 | 232° | 199km/h | 988m | -0.9m/s | -46.0°C | 2.7% | 16.0hPa | 2.6V | 00:00:00 | 00:00:00 | 00:00:00 | |
| LZ4TU-5 | 2026-08-30 12:41:01 | -12.04640 | -77.04381 | 232° | 199km/h | 988m | -1.0m/s | 0°C | 0% | 0hPa | 2.6V | 00:00:00 | 00:00:00 | 00:00:00 | |
| LZ4TU-5 | 2026-08-30 12:40:55 | -12.04414 | -77.04177 | 213° | 199km/h | 988m | -0.1m/s | 0°C | 0% | 0hPa | 2.6V | 00:00:00 | 00:00:00 | 00:00:00 | |
| OE5DRO-10 | 2026-08-30 12:40:51 | -12.04232 | -77.04089 | 199° | 199km/h | 988m | -0.1m/s | -45.8°C | 2.6% | 16.2hPa | 2.6V | 00:00:00 | 00:00:00 | 00:00:00 | |
| SQ9EZE-13 | 2026-08-30 12:40:43 | -12.03832 | -77.04045 | 174° | 199km/h | 988m | 0.0m/s | -46.0°C | 0.6% | 16.3hPa | 2.7V | 00:00:00 | 00:00:00 | 00:00:00 | |
| SQ9EZE-15 | 2026-08-30 12:40:40 | -12.03684 | -77.04075 | 165° | 199km/h | 988m | 0.1m/s | -46.3°C | 0.6% | 16.4hPa | 2.7V | 00:00:00 | 00:00:00 | 00:00:00 | |
| OE5DRO-10 | 2026-08-30 12:40:32 | -12.03333 | -77.04273 | 139° | 199km/h | 988m | 0.0m/s | -46.4°C | 2.7% | 16.4hPa | 2.7V | 00:00:00 | 00:00:00 | 00:00:00 | |
| SQ9EZE-13 | 2026-08-30 12:40:26 | -12.03145 | -77.04514 | 120° | 199km/h | 988m | 0.1m/s | -46.4°C | 0.6% | 16.6hPa | 2.7V | 00:00:00 | 00:00:00 | 00:00:00 | |
| GYPAP8-17 | 2026-08-30 12:40:18 | -12.03034 | -77.04906 | 94° | 199km/h | 987m | 0.1m/s | -46.5°C | 0.6% | 16.7hPa | 2.7V | 00:00:00 | 00:00:00 | 00:00:00 | |
| HA6NAB-11 | 2026-08-30 12:40:16 | -12.03034 | -77.05009 | 88° | 199km/h | 987m | 0.0m/s | -46.5°C | 0.6% | 16.7hPa | 2.7V | 00:00:00 | 00:00:00 | 00:00:00 | |
| OE5DRO-10 | 2026-08-30 12:40:13 | -12.03055 | -77.05162 | 78° | 199km/h | 986m | -0.6m/s | -46.6°C | 2.8% | 16.7hPa | 2.7V | 00:00:00 | 00:00:00 | 00:00:00 | |
| SQ9EZE-13 | 2026-08-30 12:40:11 | -12.03083 | -77.05261 | 72° | 199km/h | 986m | -0.1m/s | -46.7°C | 0.6% | 16.8hPa | 2.7V | 00:00:00 | 00:00:00 | 00:00:00 | |
| HA6NAB-11 | 2026-08-30 12:40:11 | -12.03083 | -77.05261 | 72° | 199km/h | 986m | -0.1m/s | -46.7°C | 0.6% | 16.8hPa | 2.7V | 00:00:00 | 00:00:00 | 00:00:00 | |
| OE5DRO-10 | 2026-08-30 12:40:10 | -12.03101 | -77.05309 | 68° | 199km/h | 986m | -0.4m/s | -46.6°C | 2.8% | 16.8hPa | 2.7V | 00:00:00 | 00:00:00 | 08:30:00 | |
| OE5DRO-10 | 2026-08-30 12:40:07 | -12.03171 | -77.05445 | 58° | 199km/h | 987m | -4.4m/s | -46.5°C | 2.8% | 16.8hPa | 2.6V | 00:00:00 | 00:00:00 | 00:00:00 | |
| HA6NAB-11 | 2026-08-30 12:40:05 | -12.03229 | -77.05529 | 52° | 199km/h | 989m | -0.1m/s | -46.5°C | 0.6% | 16.9hPa | 2.6V | 00:00:00 | 00:00:00 | 00:00:00 | |
| HA6NAB-11 | 2026-08-30 12:40:00 | -12.03412 | -77.05705 | 36° | 199km/h | 988m | -0.2m/s | -46.3°C | 0.6% | 17.0hPa | 2.6V | 00:00:00 | 00:00:00 | 00:00:00 | |
| SQ9EZE-13 | 2026-08-30 12:39:56 | -12.03589 | -77.05804 | 23° | 199km/h | 988m | -0.9m/s | -46.2°C | 0.6% | 17.0hPa | 2.6V | 00:00:00 | 00:00:00 | 00:00:00 | |
| HA6NAB-11 | 2026-08-30 12:39:55 | -12.03636 | -77.05823 | 20° | 199km/h | 989m | -0.1m/s | -46.3°C | 0.6% | 17.0hPa | 2.6V | 00:00:00 | 00:00:00 | 00:00:00 | |
| HA6NAB-11 | 2026-08-30 12:39:49 | -12.03934 | -77.05875 | 1° | 199km/h | 989m | -0.1m/s | -46.1°C | 0.6% | 17.1hPa | 2.6V | 00:00:00 | 00:00:00 | 00:00:00 | |
| HA6NAB-11 | 2026-08-30 12:39:43 | -12.04232 | -77.05824 | 342° | 199km/h | 990m | 0.3m/s | -46.3°C | 0.6% | 17.2hPa | 2.6V | 00:00:00 | 00:00:00 | 00:00:00 | |
| SQ9EZE-13 | 2026-08-30 12:39:41 | -12.04325 | -77.05785 | 336° | 199km/h | 990m | 0.1m/s | -46.4°C | 0.6% | 17.2hPa | 2.6V | 00:00:00 | 00:00:00 | 00:00:00 | |
| HA6NAB-11 | 2026-08-30 12:39:38 | -12.04456 | -77.05707 | 326° | 199km/h | 990m | -0.2m/s | -46.3°C | 0.6% | 17.3hPa | 2.6V | 00:00:00 | 00:00:00 | 00:00:00 | |
| OE5DRO-10 | 2026-08-30 12:39:37 | -12.04497 | -77.05676 | 323° | 199km/h | 991m | -1.0m/s | -46.2°C | 2.7% | 17.3hPa | 2.6V | 00:00:00 | 00:00:00 | 00:00:00 | |
| SP9KGR-15 | 2026-08-30 12:39:36 | -12.04536 | -77.05643 | 319° | 199km/h | 992m | 0.0m/s | -46.2°C | 0.6% | 17.3hPa | 2.6V | 00:00:00 | 00:00:00 | 00:00:00 | |
| OE5DRO-10 | 2026-08-30 12:39:32 | -12.04670 | -77.05491 | 307° | 199km/h | 993m | -0.9m/s | -46.0°C | 2.6% | 17.3hPa | 2.6V | 00:00:00 | 00:00:00 | 00:00:00 | |
| HA6NAB-11 | 2026-08-30 12:39:32 | -12.04670 | -77.05491 | 307° | 201km/h | 993m | -0.9m/s | -46.1°C | 0.6% | 17.4hPa | 2.6V | 00:00:00 | 00:00:00 | 00:00:00 | |
| HA6NAB-11 | 2026-08-30 12:39:25 | -12.04816 | -77.05164 | 284° | 199km/h | 993m | -0.0m/s | -46.0°C | 0.6% | 17.5hPa | 2.6V | 00:00:00 | 00:00:00 | 00:00:00 | |
| SQ9EZE-13 | 2026-08-30 12:39:24 | -12.04826 | -77.05114 | 281° | 199km/h | 993m | 0.1m/s | -46.0°C | 0.6% | 17.4hPa | 2.6V | 00:00:00 | 00:00:00 | 00:00:00 | |
| OE5DRO-10 | 2026-08-30 12:39:22 | -12.04838 | -77.05012 | 274° | 199km/h | 992m | -0.4m/s | -45.9°C | 2.6% | 17.5hPa | 2.6V | 00:00:00 | 00:00:00 | 00:00:00 | |
| SP9KGR-15 | 2026-08-30 12:39:20 | -12.04838 | -77.04910 | 268° | 199km/h | 992m | -0.1m/s | -46.0°C | 0.6% | 17.5hPa | 2.6V | 00:00:00 | 00:00:00 | 00:00:00 | |
| SQ9EZE-14 | 2026-08-30 12:39:09 | -12.04646 | -77.04388 | 233° | 199km/h | 995m | -0.0m/s | -46.6°C | 0.6% | 17.7hPa | 2.6V | 00:00:00 | 00:00:00 | 00:00:00 | |
| SQ9EZE-13 | 2026-08-30 12:39:08 | -12.04614 | -77.04349 | 230° | 199km/h | 995m | -0.0m/s | -46.6°C | 0.6% | 17.7hPa | 2.6V | 00:00:00 | 00:00:00 | 00:00:00 | |
| SP9KGR-15 | 2026-08-30 12:39:04 | -12.04464 | -77.04210 | 217° | 199km/h | 995m | -0.1m/s | -46.7°C | 0.6% | 17.8hPa | 2.6V | 00:00:00 | 00:00:00 | 00:00:00 | |
| OE5DRO-10 | 2026-08-30 12:39:04 | -12.04422 | -77.04182 | 212° | 199km/h | 994m | 1.0m/s | -46.7°C | 2.6% | 17.8hPa | 2.6V | 00:00:00 | 00:00:00 | 00:00:00 | |
| SQ9EZE-14 | 2026-08-30 12:38:53 | -12.03943 | -77.04038 | 181° | 199km/h | 992m | 0.0m/s | -47.3°C | 0.6% | 17.9hPa | 2.7V | 00:00:00 | 00:00:00 | 00:00:00 | |
| SQ9EZE-13 | 2026-08-30 12:38:52 | -12.03892 | -77.04039 | 178° | 199km/h | 992m | -0.0m/s | -47.3°C | 0.6% | 18.0hPa | 2.7V | 00:00:00 | 00:00:00 | 00:00:00 | |
| SP9KGR-15 | 2026-08-30 12:38:48 | -12.03692 | -77.04072 | 165° | 199km/h | 992m | -0.1m/s | -47.3°C | 0.6% | 18.0hPa | 2.7V | 00:00:00 | 00:00:00 | 00:00:00 | |
| OE5DRO-10 | 2026-08-30 12:38:44 | -12.03505 | -77.04149 | 152° | 199km/h | 992m | 0.1m/s | -47.4°C | 2.8% | 18.0hPa | 2.7V | 00:00:00 | 00:00:00 | 00:00:00 | |
| SQ9EZE-15 | 2026-08-30 12:38:39 | -12.03302 | -77.04301 | 137° | 199km/h | 992m | 0.0m/s | -47.5°C | 0.6% | 18.2hPa | 2.7V | 00:00:00 | 00:00:00 | 00:00:00 | |
| SP9KGR-15 | 2026-08-30 12:38:32 | -12.03104 | -77.04597 | 114° | 199km/h | 992m | 0.0m/s | -47.4°C | 0.6% | 18.2hPa | 2.7V | 00:00:00 | 00:00:00 | 00:00:00 | |
| SQ9EZE-13 | 2026-08-30 12:38:28 | -12.03046 | -77.04793 | 101° | 199km/h | 991m | 0.1m/s | -47.5°C | 0.6% | 18.4hPa | 2.7V | 00:00:00 | 00:00:00 | 00:00:00 | |
| OE5DRO-10 | 2026-08-30 12:38:23 | -12.03042 | -77.05100 | 81° | 199km/h | 992m | -0.0m/s | -47.5°C | 2.9% | 18.4hPa | 2.7V | 00:00:00 | 00:00:00 | 00:00:00 | |
| SP9KGR-15 | 2026-08-30 12:38:12 | -12.03253 | -77.05561 | 50° | 199km/h | 991m | 0.0m/s | -47.7°C | 0.6% | 18.6hPa | 2.7V | 00:00:00 | 00:00:00 | 00:00:00 | |
| SQ9EZE-13 | 2026-08-30 12:38:10 | -12.03323 | -77.05636 | 44° | 199km/h | 993m | -0.0m/s | -47.7°C | 0.6% | 18.6hPa | 2.7V | 00:00:00 | 00:00:00 | 00:00:00 | |
| OE5DRO-10 | 2026-08-30 12:38:03 | -12.03624 | -77.05829 | 19° | 197km/h | 994m | -0.6m/s | -47.5°C | 2.9% | 18.7hPa | 2.7V | 00:00:00 | 00:00:00 | 08:30:00 | |
| OE5DRO-10 | 2026-08-30 12:38:01 | -12.03722 | -77.05855 | 11° | 199km/h | 992m | -0.8m/s | -47.4°C | 2.8% | 18.7hPa | 2.6V | 00:00:00 | 00:00:00 | 00:00:00 | |
| HA6NAB-11 | 2026-08-30 12:37:58 | -12.03873 | -77.05875 | 4° | 199km/h | 993m | 1.9m/s | -47.4°C | 0.6% | 18.8hPa | 2.6V | 00:00:00 | 00:00:00 | 00:00:00 | |
| SQ9EZE-13 | 2026-08-30 12:37:55 | -12.04024 | -77.05870 | 355° | 201km/h | 992m | 0.1m/s | -47.4°C | 0.6% | 18.8hPa | 2.6V | 00:00:00 | 00:00:00 | 00:00:00 | |
| OE5DRO-10 | 2026-08-30 12:37:52 | -12.04173 | -77.05842 | 345° | 199km/h | 992m | -0.9m/s | -47.3°C | 2.8% | 18.8hPa | 2.6V | 00:00:00 | 00:00:00 | 00:00:00 | |
| SP9KGR-15 | 2026-08-30 12:37:52 | -12.04173 | -77.05842 | 346° | 199km/h | 992m | -0.9m/s | -47.3°C | 0.6% | 18.9hPa | 2.6V | 00:00:00 | 00:00:00 | 00:00:00 | |
| HA6NAB-11 | 2026-08-30 12:37:52 | -12.04173 | -77.05842 | 346° | 199km/h | 992m | -0.9m/s | -47.3°C | 0.6% | 18.9hPa | 2.6V | 00:00:00 | 00:00:00 | 00:00:00 | |
| GYPAP8-17 | 2026-08-30 12:37:48 | -12.04361 | -77.05766 | 333° | 199km/h | 992m | 0.0m/s | -47.3°C | 0.6% | 18.9hPa | 2.6V | 00:00:00 | 00:00:00 | 00:00:00 | |
| HA6NAB-11 | 2026-08-30 12:37:46 | -12.04447 | -77.05713 | 327° | 199km/h | 993m | -0.1m/s | -47.3°C | 0.6% | 19.0hPa | 2.6V | 00:00:00 | 00:00:00 | 00:00:00 | |
| HA6NAB-11 | 2026-08-30 12:37:41 | -12.04633 | -77.05540 | 310° | 199km/h | 993m | 0.1m/s | -47.5°C | 0% | 19.1hPa | 2.6V | 00:00:00 | 00:00:00 | 00:00:00 | |
| OE5DRO-10 | 2026-08-30 12:37:40 | -12.04664 | -77.05499 | 307° | 199km/h | 993m | 0.0m/s | -47.5°C | 2.8% | 19.0hPa | 2.6V | 00:00:00 | 00:00:00 | 00:00:00 | |
| SQ9EZE-13 | 2026-08-30 12:37:39 | -12.04693 | -77.05456 | 304° | 199km/h | 993m | 0.1m/s | -47.6°C | 0.6% | 19.1hPa | 2.6V | 00:00:00 | 00:00:00 | 00:00:00 | |
| SP9KGR-15 | 2026-08-30 12:37:35 | -12.04783 | -77.05273 | 291° | 199km/h | 993m | -0.0m/s | -47.7°C | 0.6% | 19.2hPa | 2.6V | 00:00:00 | 00:00:00 | 00:00:00 | |
| HA6NAB-11 | 2026-08-30 12:37:35 | -12.04783 | -77.05273 | 291° | 199km/h | 993m | -0.0m/s | -47.7°C | 0% | 19.2hPa | 2.6V | 00:00:00 | 00:00:00 | 00:00:00 | |
| HA6NAB-11 | 2026-08-30 12:37:30 | -12.04836 | -77.05022 | 275° | 199km/h | 993m | 0.0m/s | -47.7°C | 0% | 19.2hPa | 2.6V | 00:00:00 | 00:00:00 | 00:00:00 | |
| HA6NAB-11 | 2026-08-30 12:37:24 | -12.04808 | -77.04716 | 256° | 199km/h | 992m | 0.0m/s | -47.7°C | 0% | 19.3hPa | 2.6V | 00:00:00 | 00:00:00 | 00:00:00 | |
| SQ9EZE-13 | 2026-08-30 12:37:22 | -12.04776 | -77.04619 | 249° | 199km/h | 993m | 0.0m/s | -47.7°C | 0.6% | 19.4hPa | 2.6V | 00:00:00 | 00:00:00 | 00:00:00 | |
| SQ9EZE-13 | 2026-08-30 12:37:04 | -12.04103 | -77.04054 | 192° | 199km/h | 993m | -0.0m/s | -47.7°C | 0.6% | 19.7hPa | 2.6V | 00:00:00 | 00:00:00 | 00:00:00 | |
| OE5DRO-10 | 2026-08-30 12:37:03 | -12.04053 | -77.04046 | 188° | 199km/h | 993m | 0.0m/s | -47.6°C | 2.9% | 19.6hPa | 2.6V | 00:00:00 | 00:00:00 | 00:00:00 | |
| SQ9EZE-14 | 2026-08-30 12:36:50 | -12.03427 | -77.04197 | 147° | 199km/h | 993m | -0.0m/s | -47.1°C | 0.6% | 19.9hPa | 2.6V | 00:00:00 | 00:00:00 | 00:00:00 | |
| SQ9EZE-13 | 2026-08-30 12:36:48 | -12.03347 | -77.04259 | 140° | 199km/h | 993m | -0.0m/s | -47.1°C | 0.6% | 19.9hPa | 2.6V | 00:00:00 | 00:00:00 | 00:00:00 | |
| OE5DRO-10 | 2026-08-30 12:36:44 | -12.03209 | -77.04409 | 127° | 199km/h | 992m | -0.0m/s | -47.3°C | 2.7% | 19.9hPa | 2.6V | 00:00:00 | 00:00:00 | 00:00:00 | |
| SQ9EZE-14 | 2026-08-30 12:36:35 | -12.03040 | -77.04833 | 99° | 199km/h | 992m | -0.0m/s | -47.9°C | 0.6% | 20.2hPa | 2.6V | 00:00:00 | 00:00:00 | 00:00:00 | |
| SQ9EZE-13 | 2026-08-30 12:36:31 | -12.03035 | -77.05038 | 86° | 199km/h | 993m | 0.0m/s | -47.9°C | 0.6% | 20.2hPa | 2.6V | 00:00:00 | 00:00:00 | 00:00:00 | |
| SQ9EZE-13 | 2026-08-30 12:36:14 | -12.03479 | -77.05749 | 31° | 199km/h | 993m | -0.0m/s | -48.7°C | 0.7% | 20.5hPa | 2.6V | 00:00:00 | 00:00:00 | 00:00:00 | |
| SQ9EZE-13 | 2026-08-30 12:35:58 | -12.04260 | -77.05812 | 340° | 199km/h | 993m | 0.0m/s | -50.1°C | 0.7% | 20.7hPa | 2.6V | 00:00:00 | 00:00:00 | 00:00:00 | |
| OE5DRO-10 | 2026-08-30 12:35:50 | -12.04594 | -77.05585 | 314° | 199km/h | 995m | -0.0m/s | -50.3°C | 3.1% | 20.9hPa | 2.6V | 00:00:00 | 00:00:00 | 00:00:00 | |
| SQ9EZE-13 | 2026-08-30 12:35:42 | -12.04797 | -77.05235 | 288° | 199km/h | 995m | 0.4m/s | -50.3°C | 0.7% | 21.1hPa | 2.6V | 00:00:00 | 00:00:00 | 00:00:00 | |
| GYPAP8-17 | 2026-08-30 12:35:39 | -12.04830 | -77.05084 | 279° | 199km/h | 994m | 0.0m/s | -50.5°C | 0.7% | 21.1hPa | 2.6V | 00:00:00 | 00:00:00 | 00:00:00 | |
| HA6NAB-11 | 2026-08-30 12:35:37 | -12.04839 | -77.04982 | 273° | 199km/h | 994m | -0.0m/s | -50.5°C | 0% | 21.2hPa | 2.6V | 00:00:00 | 00:00:00 | 00:00:00 | |
| SQ9EZE-15 | 2026-08-30 12:35:36 | -12.04839 | -77.04930 | 269° | 199km/h | 993m | -0.2m/s | -50.6°C | 0.7% | 21.2hPa | 2.6V | 00:00:00 | 00:00:00 | 00:00:00 | |
| HA6NAB-11 | 2026-08-30 12:35:29 | -12.04761 | -77.04581 | 247° | 199km/h | 991m | 0.5m/s | -50.7°C | 0% | 21.3hPa | 2.6V | 00:00:00 | 00:00:00 | 00:00:00 | |
| SQ9EZE-13 | 2026-08-30 12:35:27 | -12.04711 | -77.04494 | 241° | 199km/h | 994m | 0.2m/s | -50.8°C | 0.8% | 21.3hPa | 2.6V | 00:00:00 | 00:00:00 | 00:00:00 | |
| OE5DRO-10 | 2026-08-30 12:35:25 | -12.04654 | -77.04409 | 234° | 201km/h | 996m | -1.9m/s | -50.8°C | 3.2% | 21.3hPa | 2.6V | 00:00:00 | 00:00:00 | 00:00:00 | |
| OE5DRO-10 | 2026-08-30 12:35:24 | -12.04589 | -77.04330 | 228° | 199km/h | 997m | -1.4m/s | -51.0°C | 3.2% | 21.4hPa | 2.6V | 00:00:00 | 00:00:00 | 00:00:00 | |
| OE5DRO-10 | 2026-08-30 12:35:21 | -12.04516 | -77.04259 | 221° | 199km/h | 996m | -0.4m/s | -51.0°C | 3.3% | 21.4hPa | 2.6V | 00:00:00 | 00:00:00 | 08:30:00 | |
| OE5DRO-10 | 2026-08-30 12:35:19 | -12.04435 | -77.04197 | 215° | 199km/h | 996m | -0.8m/s | -50.9°C | 3.3% | 21.4hPa | 2.7V | 00:00:00 | 00:00:00 | 00:00:00 | |
| OE5DRO-10 | 2026-08-30 12:35:17 | -12.04348 | -77.04143 | 208° | 199km/h | 995m | -0.8m/s | -50.9°C | 3.2% | 21.5hPa | 2.7V | 00:00:00 | 00:00:00 | 00:00:00 | |
| SQ9EZE-15 | 2026-08-30 12:35:15 | -12.04256 | -77.04101 | 201° | 199km/h | 995m | 1.6m/s | -51.1°C | 0.7% | 21.6hPa | 2.7V | 00:00:00 | 00:00:00 | 00:00:00 | |
| SQ9EZE-13 | 2026-08-30 12:35:10 | -12.04012 | -77.04042 | 186° | 199km/h | 998m | 0.0m/s | -51.3°C | 0.8% | 21.7hPa | 2.7V | 00:00:00 | 00:00:00 | 00:00:00 | |
| OE5DRO-10 | 2026-08-30 12:35:03 | -12.03660 | -77.04084 | 163° | 199km/h | 992m | -0.5m/s | -51.0°C | 3.3% | 21.7hPa | 2.7V | 00:00:00 | 00:00:00 | 00:00:00 | |
| OE5DRO-10 | 2026-08-30 12:34:59 | -12.03475 | -77.04169 | 149° | 104km/h | 988m | 2.6m/s | -51.1°C | 3.3% | 21.8hPa | 2.7V | 00:00:00 | 00:00:00 | 00:00:00 | |
| SQ9EZE-13 | 2026-08-30 12:34:20 | 49.03294 | 20.93606 | 0° | 0km/h | 25080m | 0.0m/s | -50.6°C | 0.7% | 22.6hPa | 2.7V | 00:00:00 | 00:00:00 | 00:00:00 | |
| SQ9EZE-14 | 2026-08-30 12:34:18 | 49.02587 | 20.93834 | 166° | 224km/h | 25216m | 10.7m/s | -50.7°C | 0.7% | 22.6hPa | 2.7V | 00:00:00 | 00:00:00 | 00:00:00 | |
| SQ9EZE-13 | 2026-08-30 12:33:59 | 49.03294 | 20.93606 | 0° | 0km/h | 25080m | 0.0m/s | -51.8°C | 0.7% | 23.0hPa | 2.7V | 00:00:00 | 00:00:00 | 00:00:00 | |
| SQ9EZE-13 | 2026-08-30 12:33:43 | 49.03294 | 20.93606 | 0° | 0km/h | 25080m | 0.0m/s | -53.0°C | 0.8% | 23.3hPa | 2.7V | 00:00:00 | 00:00:00 | 00:00:00 | |
| SP9KGR-15 | 2026-08-30 12:33:41 | 49.03294 | 20.93606 | 0° | 0km/h | 25080m | 0.0m/s | -52.9°C | 0.8% | 23.3hPa | 2.7V | 00:00:00 | 00:00:00 | 00:00:00 | |
| GYPAP8-17 | 2026-08-30 12:33:37 | 49.03294 | 20.93606 | 0° | 0km/h | 25080m | 0.0m/s | -52.7°C | 0.8% | 23.4hPa | 2.7V | 00:00:00 | 00:00:00 | 00:00:00 | |
| SQ9EZE-13 | 2026-08-30 12:33:27 | 49.03294 | 20.93606 | 0° | 0km/h | 25080m | 0.0m/s | -52.4°C | 0.8% | 23.6hPa | 2.7V | 00:00:00 | 00:00:00 | 00:00:00 | |
| SQ9EZE-13 | 2026-08-30 12:33:12 | 49.03294 | 20.93606 | 0° | 0km/h | 25080m | 0.0m/s | -52.2°C | 0.8% | 23.9hPa | 2.7V | 00:00:00 | 00:00:00 | 00:00:00 | |
| SQ9EZE-13 | 2026-08-30 12:32:56 | 49.03294 | 20.93606 | 0° | 0km/h | 25080m | 0.0m/s | -52.0°C | 0.8% | 24.2hPa | 2.7V | 00:00:00 | 00:00:00 | 00:00:00 | |
| SQ9EZE-15 | 2026-08-30 12:32:53 | 49.03294 | 20.93606 | 0° | 0km/h | 25080m | 0.0m/s | -52.0°C | 0.8% | 24.2hPa | 2.7V | 00:00:00 | 00:00:00 | 00:00:00 | |
| SQ9EZE-13 | 2026-08-30 12:32:41 | 49.03294 | 20.93606 | 0° | 0km/h | 25080m | 0.0m/s | -51.6°C | 0.8% | 24.5hPa | 2.7V | 00:00:00 | 00:00:00 | 00:00:00 | |
| SQ9EZE-15 | 2026-08-30 12:32:32 | 49.03294 | 20.93606 | 0° | 0km/h | 25080m | 0.0m/s | -51.4°C | 0.8% | 24.6hPa | 2.7V | 00:00:00 | 00:00:00 | 00:00:00 | |
| GYPAP8-17 | 2026-08-30 12:32:30 | 49.03294 | 20.93606 | 0° | 0km/h | 25080m | 0.0m/s | -51.4°C | 0.8% | 24.7hPa | 2.7V | 00:00:00 | 00:00:00 | 00:00:00 | |
| SQ9EZE-13 | 2026-08-30 12:32:25 | 49.03294 | 20.93606 | 0° | 0km/h | 25080m | 0.0m/s | -51.4°C | 0.8% | 24.8hPa | 2.7V | 00:00:00 | 00:00:00 | 00:00:00 | |
| SQ9EZE-13 | 2026-08-30 12:32:09 | 49.03294 | 20.93606 | 0° | 0km/h | 25080m | 0.0m/s | -51.7°C | 0.8% | 25.1hPa | 2.7V | 00:00:00 | 00:00:00 | 00:00:00 | |
| SQ9EZE-13 | 2026-08-30 12:31:52 | 49.02806 | 20.93747 | 166° | 224km/h | 25173m | 10.7m/s | -52.0°C | 0.8% | 25.5hPa | 2.7V | 00:00:00 | 00:00:00 | 00:00:00 | |
| SQ9EZE-14 | 2026-08-30 12:31:46 | 49.03136 | 20.93616 | 166° | 224km/h | 25109m | 10.7m/s | -52.1°C | 0.8% | 25.7hPa | 2.7V | 00:00:00 | 00:00:00 | 00:00:00 | |
| SQ9EZE-13 | 2026-08-30 12:31:35 | 49.03465 | 20.93558 | 317° | 69km/h | 25283m | 4.8m/s | -52.4°C | 0.8% | 25.9hPa | 2.7V | 00:00:00 | 00:00:00 | 00:00:00 | |
| SQ9EZE-14 | 2026-08-30 12:31:31 | 49.03412 | 20.93619 | 301° | 47km/h | 25274m | 8.6m/s | -52.7°C | 0.8% | 26.0hPa | 2.7V | 00:00:00 | 00:00:00 | 00:00:00 | |
| GYPAP8-17 | 2026-08-30 12:31:30 | 49.03406 | 20.93635 | 301° | 47km/h | 25265m | 8.6m/s | -52.8°C | 0.8% | 26.0hPa | 2.7V | 00:00:00 | 00:00:00 | 00:00:00 | |
| SQ9EZE-13 | 2026-08-30 12:31:20 | 49.03356 | 20.93709 | 68° | 13km/h | 25192m | 4.0m/s | -52.9°C | 0.8% | 26.2hPa | 2.7V | 00:00:00 | 00:00:00 | 00:00:00 | |
| SP9KGR-15 | 2026-08-30 12:31:18 | 49.03352 | 20.93705 | 77° | 18km/h | 25187m | 5.5m/s | -52.9°C | 0.9% | 26.2hPa | 2.7V | 00:00:00 | 00:00:00 | 00:00:00 | |
| SQ9EZE-15 | 2026-08-30 12:31:15 | 49.03351 | 20.93686 | 265° | 16km/h | 25167m | 6.9m/s | -52.6°C | 0.8% | 26.3hPa | 2.7V | 00:00:00 | 00:00:00 | 00:00:00 | |
| SQ9EZE-13 | 2026-08-30 12:31:03 | 49.03331 | 20.93708 | 34° | 11km/h | 25099m | 7.2m/s | -52.3°C | 0.8% | 26.6hPa | 2.7V | 00:00:00 | 00:00:00 | 00:00:00 | |
| SP9KGR-15 | 2026-08-30 12:30:52 | 49.03314 | 20.93750 | 343° | 4km/h | 25031m | 5.6m/s | -52.3°C | 0.8% | 26.9hPa | 2.7V | 00:00:00 | 00:00:00 | 00:00:00 | |
| OE5DRO-10 | 2026-08-30 12:30:50 | 49.03313 | 20.93752 | 310° | 7km/h | 25021m | 4.6m/s | 0°C | 0% | 0hPa | 2.7V | 00:00:00 | 00:00:00 | 00:00:00 | |
| HA6NAB-11 | 2026-08-30 12:30:41 | 49.03304 | 20.93771 | 255° | 5km/h | 24978m | 4.8m/s | -53.0°C | 0% | 27.1hPa | 2.7V | 00:00:00 | 00:00:00 | 00:00:00 | |
| SQ9EZE-13 | 2026-08-30 12:30:40 | 49.03304 | 20.93773 | 277° | 4km/h | 24973m | 6.3m/s | -53.1°C | 0.8% | 27.1hPa | 2.7V | 00:00:00 | 00:00:00 | 00:00:00 | |
| HA6NAB-11 | 2026-08-30 12:30:36 | 49.03300 | 20.93779 | 278° | 4km/h | 24952m | 5.9m/s | -53.2°C | 0% | 27.2hPa | 2.7V | 00:00:00 | 00:00:00 | 00:00:00 | |
| SP9KGR-15 | 2026-08-30 12:30:35 | 49.03300 | 20.93780 | 212° | 5km/h | 24945m | 5.9m/s | -53.1°C | 0.8% | 27.2hPa | 2.7V | 00:00:00 | 00:00:00 | 00:00:00 | |
| HA6NAB-11 | 2026-08-30 12:30:31 | 49.03308 | 20.93788 | 242° | 11km/h | 24919m | 4.9m/s | -53.1°C | 0% | 27.3hPa | 2.7V | 00:00:00 | 00:00:00 | 00:00:00 | |
| GYPAP8-17 | 2026-08-30 12:30:26 | 49.03317 | 20.93810 | 240° | 20km/h | 24896m | 4.8m/s | -53.2°C | 0.8% | 27.4hPa | 2.7V | 00:00:00 | 00:00:00 | 00:00:00 | |
| HA6NAB-11 | 2026-08-30 12:30:25 | 49.03321 | 20.93823 | 251° | 16km/h | 24885m | 5.7m/s | -53.3°C | 0% | 27.5hPa | 2.7V | 00:00:00 | 00:00:00 | 00:00:00 | |
| SP9KGR-15 | 2026-08-30 12:30:20 | 49.03329 | 20.93838 | 199° | 16km/h | 24866m | 6.6m/s | -53.4°C | 0.9% | 27.6hPa | 2.7V | 00:00:00 | 00:00:00 | 00:00:00 | |
| SQ9EZE-13 | 2026-08-30 12:30:16 | 49.03350 | 20.93844 | 194° | 24km/h | 24842m | 4.7m/s | -53.2°C | 0.9% | 27.7hPa | 2.7V | 00:00:00 | 00:00:00 | 00:00:00 | |
| OE5DRO-10 | 2026-08-30 12:30:12 | 49.03379 | 20.93862 | 220° | 16km/h | 24816m | 6.4m/s | 0°C | 0% | 0hPa | 2.7V | 00:00:00 | 00:00:00 | 00:00:00 | |
| SP9KGR-15 | 2026-08-30 12:30:04 | 49.03406 | 20.93882 | 189° | 27km/h | 24780m | 4.9m/s | -53.0°C | 0.9% | 27.9hPa | 2.7V | 00:00:00 | 00:00:00 | 00:00:00 | |
| SQ9EZE-13 | 2026-08-30 12:29:59 | 49.03434 | 20.93894 | 206° | 22km/h | 24754m | 6.2m/s | -53.0°C | 0.9% | 28.1hPa | 2.7V | 00:00:00 | 00:00:00 | 00:00:00 | |
| HA6NAB-11 | 2026-08-30 12:29:51 | 49.03463 | 20.93902 | 165° | 22km/h | 24710m | 5.7m/s | -52.8°C | 0% | 28.2hPa | 2.7V | 00:00:00 | 00:00:00 | 00:00:00 | |
| SP9KGR-15 | 2026-08-30 12:29:48 | 49.03480 | 20.93895 | 168° | 22km/h | 24694m | 5.9m/s | -52.9°C | 0.8% | 28.3hPa | 2.7V | 00:00:00 | 00:00:00 | 00:00:00 | |
| SQ9EZE-13 | 2026-08-30 12:29:43 | 49.03508 | 20.93892 | 186° | 22km/h | 24667m | 4.2m/s | -52.9°C | 0.8% | 28.4hPa | 2.7V | 00:00:00 | 00:00:00 | 00:00:00 | |
| SP9KGR-15 | 2026-08-30 12:29:33 | 49.03552 | 20.93884 | 159° | 22km/h | 24614m | 4.7m/s | -53.0°C | 0.8% | 28.7hPa | 2.7V | 00:00:00 | 00:00:00 | 00:00:00 | |
| SQ9EZE-13 | 2026-08-30 12:29:29 | 49.03582 | 20.93872 | 171° | 20km/h | 24587m | 6.3m/s | -53.3°C | 0.9% | 28.8hPa | 2.7V | 00:00:00 | 00:00:00 | 00:00:00 | |
| GYPAP8-17 | 2026-08-30 12:29:23 | 49.03602 | 20.93872 | 182° | 16km/h | 24559m | 4.4m/s | -53.1°C | 0.8% | 28.9hPa | 2.7V | 00:00:00 | 00:00:00 | 00:00:00 | |
| SP9KGR-15 | 2026-08-30 12:29:13 | 49.03633 | 20.93852 | 346° | 2km/h | 24500m | 4.8m/s | -53.1°C | 0.8% | 29.2hPa | 2.7V | 00:00:00 | 00:00:00 | 00:00:00 | |
| SQ9EZE-13 | 2026-08-30 12:29:10 | 49.03633 | 20.93854 | 245° | 5km/h | 24489m | 5.4m/s | -53.4°C | 0.9% | 29.2hPa | 2.7V | 00:00:00 | 00:00:00 | 00:00:00 | |
| SP9KGR-15 | 2026-08-30 12:28:58 | 49.03653 | 20.93808 | 73° | 9km/h | 24421m | 5.5m/s | -53.8°C | 0.9% | 29.5hPa | 2.7V | 00:00:00 | 00:00:00 | 00:00:00 | |
| SQ9EZE-13 | 2026-08-30 12:28:49 | 49.03659 | 20.93766 | 112° | 22km/h | 24378m | 5.3m/s | -53.9°C | 0.9% | 29.7hPa | 2.7V | 00:00:00 | 00:00:00 | 00:00:00 | |
| SP9KGR-15 | 2026-08-30 12:28:42 | 49.03663 | 20.93703 | 102° | 13km/h | 24337m | 5.0m/s | -53.8°C | 0.9% | 29.9hPa | 2.7V | 00:00:00 | 00:00:00 | 00:00:00 | |
| SQ9EZE-13 | 2026-08-30 12:28:33 | 49.03660 | 20.93666 | 55° | 15km/h | 24296m | 4.8m/s | -53.8°C | 0.9% | 30.1hPa | 2.7V | 00:00:00 | 00:00:00 | 00:00:00 | |
| OE5DRO-10 | 2026-08-30 12:28:22 | 49.03631 | 20.93627 | 9° | 13km/h | 24231m | 6.3m/s | 0°C | 0% | 0hPa | 2.7V | 00:00:00 | 00:00:00 | 00:00:00 | |
| GYPAP8-17 | 2026-08-30 12:28:19 | 49.03626 | 20.93627 | 359° | 11km/h | 24220m | 4.1m/s | -53.7°C | 0.9% | 30.5hPa | 2.7V | 00:00:00 | 00:00:00 | 00:00:00 | |
| SQ9EZE-13 | 2026-08-30 12:28:17 | 49.03620 | 20.93625 | 20° | 16km/h | 24210m | 6.0m/s | -53.7°C | 0.9% | 30.5hPa | 2.7V | 00:00:00 | 00:00:00 | 00:00:00 | |
| SP9KGR-15 | 2026-08-30 12:28:09 | 49.03593 | 20.93617 | 9° | 11km/h | 24168m | 5.2m/s | -53.7°C | 0.9% | 30.8hPa | 2.7V | 00:00:00 | 00:00:00 | 00:00:00 | |
| OE5DRO-10 | 2026-08-30 12:28:03 | 49.03574 | 20.93621 | 15° | 16km/h | 24130m | 4.7m/s | 0°C | 0% | 0hPa | 2.7V | 00:00:00 | 00:00:00 | 00:00:00 | |
| SP9KGR-15 | 2026-08-30 12:27:53 | 49.03537 | 20.93623 | 344° | 16km/h | 24082m | 5.0m/s | -53.4°C | 0.9% | 31.2hPa | 2.7V | 00:00:00 | 00:00:00 | 00:00:00 | |
| SQ9EZE-13 | 2026-08-30 12:27:49 | 49.03520 | 20.93623 | 15° | 18km/h | 24061m | 4.6m/s | -53.3°C | 0.9% | 31.2hPa | 2.7V | 00:00:00 | 00:00:00 | 00:00:00 | |
| SP9KGR-15 | 2026-08-30 12:27:33 | 49.03466 | 20.93645 | 359° | 11km/h | 23969m | 6.5m/s | -53.2°C | 0.9% | 31.7hPa | 2.7V | 00:00:00 | 00:00:00 | 00:00:00 | |
| GYPAP8-17 | 2026-08-30 12:27:18 | 49.03439 | 20.93666 | 6° | 4km/h | 23893m | 6.1m/s | -52.9°C | 0.9% | 32.1hPa | 2.7V | 00:00:00 | 00:00:00 | 00:00:00 | |
| SQ9EZE-14 | 2026-08-30 12:27:17 | 49.03438 | 20.93665 | 16° | 7km/h | 23887m | 6.2m/s | -52.8°C | 0.9% | 32.1hPa | 2.7V | 00:00:00 | 00:00:00 | 00:00:00 | |
| SP9KGR-15 | 2026-08-30 12:27:14 | 49.03433 | 20.93665 | 331° | 5km/h | 23870m | 5.6m/s | -52.8°C | 0.8% | 32.2hPa | 2.7V | 00:00:00 | 00:00:00 | 00:00:00 | |
| SQ9EZE-13 | 2026-08-30 12:27:04 | 49.03420 | 20.93706 | 304° | 11km/h | 23815m | 6.0m/s | -52.7°C | 0.8% | 32.5hPa | 2.7V | 00:00:00 | 00:00:00 | 00:00:00 | |
| SQ9EZE-15 | 2026-08-30 12:27:00 | 49.03416 | 20.93716 | 267° | 5km/h | 23793m | 5.2m/s | -52.8°C | 0.8% | 32.6hPa | 2.7V | 00:00:00 | 00:00:00 | 00:00:00 | |
| SP9KGR-15 | 2026-08-30 12:26:55 | 49.03411 | 20.93730 | 295° | 11km/h | 23766m | 6.3m/s | -52.9°C | 0.9% | 32.7hPa | 2.7V | 00:00:00 | 00:00:00 | 00:00:00 | |
| SP9KGR-15 | 2026-08-30 12:26:41 | 49.03388 | 20.93745 | 18° | 7km/h | 23685m | 4.6m/s | -52.8°C | 0.9% | 33.1hPa | 2.7V | 00:00:00 | 00:00:00 | 00:00:00 | |
| SQ9EZE-15 | 2026-08-30 12:26:40 | 49.03388 | 20.93745 | 18° | 7km/h | 23685m | 4.6m/s | -52.8°C | 0.9% | 33.1hPa | 2.7V | 00:00:00 | 00:00:00 | 00:00:00 | |
| S52SK | 2026-08-30 12:26:36 | 49.03379 | 20.93732 | 57° | 15km/h | 23663m | 5.9m/s | -52.7°C | 0% | 0hPa | 2.7V | 00:00:00 | 00:00:00 | 00:00:00 | |
| S52SK | 2026-08-30 12:26:31 | 49.03366 | 20.93720 | 357° | 16km/h | 23637m | 5.1m/s | -52.6°C | 0% | 0hPa | 2.7V | 00:00:00 | 00:00:00 | 00:00:00 | |
| SP9KGR-15 | 2026-08-30 12:26:25 | 49.03341 | 20.93733 | 10° | 16km/h | 23604m | 5.1m/s | -52.7°C | 0.9% | 33.5hPa | 2.7V | 00:00:00 | 00:00:00 | 00:00:00 | |
| GYPAP8-17 | 2026-08-30 12:26:16 | 49.03295 | 20.93704 | 336° | 22km/h | 23548m | 4.4m/s | -53.1°C | 0.9% | 33.9hPa | 2.7V | 00:00:00 | 00:00:00 | 00:00:00 | |
| SP9KGR-15 | 2026-08-30 12:26:07 | 49.03256 | 20.93714 | 20° | 18km/h | 23512m | 4.7m/s | -53.3°C | 0.9% | 34.0hPa | 2.7V | 00:00:00 | 00:00:00 | 00:00:00 | |
| SP9KGR-15 | 2026-08-30 12:25:52 | 49.03206 | 20.93704 | 18° | 18km/h | 23437m | 3.9m/s | -53.1°C | 0.9% | 34.4hPa | 2.7V | 00:00:00 | 00:00:00 | 00:00:00 | |
| SQ9EZE-13 | 2026-08-30 12:25:51 | 49.03202 | 20.93702 | 14° | 18km/h | 23432m | 5.2m/s | -53.2°C | 0.9% | 34.5hPa | 2.7V | 00:00:00 | 00:00:00 | 00:00:00 | |
| S52SK | 2026-08-30 12:25:42 | 49.03179 | 20.93721 | 312° | 13km/h | 23386m | 5.2m/s | -53.6°C | 0% | 0hPa | 2.7V | 00:00:00 | 00:00:00 | 00:00:00 | |
| SP9KGR-15 | 2026-08-30 12:25:36 | 49.03158 | 20.93729 | 337° | 11km/h | 23357m | 4.6m/s | -53.6°C | 0.9% | 34.9hPa | 2.7V | 00:00:00 | 00:00:00 | 00:00:00 | |
| S52SK | 2026-08-30 12:25:31 | 49.03151 | 20.93752 | 267° | 13km/h | 23331m | 5.9m/s | -53.6°C | 0% | 0hPa | 2.7V | 00:00:00 | 00:00:00 | 00:00:00 | |
| S52SK | 2026-08-30 12:25:26 | 49.03150 | 20.93774 | 302° | 16km/h | 23306m | 4.8m/s | -53.5°C | 0% | 0hPa | 2.7V | 00:00:00 | 00:00:00 | 00:00:00 | |
| SP9KGR-15 | 2026-08-30 12:25:20 | 49.03138 | 20.93796 | 278° | 11km/h | 23275m | 4.7m/s | -53.6°C | 0.9% | 35.3hPa | 2.7V | 00:00:00 | 00:00:00 | 00:00:00 | |
| SQ9EZE-13 | 2026-08-30 12:25:11 | 49.03156 | 20.93841 | 281° | 5km/h | 23225m | 5.6m/s | -53.5°C | 0.9% | 35.6hPa | 2.7V | 00:00:00 | 00:00:00 | 00:00:00 | |
| SQ9EZE-14 | 2026-08-30 12:25:07 | 49.03153 | 20.93846 | 278° | 7km/h | 23204m | 4.6m/s | -53.4°C | 0.9% | 35.7hPa | 2.7V | 00:00:00 | 00:00:00 | 00:00:00 | |
| SP9KGR-15 | 2026-08-30 12:25:02 | 49.03159 | 20.93856 | 212° | 15km/h | 23184m | 4.1m/s | -53.3°C | 0.9% | 35.8hPa | 2.7V | 00:00:00 | 00:00:00 | 00:00:00 | |
| SQ9EZE-14 | 2026-08-30 12:24:50 | 49.03167 | 20.93879 | 158° | 5km/h | 23122m | 5.7m/s | -52.9°C | 0.9% | 36.2hPa | 2.7V | 00:00:00 | 00:00:00 | 00:00:00 | |
| SP9KGR-15 | 2026-08-30 12:24:46 | 49.03175 | 20.93881 | 215° | 11km/h | 23101m | 4.3m/s | -52.9°C | 0.9% | 36.3hPa | 2.7V | 00:00:00 | 00:00:00 | 00:00:00 | |
| S52SK | 2026-08-30 12:24:38 | 49.03177 | 20.93881 | 82° | 7km/h | 23061m | 5.9m/s | -53.3°C | 0% | 0hPa | 2.7V | 00:00:00 | 00:00:00 | 00:00:00 | |
| SQ9EZE-14 | 2026-08-30 12:24:35 | 49.03181 | 20.93872 | 151° | 9km/h | 23045m | 5.9m/s | -53.2°C | 0.9% | 36.6hPa | 2.7V | 00:00:00 | 00:00:00 | 00:00:00 | |
| S52SK | 2026-08-30 12:24:32 | 49.03190 | 20.93870 | 176° | 16km/h | 23030m | 5.7m/s | -53.3°C | 0% | 0hPa | 2.7V | 00:00:00 | 00:00:00 | 00:00:00 | |
| SP9KGR-15 | 2026-08-30 12:24:31 | 49.03194 | 20.93869 | 169° | 16km/h | 23025m | 5.3m/s | -53.2°C | 0.9% | 36.7hPa | 2.7V | 00:00:00 | 00:00:00 | 00:00:00 | |
| SQ9EZE-13 | 2026-08-30 12:24:30 | 49.03198 | 20.93868 | 165° | 16km/h | 23020m | 4.5m/s | -53.2°C | 0.9% | 36.8hPa | 2.7V | 00:00:00 | 00:00:00 | 00:00:00 | |
| SP9KGR-15 | 2026-08-30 12:24:16 | 49.03209 | 20.93832 | 194° | 4km/h | 22950m | 4.8m/s | -53.0°C | 0.9% | 37.1hPa | 2.7V | 00:00:00 | 00:00:00 | 00:00:00 | |
| SQ9EZE-13 | 2026-08-30 12:24:09 | 49.03197 | 20.93826 | 28° | 13km/h | 22914m | 5.9m/s | -52.9°C | 0.9% | 37.4hPa | 2.7V | 00:00:00 | 00:00:00 | 00:00:00 | |
| GYPAP8-17 | 2026-08-30 12:24:06 | 49.03190 | 20.93819 | 45° | 9km/h | 22899m | 6.0m/s | -52.8°C | 0.9% | 37.5hPa | 2.7V | 00:00:00 | 00:00:00 | 00:00:00 | |
| SQ9EZE-15 | 2026-08-30 12:24:04 | 49.03188 | 20.93814 | 59° | 7km/h | 22889m | 4.1m/s | -52.7°C | 0.9% | 37.5hPa | 2.7V | 00:00:00 | 00:00:00 | 00:00:00 | |
| SP9KGR-15 | 2026-08-30 12:24:00 | 49.03182 | 20.93812 | 4° | 9km/h | 22870m | 4.7m/s | -52.7°C | 0.9% | 37.6hPa | 2.7V | 00:00:00 | 00:00:00 | 00:00:00 | |
| SQ9EZE-13 | 2026-08-30 12:23:54 | 49.03161 | 20.93800 | 18° | 16km/h | 22836m | 4.7m/s | -52.7°C | 0.9% | 37.8hPa | 2.7V | 00:00:00 | 00:00:00 | 00:00:00 | |
| S52SK | 2026-08-30 12:23:44 | 49.03135 | 20.93778 | 38° | 13km/h | 22789m | 4.3m/s | -52.8°C | 0% | 0hPa | 2.7V | 00:00:00 | 00:00:00 | 00:00:00 | |
| SP9KGR-15 | 2026-08-30 12:23:41 | 49.03126 | 20.93773 | 11° | 16km/h | 22774m | 4.5m/s | -52.6°C | 0.9% | 38.2hPa | 2.7V | 00:00:00 | 00:00:00 | 00:00:00 | |
| SQ9EZE-13 | 2026-08-30 12:23:38 | 49.03110 | 20.93767 | 18° | 27km/h | 22758m | 4.5m/s | -52.7°C | 0.9% | 38.3hPa | 2.7V | 00:00:00 | 00:00:00 | 00:00:00 | |
| SP9KGR-15 | 2026-08-30 12:23:26 | 49.03062 | 20.93765 | 2° | 11km/h | 22696m | 5.3m/s | -52.7°C | 0.9% | 38.6hPa | 2.7V | 00:00:00 | 00:00:00 | 00:00:00 | |
| SQ9EZE-13 | 2026-08-30 12:23:22 | 49.03044 | 20.93767 | 351° | 26km/h | 22676m | 4.4m/s | -52.8°C | 0.9% | 38.8hPa | 2.7V | 00:00:00 | 00:00:00 | 00:00:00 | |
| SP9KGR-15 | 2026-08-30 12:23:09 | 49.02976 | 20.93819 | 320° | 24km/h | 22610m | 4.2m/s | -52.7°C | 0.9% | 39.2hPa | 2.7V | 00:00:00 | 00:00:00 | 00:00:00 | |
| SQ9EZE-13 | 2026-08-30 12:23:07 | 49.02967 | 20.93829 | 329° | 20km/h | 22600m | 5.9m/s | -52.8°C | 0.9% | 39.2hPa | 2.7V | 00:00:00 | 00:00:00 | 00:00:00 | |
| GYPAP8-17 | 2026-08-30 12:23:02 | 49.02948 | 20.93853 | 315° | 20km/h | 22575m | 4.4m/s | -52.7°C | 0.9% | 39.4hPa | 2.7V | 00:00:00 | 00:00:00 | 00:00:00 | |
| SP9KGR-15 | 2026-08-30 12:22:53 | 49.02920 | 20.93905 | 314° | 16km/h | 22529m | 4.5m/s | -52.4°C | 0.9% | 39.6hPa | 2.7V | 00:00:00 | 00:00:00 | 00:00:00 | |
| SQ9EZE-15 | 2026-08-30 12:22:52 | 49.02917 | 20.93910 | 315° | 16km/h | 22524m | 5.2m/s | -52.4°C | 0.9% | 39.7hPa | 2.7V | 00:00:00 | 00:00:00 | 00:00:00 | |
| SQ9EZE-13 | 2026-08-30 12:22:50 | 49.02910 | 20.93919 | 315° | 18km/h | 22514m | 4.4m/s | -52.5°C | 0.9% | 39.7hPa | 2.7V | 00:00:00 | 00:00:00 | 00:00:00 | |
| SQ9EZE-13 | 2026-08-30 12:22:35 | 49.02888 | 20.93985 | 322° | 9km/h | 22438m | 5.7m/s | -52.5°C | 0.9% | 40.3hPa | 2.7V | 00:00:00 | 00:00:00 | 00:00:00 | |
| SP9KGR-15 | 2026-08-30 12:22:31 | 49.02879 | 20.93994 | 310° | 16km/h | 22419m | 5.3m/s | -52.7°C | 0.9% | 40.4hPa | 2.7V | 00:00:00 | 00:00:00 | 00:00:00 | |
| SQ9EZE-13 | 2026-08-30 12:22:19 | 49.02884 | 20.94044 | 275° | 2km/h | 22357m | 4.6m/s | -53.2°C | 0.9% | 40.7hPa | 2.7V | 00:00:00 | 00:00:00 | 00:00:00 | |
| SQ9EZE-14 | 2026-08-30 12:22:18 | 49.02884 | 20.94047 | 260° | 5km/h | 22347m | 4.3m/s | -53.2°C | 0.9% | 40.8hPa | 2.7V | 00:00:00 | 00:00:00 | 00:00:00 | |
| SP9KGR-15 | 2026-08-30 12:22:16 | 49.02884 | 20.94049 | 238° | 5km/h | 22343m | 4.4m/s | -53.3°C | 0.9% | 40.8hPa | 2.7V | 00:00:00 | 00:00:00 | 00:00:00 | |
| S52SK | 2026-08-30 12:22:13 | 49.02892 | 20.94056 | 216° | 15km/h | 22323m | 5.8m/s | -53.5°C | 0% | 0hPa | 2.7V | 00:00:00 | 00:00:00 | 00:00:00 | |
| S52SK | 2026-08-30 12:22:06 | 49.02911 | 20.94083 | 225° | 11km/h | 22291m | 5.4m/s | 0°C | 0% | 0hPa | 2.7V | 00:00:00 | 00:00:00 | 00:00:00 | |
| OE3JTB-15 | 2026-08-30 12:22:05 | 49.02915 | 20.94089 | 218° | 13km/h | 22281m | 4.1m/s | -53.4°C | 3.7% | 41.2hPa | 2.7V | 00:00:00 | 00:00:00 | 00:00:00 | |
| SQ9EZE-13 | 2026-08-30 12:22:03 | 49.02917 | 20.94090 | 199° | 9km/h | 22276m | 5.1m/s | -53.3°C | 0.9% | 41.2hPa | 2.7V | 00:00:00 | 00:00:00 | 00:00:00 | |
| HA6NAB-11 | 2026-08-30 12:22:01 | 49.02922 | 20.94090 | 175° | 13km/h | 22265m | 4.8m/s | -53.4°C | 0% | 41.3hPa | 2.7V | 00:00:00 | 00:00:00 | 00:00:00 | |
| S52SK | 2026-08-30 12:22:00 | 49.02925 | 20.94090 | 183° | 15km/h | 22260m | 5.0m/s | 0°C | 0% | 0hPa | 2.7V | 00:00:00 | 00:00:00 | 00:00:00 | |
| GYPAP8-17 | 2026-08-30 12:21:59 | 49.02929 | 20.94091 | 196° | 16km/h | 22255m | 5.6m/s | -53.3°C | 0.9% | 41.4hPa | 2.7V | 00:00:00 | 00:00:00 | 00:00:00 | |
| SP9KGR-15 | 2026-08-30 12:21:51 | 49.02952 | 20.94114 | 228° | 9km/h | 22215m | 4.1m/s | -53.3°C | 1.0% | 41.7hPa | 2.7V | 00:00:00 | 00:00:00 | 00:00:00 | |
| SQ9EZE-13 | 2026-08-30 12:21:47 | 49.02960 | 20.94113 | 160° | 13km/h | 22194m | 4.8m/s | -53.2°C | 0.9% | 41.8hPa | 2.7V | 00:00:00 | 00:00:00 | 00:00:00 | |
| OE3JTB-15 | 2026-08-30 12:21:36 | 49.02995 | 20.94114 | 156° | 9km/h | 22133m | 4.8m/s | -53.0°C | 3.5% | 42.1hPa | 2.7V | 00:00:00 | 01:32:10 | 00:00:00 | |
| SQ9EZE-13 | 2026-08-30 12:21:32 | 49.03001 | 20.94110 | 168° | 9km/h | 22117m | 5.0m/s | -53.0°C | 0.9% | 42.3hPa | 2.7V | 00:00:00 | 00:00:00 | 00:00:00 | |
| SQ9EZE-15 | 2026-08-30 12:21:27 | 49.03011 | 20.94110 | 208° | 11km/h | 22086m | 4.7m/s | -53.3°C | 0.9% | 42.5hPa | 2.7V | 00:00:00 | 00:00:00 | 00:00:00 | |
| SP9KGR-15 | 2026-08-30 12:21:16 | 49.03033 | 20.94091 | 131° | 11km/h | 22036m | 5.1m/s | -53.3°C | 0.9% | 42.8hPa | 2.7V | 00:00:00 | 00:00:00 | 00:00:00 | |
| SQ9EZE-13 | 2026-08-30 12:21:14 | 49.03037 | 20.94087 | 155° | 7km/h | 22025m | 6.1m/s | -53.4°C | 0.9% | 42.9hPa | 2.7V | 00:00:00 | 00:00:00 | 00:00:00 | |
| OE3JTB-15 | 2026-08-30 12:21:05 | 49.03048 | 20.94058 | 101° | 7km/h | 21974m | 5.7m/s | -54.0°C | 3.7% | 43.2hPa | 2.7V | 00:00:00 | 00:00:00 | 00:00:00 | |
| SP9KGR-15 | 2026-08-30 12:21:01 | 49.03051 | 20.94041 | 108° | 13km/h | 21961m | 5.4m/s | -54.2°C | 1.0% | 43.3hPa | 2.7V | 00:00:00 | 00:00:00 | 00:00:00 | |
| GYPAP8-17 | 2026-08-30 12:20:57 | 49.03053 | 20.94028 | 102° | 7km/h | 21940m | 5.6m/s | -54.3°C | 1.0% | 43.5hPa | 2.7V | 00:00:00 | 00:00:00 | 00:00:00 | |
| SP9KGR-15 | 2026-08-30 12:20:45 | 49.03046 | 20.94022 | 304° | 9km/h | 21880m | 4.5m/s | -54.5°C | 1.0% | 43.9hPa | 2.7V | 00:00:00 | 00:00:00 | 00:00:00 | |
| SQ9EZE-13 | 2026-08-30 12:20:42 | 49.03043 | 20.94030 | 283° | 5km/h | 21865m | 4.5m/s | -54.5°C | 1.0% | 44.0hPa | 2.7V | 00:00:00 | 00:00:00 | 00:00:00 | |
| OE3JTB-15 | 2026-08-30 12:20:36 | 49.03042 | 20.94040 | 196° | 9km/h | 21829m | 4.4m/s | -54.8°C | 4.0% | 44.2hPa | 2.7V | 00:00:00 | 00:00:00 | 00:00:00 | |
| SP9KGR-15 | 2026-08-30 12:20:29 | 49.03046 | 20.94058 | 262° | 11km/h | 21798m | 5.2m/s | -54.7°C | 1.0% | 44.5hPa | 2.7V | 00:00:00 | 00:00:00 | 00:00:00 | |
| SQ9EZE-13 | 2026-08-30 12:20:27 | 49.03045 | 20.94070 | 306° | 11km/h | 21784m | 5.9m/s | -54.8°C | 1.0% | 44.6hPa | 2.7V | 00:00:00 | 00:00:00 | 00:00:00 | |
| SP9KGR-15 | 2026-08-30 12:19:55 | 49.03057 | 20.94171 | 268° | 9km/h | 21632m | 4.8m/s | -54.1°C | 0.9% | 45.6hPa | 2.7V | 00:00:00 | 00:00:00 | 00:00:00 | |
| SQ9EZE-13 | 2026-08-30 12:19:53 | 49.03056 | 20.94176 | 321° | 9km/h | 21621m | 4.9m/s | -54.0°C | 1.0% | 45.7hPa | 2.7V | 00:00:00 | 00:00:00 | 00:00:00 | |
| GYPAP8-17 | 2026-08-30 12:19:50 | 49.03053 | 20.94179 | 0° | 0km/h | 21602m | 3.9m/s | -53.9°C | 0.9% | 45.8hPa | 2.7V | 00:00:00 | 00:00:00 | 00:00:00 | |
| SQ9EZE-14 | 2026-08-30 12:19:46 | 49.03055 | 20.94185 | 238° | 13km/h | 21589m | 4.2m/s | -53.9°C | 0.9% | 45.9hPa | 2.7V | 00:00:00 | 00:00:00 | 00:00:00 | |
| SP9KGR-15 | 2026-08-30 12:19:41 | 49.03071 | 20.94223 | 264° | 13km/h | 21560m | 4.0m/s | -54.0°C | 1.0% | 46.1hPa | 2.7V | 00:00:00 | 00:00:00 | 00:00:00 | |
| SQ9EZE-13 | 2026-08-30 12:19:36 | 49.03068 | 20.94233 | 337° | 7km/h | 21541m | 4.6m/s | -54.3°C | 1.0% | 46.2hPa | 2.7V | 00:00:00 | 00:00:00 | 00:00:00 | |
| OE3JTB-15 | 2026-08-30 12:19:25 | 49.03064 | 20.94294 | 276° | 11km/h | 21484m | 4.3m/s | -54.4°C | 3.8% | 46.7hPa | 2.7V | 00:00:00 | 01:29:59 | 00:00:00 | |
| SQ9EZE-13 | 2026-08-30 12:19:20 | 49.03058 | 20.94310 | 296° | 13km/h | 21464m | 5.5m/s | -54.5°C | 1.0% | 46.8hPa | 2.7V | 00:00:00 | 00:00:00 | 00:00:00 | |
| SP9KGR-15 | 2026-08-30 12:19:09 | 49.03069 | 20.94368 | 265° | 9km/h | 21412m | 4.1m/s | -54.4°C | 1.0% | 47.2hPa | 2.7V | 00:00:00 | 00:00:00 | 00:00:00 | |
| SQ9EZE-13 | 2026-08-30 12:19:04 | 49.03072 | 20.94380 | 247° | 9km/h | 21388m | 5.7m/s | -54.5°C | 1.0% | 47.4hPa | 2.7V | 00:00:00 | 00:00:00 | 00:00:00 | |
| OE3JTB-15 | 2026-08-30 12:18:56 | 49.03084 | 20.94418 | 259° | 9km/h | 21348m | 4.2m/s | -54.5°C | 3.9% | 47.6hPa | 2.7V | 00:00:00 | 00:00:00 | 08:30:00 | |
| SP9KGR-15 | 2026-08-30 12:18:54 | 49.03085 | 20.94421 | 237° | 7km/h | 21343m | 5.1m/s | -54.5°C | 1.0% | 47.8hPa | 2.7V | 00:00:00 | 00:00:00 | 00:00:00 | |
| SQ9EZE-13 | 2026-08-30 12:18:48 | 49.03094 | 20.94427 | 199° | 5km/h | 21313m | 5.6m/s | -54.6°C | 1.0% | 47.9hPa | 2.7V | 00:00:00 | 00:00:00 | 00:00:00 | |
| GYPAP8-17 | 2026-08-30 12:18:40 | 49.03102 | 20.94445 | 231° | 11km/h | 21274m | 4.0m/s | -54.7°C | 1.0% | 48.2hPa | 2.7V | 00:00:00 | 00:00:00 | 00:00:00 | |
| SP9KGR-15 | 2026-08-30 12:18:38 | 49.03106 | 20.94452 | 237° | 9km/h | 21264m | 4.9m/s | -54.6°C | 1.0% | 48.3hPa | 2.7V | 00:00:00 | 00:00:00 | 00:00:00 | |
| SQ9EZE-13 | 2026-08-30 12:18:31 | 49.03114 | 20.94472 | 276° | 9km/h | 21231m | 4.3m/s | -54.6°C | 1.0% | 48.6hPa | 2.7V | 00:00:00 | 00:00:00 | 00:00:00 | |
| OE3JTB-15 | 2026-08-30 12:18:27 | 49.03116 | 20.94489 | 246° | 9km/h | 21206m | 4.9m/s | -54.6°C | 3.8% | 48.7hPa | 2.7V | 00:00:00 | 00:00:00 | 00:00:00 | |
| SP9KGR-15 | 2026-08-30 12:18:22 | 49.03123 | 20.94495 | 201° | 11km/h | 21187m | 4.6m/s | -54.7°C | 1.0% | 48.9hPa | 2.7V | 00:00:00 | 00:00:00 | 00:00:00 | |
| SQ9EZE-13 | 2026-08-30 12:18:17 | 49.03129 | 20.94503 | 267° | 5km/h | 21158m | 4.8m/s | -54.9°C | 1.0% | 49.1hPa | 2.7V | 00:00:00 | 00:00:00 | 00:00:00 | |
| SP9KGR-15 | 2026-08-30 12:18:06 | 49.03139 | 20.94519 | 168° | 7km/h | 21109m | 4.5m/s | -54.9°C | 1.0% | 49.5hPa | 2.7V | 00:00:00 | 00:00:00 | 00:00:00 | |
| SQ9EZE-13 | 2026-08-30 12:18:00 | 49.03147 | 20.94518 | 251° | 2km/h | 21079m | 4.2m/s | -54.9°C | 1.0% | 49.7hPa | 2.7V | 00:00:00 | 00:00:00 | 00:00:00 | |
| SP9KGR-15 | 2026-08-30 12:17:51 | 49.03158 | 20.94521 | 121° | 11km/h | 21035m | 5.9m/s | -55.0°C | 1.1% | 50.0hPa | 2.7V | 00:00:00 | 00:00:00 | 00:00:00 | |
| SQ9EZE-13 | 2026-08-30 12:17:45 | 49.03167 | 20.94511 | 216° | 9km/h | 21007m | 5.8m/s | -54.9°C | 1.0% | 50.3hPa | 2.7V | 00:00:00 | 00:00:00 | 00:00:00 | |
| SQ9EZE-14 | 2026-08-30 12:17:42 | 49.03174 | 20.94519 | 219° | 11km/h | 20992m | 4.7m/s | -54.8°C | 1.0% | 50.4hPa | 2.7V | 00:00:00 | 00:00:00 | 00:00:00 | |
| GYPAP8-17 | 2026-08-30 12:17:38 | 49.03177 | 20.94522 | 152° | 4km/h | 20974m | 5.0m/s | -54.8°C | 1.0% | 50.6hPa | 2.7V | 00:00:00 | 00:00:00 | 00:00:00 | |
| SP9KGR-15 | 2026-08-30 12:17:36 | 49.03180 | 20.94521 | 163° | 7km/h | 20964m | 4.2m/s | -54.8°C | 1.0% | 50.7hPa | 2.7V | 00:00:00 | 00:00:00 | 00:00:00 | |
| HA6NAB-11 | 2026-08-30 12:17:33 | 49.03184 | 20.94520 | 204° | 5km/h | 20949m | 5.4m/s | -54.9°C | 0% | 50.8hPa | 2.7V | 00:00:00 | 00:00:00 | 00:00:00 | |
| SQ9EZE-13 | 2026-08-30 12:17:30 | 49.03191 | 20.94522 | 166° | 7km/h | 20929m | 4.1m/s | -54.8°C | 1.0% | 51.0hPa | 2.7V | 00:00:00 | 00:00:00 | 00:00:00 | |
| SQ9EZE-14 | 2026-08-30 12:17:27 | 49.03193 | 20.94519 | 98° | 5km/h | 20919m | 5.3m/s | -54.8°C | 1.1% | 51.0hPa | 2.7V | 00:00:00 | 00:00:00 | 00:00:00 | |
| SP9KGR-15 | 2026-08-30 12:17:20 | 49.03197 | 20.94496 | 105° | 7km/h | 20883m | 4.4m/s | -54.6°C | 1.0% | 51.3hPa | 2.7V | 00:00:00 | 00:00:00 | 00:00:00 | |
| SQ9EZE-13 | 2026-08-30 12:17:14 | 49.03205 | 20.94476 | 122° | 13km/h | 20846m | 6.0m/s | -54.8°C | 1.0% | 51.6hPa | 2.7V | 00:00:00 | 00:00:00 | 00:00:00 | |
| SP9KGR-15 | 2026-08-30 12:17:06 | 49.03214 | 20.94437 | 122° | 11km/h | 20806m | 4.3m/s | -54.8°C | 1.0% | 51.9hPa | 2.7V | 00:00:00 | 00:00:00 | 00:00:00 | |
| OE3JTB-15 | 2026-08-30 12:17:01 | 49.03217 | 20.94417 | 100° | 16km/h | 20781m | 5.2m/s | -55.1°C | 3.9% | 52.1hPa | 2.7V | 00:00:00 | 00:00:00 | 00:00:00 | |
| SQ9EZE-13 | 2026-08-30 12:16:58 | 49.03218 | 20.94401 | 96° | 22km/h | 20772m | 5.4m/s | -55.1°C | 1.0% | 52.2hPa | 2.6V | 00:00:00 | 00:00:00 | 00:00:00 | |
| SP9KGR-15 | 2026-08-30 12:16:50 | 49.03228 | 20.94341 | 111° | 20km/h | 20733m | 5.5m/s | -55.3°C | 1.1% | 52.5hPa | 2.6V | 00:00:00 | 00:00:00 | 00:00:00 | |
| SQ9EZE-13 | 2026-08-30 12:16:42 | 49.03231 | 20.94293 | 80° | 15km/h | 20692m | 5.0m/s | -55.6°C | 1.1% | 52.9hPa | 2.6V | 00:00:00 | 00:00:00 | 00:00:00 | |
| SP9KGR-15 | 2026-08-30 12:16:34 | 49.03222 | 20.94252 | 67° | 9km/h | 20651m | 5.6m/s | -55.3°C | 1.0% | 53.2hPa | 2.6V | 00:00:00 | 00:00:00 | 00:00:00 | |
| OE3JTB-15 | 2026-08-30 12:16:32 | 49.03219 | 20.94244 | 55° | 11km/h | 20636m | 5.3m/s | -55.3°C | 4.0% | 53.3hPa | 2.6V | 00:00:00 | 00:00:00 | 00:00:00 | |
| SQ9EZE-13 | 2026-08-30 12:16:27 | 49.03214 | 20.94233 | 64° | 7km/h | 20616m | 4.8m/s | -55.4°C | 1.1% | 53.5hPa | 2.6V | 00:00:00 | 00:00:00 | 00:00:00 | |
| SP9KGR-15 | 2026-08-30 12:16:19 | 49.03195 | 20.94222 | 22° | 11km/h | 20575m | 4.3m/s | -55.4°C | 1.0% | 53.8hPa | 2.6V | 00:00:00 | 00:00:00 | 00:00:00 | |
| SQ9EZE-13 | 2026-08-30 12:16:11 | 49.03180 | 20.94213 | 346° | 13km/h | 20535m | 5.4m/s | -55.4°C | 1.1% | 54.2hPa | 2.6V | 00:00:00 | 00:00:00 | 00:00:00 | |
| OE3JTB-15 | 2026-08-30 12:16:03 | 49.03153 | 20.94232 | 325° | 7km/h | 20491m | 4.5m/s | -55.0°C | 4.0% | 54.5hPa | 2.6V | 00:00:00 | 01:26:37 | 00:00:00 | |
| SP9KGR-15 | 2026-08-30 12:16:00 | 49.03150 | 20.94234 | 7° | 9km/h | 20481m | 5.5m/s | -55.0°C | 1.0% | 54.6hPa | 2.6V | 00:00:00 | 00:00:00 | 00:00:00 | |
| SQ9EZE-15 | 2026-08-30 12:15:58 | 49.03145 | 20.94232 | 10° | 9km/h | 20471m | 4.8m/s | -55.0°C | 1.0% | 54.7hPa | 2.6V | 00:00:00 | 00:00:00 | 00:00:00 | |
| SQ9EZE-13 | 2026-08-30 12:15:55 | 49.03139 | 20.94234 | 347° | 9km/h | 20456m | 4.2m/s | -54.9°C | 1.0% | 54.8hPa | 2.6V | 00:00:00 | 00:00:00 | 00:00:00 | |
| SP9KGR-15 | 2026-08-30 12:15:46 | 49.03126 | 20.94234 | 12° | 7km/h | 20406m | 5.7m/s | -54.9°C | 1.0% | 55.3hPa | 2.6V | 00:00:00 | 00:00:00 | 00:00:00 | |
| SQ9EZE-13 | 2026-08-30 12:15:39 | 49.03113 | 20.94227 | 39° | 11km/h | 20376m | 4.9m/s | -54.8°C | 1.1% | 55.5hPa | 2.6V | 00:00:00 | 00:00:00 | 00:00:00 | |
| SQ9EZE-15 | 2026-08-30 12:15:37 | 49.03109 | 20.94222 | 50° | 7km/h | 20366m | 4.5m/s | -54.8°C | 1.0% | 55.6hPa | 2.6V | 00:00:00 | 00:00:00 | 00:00:00 | |
| SP9KGR-15 | 2026-08-30 12:15:30 | 49.03100 | 20.94205 | 42° | 9km/h | 20329m | 5.7m/s | -54.7°C | 1.0% | 56.0hPa | 2.6V | 00:00:00 | 00:00:00 | 00:00:00 | |
| SQ9EZE-13 | 2026-08-30 12:15:23 | 49.03083 | 20.94188 | 32° | 13km/h | 20296m | 5.1m/s | -54.6°C | 1.0% | 56.2hPa | 2.6V | 00:00:00 | 00:00:00 | 00:00:00 | |
| SQ9EZE-14 | 2026-08-30 12:15:22 | 49.03081 | 20.94185 | 35° | 13km/h | 20291m | 3.8m/s | -54.6°C | 1.0% | 56.3hPa | 2.6V | 00:00:00 | 00:00:00 | 00:00:00 | |
| GYPAP8-17 | 2026-08-30 12:15:17 | 49.03072 | 20.94177 | 58° | 7km/h | 20262m | 5.0m/s | -54.6°C | 1.0% | 56.5hPa | 2.6V | 00:00:00 | 00:00:00 | 00:00:00 | |
| SP9KGR-15 | 2026-08-30 12:15:15 | 49.03070 | 20.94171 | 61° | 9km/h | 20252m | 5.8m/s | -54.7°C | 1.0% | 56.6hPa | 2.6V | 00:00:00 | 00:00:00 | 00:00:00 | |
| SQ9EZE-14 | 2026-08-30 12:15:07 | 49.03056 | 20.94149 | 19° | 9km/h | 20217m | 4.4m/s | -54.5°C | 1.0% | 56.9hPa | 2.6V | 00:00:00 | 00:00:00 | 00:00:00 | |
| SP9KGR-15 | 2026-08-30 12:14:58 | 49.03042 | 20.94133 | 48° | 9km/h | 20169m | 5.2m/s | -54.6°C | 1.0% | 57.4hPa | 2.6V | 00:00:00 | 00:00:00 | 00:00:00 | |
| SQ9EZE-13 | 2026-08-30 12:14:51 | 49.03034 | 20.94117 | 60° | 7km/h | 20139m | 5.5m/s | -54.6°C | 1.0% | 57.7hPa | 2.6V | 00:00:00 | 00:00:00 | 00:00:00 | |
| OE3JTB-15 | 2026-08-30 12:14:45 | 49.03026 | 20.94101 | 82° | 7km/h | 20106m | 3.9m/s | -54.6°C | 3.8% | 57.9hPa | 2.6V | 00:00:00 | 00:00:00 | 00:00:00 | |
| SP9KGR-15 | 2026-08-30 12:14:41 | 49.03026 | 20.94090 | 96° | 11km/h | 20091m | 4.1m/s | -54.7°C | 1.0% | 58.1hPa | 2.7V | 00:00:00 | 00:00:00 | 00:00:00 | |
| SQ9EZE-13 | 2026-08-30 12:14:35 | 49.03021 | 20.94081 | 2° | 11km/h | 20062m | 4.5m/s | -55.1°C | 1.0% | 58.4hPa | 2.7V | 00:00:00 | 00:00:00 | 00:00:00 | |
| SP9KGR-15 | 2026-08-30 12:14:25 | 49.03004 | 20.94062 | 75° | 11km/h | 20012m | 4.8m/s | -55.3°C | 1.1% | 58.8hPa | 2.7V | 00:00:00 | 00:00:00 | 00:00:00 | |
| SQ9EZE-13 | 2026-08-30 12:14:19 | 49.02996 | 20.94050 | 10° | 11km/h | 19982m | 4.5m/s | -55.3°C | 1.0% | 59.1hPa | 2.7V | 00:00:00 | 00:00:00 | 00:00:00 | |
| SP9KGR-15 | 2026-08-30 12:14:11 | 49.02988 | 20.94048 | 189° | 4km/h | 19940m | 4.8m/s | -55.2°C | 1.1% | 59.5hPa | 2.7V | 00:00:00 | 00:00:00 | 00:00:00 | |
| SQ9EZE-15 | 2026-08-30 12:14:07 | 49.02990 | 20.94047 | 69° | 2km/h | 19925m | 4.4m/s | -55.1°C | 1.1% | 59.6hPa | 2.7V | 00:00:00 | 00:00:00 | 00:00:00 | |
| OE3JTB-15 | 2026-08-30 12:14:06 | 49.02989 | 20.94046 | 343° | 7km/h | 19916m | 5.4m/s | -55.0°C | 4.0% | 59.7hPa | 2.7V | 00:00:00 | 00:00:00 | 00:00:00 | |
| SQ9EZE-13 | 2026-08-30 12:14:04 | 49.02989 | 20.94046 | 313° | 2km/h | 19911m | 4.3m/s | -55.0°C | 1.0% | 59.8hPa | 2.7V | 00:00:00 | 00:00:00 | 00:00:00 | |
| SP9KGR-15 | 2026-08-30 12:13:55 | 49.02998 | 20.94045 | 163° | 7km/h | 19870m | 4.7m/s | -54.8°C | 1.0% | 60.1hPa | 2.7V | 00:00:00 | 00:00:00 | 00:00:00 | |
| SQ9EZE-13 | 2026-08-30 12:13:49 | 49.03009 | 20.94042 | 147° | 4km/h | 19842m | 4.6m/s | -54.6°C | 1.0% | 60.4hPa | 2.7V | 00:00:00 | 00:00:00 | 00:00:00 | |
| SQ9EZE-15 | 2026-08-30 12:13:47 | 49.03011 | 20.94040 | 157° | 5km/h | 19833m | 4.9m/s | -54.6°C | 1.0% | 60.5hPa | 2.7V | 00:00:00 | 00:00:00 | 00:00:00 | |
| SP9KGR-15 | 2026-08-30 12:13:40 | 49.03026 | 20.94027 | 150° | 13km/h | 19802m | 5.1m/s | -54.6°C | 1.0% | 60.8hPa | 2.7V | 00:00:00 | 00:00:00 | 00:00:00 | |
| OE3JTB-15 | 2026-08-30 12:13:37 | 49.03036 | 20.94017 | 127° | 11km/h | 19784m | 5.1m/s | -54.5°C | 3.9% | 60.9hPa | 2.7V | 00:00:00 | 01:24:11 | 00:00:00 | |
| SQ9EZE-13 | 2026-08-30 12:13:33 | 49.03041 | 20.94006 | 129° | 11km/h | 19770m | 5.3m/s | -54.6°C | 1.1% | 61.1hPa | 2.7V | 00:00:00 | 00:00:00 | 00:00:00 | |
| SQ9EZE-15 | 2026-08-30 12:13:26 | 49.03057 | 20.93980 | 143° | 15km/h | 19736m | 4.1m/s | -54.6°C | 1.0% | 61.4hPa | 2.7V | 00:00:00 | 00:00:00 | 00:00:00 | |
| SP9KGR-15 | 2026-08-30 12:13:23 | 49.03065 | 20.93968 | 119° | 15km/h | 19723m | 4.6m/s | -54.5°C | 1.0% | 61.5hPa | 2.7V | 00:00:00 | 00:00:00 | 00:00:00 | |
| SQ9EZE-13 | 2026-08-30 12:13:18 | 49.03071 | 20.93947 | 111° | 13km/h | 19700m | 4.9m/s | -54.4°C | 1.0% | 61.8hPa | 2.7V | 00:00:00 | 00:00:00 | 00:00:00 | |
| SP9KGR-15 | 2026-08-30 12:13:09 | 49.03075 | 20.93920 | 42° | 5km/h | 19654m | 4.7m/s | -54.4°C | 1.0% | 62.2hPa | 2.7V | 00:00:00 | 00:00:00 | 00:00:00 | |
| OE3JTB-15 | 2026-08-30 12:13:08 | 49.03074 | 20.93918 | 55° | 11km/h | 19649m | 4.6m/s | -54.3°C | 3.7% | 62.2hPa | 2.7V | 00:00:00 | 00:00:00 | 08:30:00 | |
| SQ9EZE-14 | 2026-08-30 12:13:02 | 49.03075 | 20.93908 | 128° | 5km/h | 19625m | 4.1m/s | -54.5°C | 1.0% | 62.4hPa | 2.7V | 00:00:00 | 00:00:00 | 00:00:00 | |
| HA6NAB-11 | 2026-08-30 12:12:55 | 49.03070 | 20.93890 | 35° | 13km/h | 19593m | 5.4m/s | -54.6°C | 0% | 62.7hPa | 2.7V | 00:00:00 | 00:00:00 | 00:00:00 | |
| SP9KGR-15 | 2026-08-30 12:12:52 | 49.03062 | 20.93882 | 28° | 11km/h | 19579m | 5.4m/s | -54.7°C | 1.0% | 62.9hPa | 2.7V | 00:00:00 | 00:00:00 | 00:00:00 | |
| HA6NAB-11 | 2026-08-30 12:12:49 | 49.03056 | 20.93877 | 47° | 7km/h | 19565m | 5.3m/s | -54.7°C | 0% | 63.0hPa | 2.7V | 00:00:00 | 00:00:00 | 00:00:00 | |
| SQ9EZE-14 | 2026-08-30 12:12:47 | 49.03053 | 20.93872 | 52° | 11km/h | 19556m | 3.7m/s | -54.7°C | 1.1% | 63.1hPa | 2.7V | 00:00:00 | 00:00:00 | 00:00:00 | |
| SQ9EZE-13 | 2026-08-30 12:12:46 | 49.03051 | 20.93868 | 49° | 11km/h | 19551m | 5.3m/s | -54.8°C | 1.0% | 63.2hPa | 2.7V | 00:00:00 | 00:00:00 | 00:00:00 | |
| HA6NAB-11 | 2026-08-30 12:12:43 | 49.03043 | 20.93857 | 43° | 18km/h | 19537m | 5.4m/s | -54.7°C | 0% | 63.3hPa | 2.7V | 00:00:00 | 00:00:00 | 00:00:00 | |
| OE3JTB-15 | 2026-08-30 12:12:39 | 49.03018 | 20.93841 | 3° | 22km/h | 19515m | 3.9m/s | -54.6°C | 3.9% | 63.5hPa | 2.7V | 00:00:00 | 00:00:00 | 00:00:00 | |
| HA6NAB-11 | 2026-08-30 12:12:38 | 49.03018 | 20.93841 | 4° | 24km/h | 19515m | 4.0m/s | -54.6°C | 0% | 63.6hPa | 2.7V | 00:00:00 | 00:00:00 | 00:00:00 | |
| SP9KGR-15 | 2026-08-30 12:12:37 | 49.03012 | 20.93841 | 3° | 22km/h | 19511m | 4.2m/s | -54.5°C | 1.1% | 63.6hPa | 2.7V | 00:00:00 | 00:00:00 | 00:00:00 | |
| HA6NAB-11 | 2026-08-30 12:12:32 | 49.02988 | 20.93837 | 3° | 18km/h | 19488m | 4.6m/s | -54.6°C | 0% | 63.8hPa | 2.7V | 00:00:00 | 00:00:00 | 00:00:00 | |
| SQ9EZE-13 | 2026-08-30 12:12:30 | 49.02979 | 20.93836 | 8° | 18km/h | 19479m | 5.2m/s | -54.6°C | 1.1% | 63.9hPa | 2.7V | 00:00:00 | 00:00:00 | 00:00:00 | |
| HA6NAB-11 | 2026-08-30 12:12:27 | 49.02962 | 20.93833 | 358° | 16km/h | 19460m | 3.6m/s | -54.6°C | 0% | 64.1hPa | 2.7V | 00:00:00 | 00:00:00 | 00:00:00 | |
| SP9KGR-15 | 2026-08-30 12:12:22 | 49.02940 | 20.93834 | 357° | 26km/h | 19443m | 4.9m/s | -54.7°C | 1.0% | 64.3hPa | 2.7V | 00:00:00 | 00:00:00 | 00:00:00 | |
| HA6NAB-11 | 2026-08-30 12:12:20 | 49.02927 | 20.93836 | 351° | 29km/h | 19433m | 3.7m/s | -54.5°C | 0% | 64.4hPa | 2.7V | 00:00:00 | 00:00:00 | 00:00:00 | |
| SQ9EZE-13 | 2026-08-30 12:12:15 | 49.02892 | 20.93841 | 357° | 22km/h | 19409m | 4.2m/s | -54.6°C | 1.0% | 64.6hPa | 2.7V | 00:00:00 | 00:00:00 | 00:00:00 | |
| HA6NAB-11 | 2026-08-30 12:12:14 | 49.02887 | 20.93841 | 359° | 20km/h | 19405m | 4.0m/s | -54.7°C | 0% | 64.6hPa | 2.7V | 00:00:00 | 00:00:00 | 00:00:00 | |
| OE3JTB-15 | 2026-08-30 12:12:10 | 49.02860 | 20.93849 | 332° | 20km/h | 19382m | 4.2m/s | -54.6°C | 3.9% | 64.8hPa | 2.7V | 00:00:00 | 01:22:44 | 00:00:00 | |
| SP9KGR-15 | 2026-08-30 12:12:06 | 49.02840 | 20.93863 | 344° | 27km/h | 19369m | 4.3m/s | -54.6°C | 1.0% | 65.0hPa | 2.7V | 00:00:00 | 00:00:00 | 00:00:00 | |
| HA6NAB-11 | 2026-08-30 12:12:05 | 49.02834 | 20.93865 | 348° | 24km/h | 19364m | 4.6m/s | -54.6°C | 0% | 65.0hPa | 2.7V | 00:00:00 | 00:00:00 | 00:00:00 | |
| SQ9EZE-13 | 2026-08-30 12:12:00 | 49.02811 | 20.93875 | 345° | 20km/h | 19341m | 4.2m/s | -54.5°C | 1.0% | 65.3hPa | 2.7V | 00:00:00 | 00:00:00 | 00:00:00 | |
| HA6NAB-11 | 2026-08-30 12:11:59 | 49.02806 | 20.93877 | 338° | 20km/h | 19337m | 4.2m/s | -54.5°C | 0% | 65.3hPa | 2.7V | 00:00:00 | 00:00:00 | 00:00:00 | |
| SP9KGR-15 | 2026-08-30 12:11:50 | 49.02764 | 20.93904 | 348° | 15km/h | 19296m | 3.9m/s | -54.6°C | 1.0% | 65.8hPa | 2.7V | 00:00:00 | 00:00:00 | 00:00:00 | |
| SQ9EZE-13 | 2026-08-30 12:11:44 | 49.02741 | 20.93914 | 324° | 15km/h | 19269m | 4.4m/s | -54.6°C | 1.1% | 66.0hPa | 2.7V | 00:00:00 | 00:00:00 | 00:00:00 | |
| OE3JTB-15 | 2026-08-30 12:11:41 | 49.02728 | 20.93925 | 352° | 7km/h | 19252m | 4.0m/s | -54.4°C | 3.8% | 66.2hPa | 2.7V | 00:00:00 | 00:00:00 | 00:00:00 | |
| SP9KGR-15 | 2026-08-30 12:11:34 | 49.02718 | 20.93926 | 333° | 7km/h | 19224m | 4.2m/s | -54.3°C | 1.0% | 66.5hPa | 2.6V | 00:00:00 | 00:00:00 | 00:00:00 | |
| SQ9EZE-13 | 2026-08-30 12:11:28 | 49.02707 | 20.93921 | 39° | 13km/h | 19195m | 3.8m/s | -54.0°C | 1.0% | 66.8hPa | 2.6V | 00:00:00 | 00:00:00 | 00:00:00 | |
| SP9KGR-15 | 2026-08-30 12:11:19 | 49.02697 | 20.93902 | 124° | 4km/h | 19153m | 5.0m/s | -54.0°C | 1.0% | 67.3hPa | 2.6V | 00:00:00 | 00:00:00 | 00:00:00 | |
| SQ9EZE-13 | 2026-08-30 12:11:13 | 49.02695 | 20.93886 | 80° | 11km/h | 19123m | 5.1m/s | -53.9°C | 1.0% | 67.6hPa | 2.6V | 00:00:00 | 00:00:00 | 00:00:00 | |
| OE3JTB-15 | 2026-08-30 12:11:12 | 49.02693 | 20.93878 | 71° | 16km/h | 19114m | 5.4m/s | -53.8°C | 3.5% | 67.6hPa | 2.6V | 00:00:00 | 00:00:00 | 00:00:00 | |
| SQ9EZE-15 | 2026-08-30 12:11:07 | 49.02694 | 20.93865 | 127° | 13km/h | 19095m | 5.3m/s | -53.9°C | 1.0% | 67.9hPa | 2.6V | 00:00:00 | 00:00:00 | 00:00:00 | |
| SP9KGR-15 | 2026-08-30 12:11:04 | 49.02702 | 20.93848 | 110° | 15km/h | 19076m | 4.2m/s | -54.1°C | 1.0% | 68.1hPa | 2.6V | 00:00:00 | 00:00:00 | 00:00:00 | |
| GYPAP8-17 | 2026-08-30 12:11:01 | 49.02704 | 20.93837 | 105° | 15km/h | 19066m | 4.5m/s | -54.3°C | 1.0% | 68.2hPa | 2.6V | 00:00:00 | 00:00:00 | 00:00:00 | |
| HA6NAB-11 | 2026-08-30 12:10:58 | 49.02703 | 20.93822 | 66° | 11km/h | 19052m | 4.7m/s | -54.5°C | 0% | 68.3hPa | 2.6V | 00:00:00 | 00:00:00 | 00:00:00 | |
| SQ9EZE-13 | 2026-08-30 12:10:57 | 49.02702 | 20.93818 | 66° | 13km/h | 19048m | 3.2m/s | -54.7°C | 1.0% | 68.3hPa | 2.6V | 00:00:00 | 00:00:00 | 00:00:00 | |
| HA6NAB-11 | 2026-08-30 12:10:49 | 49.02715 | 20.93757 | 110° | 26km/h | 19012m | 4.9m/s | -55.0°C | 0% | 68.7hPa | 2.6V | 00:00:00 | 00:00:00 | 00:00:00 | |
| SP9KGR-15 | 2026-08-30 12:10:48 | 49.02718 | 20.93748 | 105° | 27km/h | 19007m | 4.7m/s | -55.0°C | 1.1% | 68.8hPa | 2.6V | 00:00:00 | 00:00:00 | 00:00:00 | |
| OE3JTB-15 | 2026-08-30 12:10:43 | 49.02722 | 20.93703 | 80° | 15km/h | 18980m | 5.4m/s | -54.8°C | 4.0% | 69.0hPa | 2.6V | 00:00:00 | 01:21:17 | 00:00:00 | |
| SQ9EZE-13 | 2026-08-30 12:10:41 | 49.02721 | 20.93698 | 72° | 16km/h | 18975m | 4.7m/s | -54.9°C | 1.1% | 69.2hPa | 2.6V | 00:00:00 | 00:00:00 | 00:00:00 | |
| SP9KGR-15 | 2026-08-30 12:10:29 | 49.02705 | 20.93623 | 85° | 13km/h | 18918m | 4.9m/s | -54.6°C | 1.0% | 69.8hPa | 2.6V | 00:00:00 | 00:00:00 | 00:00:00 | |
| SQ9EZE-13 | 2026-08-30 12:10:25 | 49.02699 | 20.93610 | 31° | 9km/h | 18899m | 5.5m/s | -54.6°C | 1.1% | 70.0hPa | 2.6V | 00:00:00 | 00:00:00 | 00:00:00 | |
| SQ9EZE-14 | 2026-08-30 12:10:19 | 49.02683 | 20.93592 | 50° | 16km/h | 18870m | 5.8m/s | -54.6°C | 1.0% | 70.3hPa | 2.6V | 00:00:00 | 00:00:00 | 00:00:00 | |
| OE3JTB-15 | 2026-08-30 12:10:14 | 49.02673 | 20.93570 | 41° | 13km/h | 18842m | 5.2m/s | -54.7°C | 3.9% | 70.6hPa | 2.6V | 00:00:00 | 00:00:00 | 00:00:00 | |
| SQ9EZE-13 | 2026-08-30 12:10:10 | 49.02669 | 20.93571 | 343° | 9km/h | 18827m | 5.9m/s | -54.7°C | 1.1% | 70.8hPa | 2.6V | 00:00:00 | 00:00:00 | 00:00:00 | |
| SQ9EZE-14 | 2026-08-30 12:10:04 | 49.02645 | 20.93571 | 13° | 20km/h | 18798m | 5.5m/s | -54.6°C | 1.0% | 71.1hPa | 2.6V | 00:00:00 | 00:00:00 | 00:00:00 | |
| SP9KGR-15 | 2026-08-30 12:09:59 | 49.02627 | 20.93569 | 342° | 11km/h | 18775m | 4.1m/s | -54.4°C | 1.0% | 71.3hPa | 2.6V | 00:00:00 | 00:00:00 | 00:00:00 | |
| SQ9EZE-13 | 2026-08-30 12:09:55 | 49.02616 | 20.93575 | 345° | 11km/h | 18758m | 4.8m/s | -54.5°C | 1.0% | 71.5hPa | 2.6V | 00:00:00 | 00:00:00 | 00:00:00 | |
| GYPAP8-17 | 2026-08-30 12:09:48 | 49.02593 | 20.93596 | 315° | 11km/h | 18722m | 4.3m/s | -54.6°C | 1.0% | 72.0hPa | 2.6V | 00:00:00 | 00:00:00 | 00:00:00 | |
| OE3JTB-15 | 2026-08-30 12:09:45 | 49.02586 | 20.93602 | 350° | 9km/h | 18708m | 3.6m/s | -54.6°C | 3.9% | 72.0hPa | 2.6V | 00:00:00 | 00:00:00 | 00:00:00 | |
| SP9KGR-15 | 2026-08-30 12:09:43 | 49.02584 | 20.93602 | 353° | 7km/h | 18703m | 5.7m/s | -54.7°C | 1.0% | 72.1hPa | 2.6V | 00:00:00 | 00:00:00 | 00:00:00 | |
| SQ9EZE-13 | 2026-08-30 12:09:40 | 49.02580 | 20.93601 | 23° | 7km/h | 18689m | 5.2m/s | -54.7°C | 1.1% | 72.3hPa | 2.6V | 00:00:00 | 00:00:00 | 00:00:00 | |
| SP9KGR-15 | 2026-08-30 12:09:29 | 49.02568 | 20.93610 | 0° | 0km/h | 18635m | 5.3m/s | -54.6°C | 1.1% | 72.9hPa | 2.6V | 00:00:00 | 00:00:00 | 00:00:00 | |
| SQ9EZE-13 | 2026-08-30 12:09:24 | 49.02567 | 20.93603 | 86° | 5km/h | 18617m | 4.3m/s | -54.3°C | 1.1% | 73.2hPa | 2.6V | 00:00:00 | 00:00:00 | 00:00:00 | |
| SP9KGR-15 | 2026-08-30 12:09:12 | 49.02563 | 20.93596 | 119° | 7km/h | 18562m | 4.5m/s | -54.2°C | 1.0% | 73.8hPa | 2.6V | 00:00:00 | 00:00:00 | 00:00:00 | |
| SQ9EZE-13 | 2026-08-30 12:09:08 | 49.02561 | 20.93582 | 54° | 11km/h | 18544m | 4.6m/s | -54.3°C | 1.1% | 74.0hPa | 2.6V | 00:00:00 | 00:00:00 | 00:00:00 | |
| SP9KGR-15 | 2026-08-30 12:08:56 | 49.02566 | 20.93551 | 90° | 16km/h | 18490m | 4.4m/s | -54.1°C | 1.1% | 74.6hPa | 2.6V | 00:00:00 | 00:00:00 | 00:00:00 | |
| SQ9EZE-13 | 2026-08-30 12:08:52 | 49.02561 | 20.93531 | 64° | 9km/h | 18473m | 4.0m/s | -54.1°C | 1.0% | 74.8hPa | 2.6V | 00:00:00 | 00:00:00 | 00:00:00 | |
| SP9KGR-15 | 2026-08-30 12:08:40 | 49.02565 | 20.93469 | 99° | 16km/h | 18421m | 5.4m/s | -54.0°C | 1.1% | 75.4hPa | 2.6V | 00:00:00 | 00:00:00 | 00:00:00 | |
| GYPAP8-17 | 2026-08-30 12:08:39 | 49.02565 | 20.93462 | 93° | 16km/h | 18416m | 4.2m/s | -53.9°C | 1.1% | 75.5hPa | 2.6V | 00:00:00 | 00:00:00 | 00:00:00 | |
| SQ9EZE-13 | 2026-08-30 12:08:37 | 49.02565 | 20.93448 | 89° | 20km/h | 18407m | 5.6m/s | -54.0°C | 1.1% | 75.6hPa | 2.6V | 00:00:00 | 00:00:00 | 00:00:00 | |
| SP9KGR-15 | 2026-08-30 12:08:24 | 49.02575 | 20.93349 | 91° | 24km/h | 18347m | 3.4m/s | -54.0°C | 1.1% | 76.3hPa | 2.6V | 00:00:00 | 00:00:00 | 00:00:00 | |
| SQ9EZE-13 | 2026-08-30 12:08:21 | 49.02575 | 20.93323 | 84° | 22km/h | 18334m | 4.1m/s | -54.0°C | 1.1% | 76.4hPa | 2.6V | 00:00:00 | 00:00:00 | 00:00:00 | |
| SP9KGR-15 | 2026-08-30 12:08:06 | 49.02563 | 20.93178 | 89° | 27km/h | 18267m | 5.6m/s | -54.0°C | 1.1% | 77.2hPa | 2.6V | 00:00:00 | 00:00:00 | 00:00:00 | |
| SQ9EZE-14 | 2026-08-30 12:07:59 | 49.02555 | 20.93104 | 69° | 35km/h | 18237m | 4.8m/s | -54.0°C | 1.1% | 77.6hPa | 2.6V | 00:00:00 | 00:00:00 | 00:00:00 | |
| SQ9EZE-13 | 2026-08-30 12:07:51 | 49.02533 | 20.93012 | 81° | 26km/h | 18201m | 5.6m/s | -54.8°C | 1.1% | 78.0hPa | 2.6V | 00:00:00 | 00:00:00 | 00:00:00 | |
| SQ9EZE-14 | 2026-08-30 12:07:44 | 49.02525 | 20.92946 | 69° | 27km/h | 18169m | 4.1m/s | -54.9°C | 1.1% | 78.4hPa | 2.6V | 00:00:00 | 00:00:00 | 00:00:00 | |
| SQ9EZE-13 | 2026-08-30 12:07:36 | 49.02501 | 20.92862 | 69° | 29km/h | 18132m | 5.5m/s | -56.0°C | 1.2% | 78.9hPa | 2.6V | 00:00:00 | 00:00:00 | 00:00:00 | |
| SP9KGR-15 | 2026-08-30 12:07:35 | 49.02497 | 20.92851 | 70° | 31km/h | 18127m | 4.2m/s | -56.1°C | 1.2% | 78.9hPa | 2.6V | 00:00:00 | 00:00:00 | 00:00:00 | |
| GYPAP8-17 | 2026-08-30 12:07:27 | 49.02463 | 20.92758 | 54° | 44km/h | 18092m | 4.9m/s | -56.2°C | 1.2% | 79.4hPa | 2.6V | 00:00:00 | 00:00:00 | 00:00:00 | |
| SQ9EZE-13 | 2026-08-30 12:07:20 | 49.02413 | 20.92681 | 32° | 33km/h | 18062m | 4.1m/s | -56.1°C | 1.2% | 79.8hPa | 2.6V | 00:00:00 | 00:00:00 | 00:00:00 | |
| SP9KGR-15 | 2026-08-30 12:07:19 | 49.02406 | 20.92675 | 30° | 31km/h | 18058m | 4.6m/s | -56.1°C | 1.3% | 79.8hPa | 2.6V | 00:00:00 | 00:00:00 | 00:00:00 | |
| SQ9EZE-13 | 2026-08-30 12:07:05 | 49.02330 | 20.92567 | 35° | 20km/h | 17995m | 4.4m/s | -55.8°C | 1.2% | 80.6hPa | 2.6V | 00:00:00 | 00:00:00 | 00:00:00 | |
| SP9KGR-15 | 2026-08-30 12:07:03 | 49.02321 | 20.92560 | 21° | 18km/h | 17985m | 3.8m/s | -55.7°C | 1.2% | 80.7hPa | 2.6V | 00:00:00 | 00:00:00 | 00:00:00 | |
| SQ9EZE-13 | 2026-08-30 12:06:50 | 49.02267 | 20.92457 | 48° | 22km/h | 17928m | 3.5m/s | -56.1°C | 1.3% | 81.5hPa | 2.6V | 00:00:00 | 00:00:00 | 00:00:00 | |
| SP9KGR-15 | 2026-08-30 12:06:48 | 49.02261 | 20.92445 | 57° | 20km/h | 17919m | 4.7m/s | -56.0°C | 1.3% | 81.6hPa | 2.6V | 00:00:00 | 00:00:00 | 00:00:00 | |
| SQ9EZE-13 | 2026-08-30 12:06:33 | 49.02219 | 20.92347 | 49° | 16km/h | 17862m | 3.6m/s | -56.2°C | 1.2% | 82.3hPa | 2.6V | 00:00:00 | 00:00:00 | 00:00:00 | |
| SP9KGR-15 | 2026-08-30 12:06:26 | 49.02198 | 20.92311 | 33° | 13km/h | 17833m | 3.5m/s | -56.3°C | 1.3% | 82.7hPa | 2.6V | 00:00:00 | 00:00:00 | 00:00:00 | |
| GYPAP8-17 | 2026-08-30 12:06:24 | 49.02192 | 20.92307 | 14° | 16km/h | 17824m | 4.1m/s | -56.4°C | 1.3% | 82.8hPa | 2.6V | 00:00:00 | 00:00:00 | 00:00:00 | |
| SQ9EZE-13 | 2026-08-30 12:06:18 | 49.02170 | 20.92299 | 35° | 15km/h | 17798m | 4.6m/s | -56.2°C | 1.3% | 83.1hPa | 2.6V | 00:00:00 | 00:00:00 | 00:00:00 | |
| SP9KGR-15 | 2026-08-30 12:06:10 | 49.02149 | 20.92273 | 26° | 9km/h | 17761m | 4.4m/s | -56.0°C | 1.3% | 83.6hPa | 2.6V | 00:00:00 | 00:00:00 | 00:00:00 | |
| SQ9EZE-13 | 2026-08-30 12:06:02 | 49.02137 | 20.92264 | 79° | 9km/h | 17731m | 4.3m/s | -55.9°C | 1.3% | 84.0hPa | 2.6V | 00:00:00 | 00:00:00 | 00:00:00 | |
| SP9KGR-15 | 2026-08-30 12:05:53 | 49.02123 | 20.92231 | 33° | 13km/h | 17692m | 3.3m/s | -55.8°C | 1.3% | 84.6hPa | 2.6V | 00:00:00 | 00:00:00 | 00:00:00 | |
| SQ9EZE-13 | 2026-08-30 12:05:47 | 49.02111 | 20.92203 | 66° | 20km/h | 17665m | 4.0m/s | -55.8°C | 1.3% | 84.9hPa | 2.6V | 00:00:00 | 00:00:00 | 00:00:00 | |
| SQ9EZE-14 | 2026-08-30 12:05:40 | 49.02093 | 20.92168 | 27° | 15km/h | 17635m | 5.0m/s | -55.7°C | 1.2% | 85.3hPa | 2.6V | 00:00:00 | 00:00:00 | 00:00:00 | |
| SP9KGR-15 | 2026-08-30 12:05:39 | 49.02087 | 20.92163 | 29° | 13km/h | 17627m | 3.7m/s | -55.8°C | 1.2% | 85.4hPa | 2.6V | 00:00:00 | 00:00:00 | 00:00:00 | |
| SQ9EZE-13 | 2026-08-30 12:05:31 | 49.02073 | 20.92130 | 76° | 15km/h | 17596m | 4.9m/s | -55.8°C | 1.3% | 85.8hPa | 2.6V | 00:00:00 | 00:00:00 | 00:00:00 | |
| SQ9EZE-14 | 2026-08-30 12:05:24 | 49.02063 | 20.92098 | 63° | 15km/h | 17565m | 4.6m/s | -56.1°C | 1.3% | 86.3hPa | 2.6V | 00:00:00 | 00:00:00 | 00:00:00 | |
| GYPAP8-17 | 2026-08-30 12:05:23 | 49.02060 | 20.92087 | 75° | 16km/h | 17556m | 5.2m/s | -56.0°C | 1.3% | 86.4hPa | 2.6V | 00:00:00 | 00:00:00 | 00:00:00 | |
| SP9KGR-15 | 2026-08-30 12:05:20 | 49.02058 | 20.92073 | 79° | 20km/h | 17547m | 4.4m/s | -56.0°C | 1.3% | 86.5hPa | 2.6V | 00:00:00 | 00:00:00 | 00:00:00 | |
| SQ9EZE-13 | 2026-08-30 12:05:16 | 49.02053 | 20.92043 | 82° | 18km/h | 17529m | 5.0m/s | -55.8°C | 1.3% | 86.8hPa | 2.6V | 00:00:00 | 00:00:00 | 00:00:00 | |
| SP9KGR-15 | 2026-08-30 12:05:04 | 49.02036 | 20.91995 | 81° | 9km/h | 17474m | 5.0m/s | -55.5°C | 1.3% | 87.5hPa | 2.6V | 00:00:00 | 00:00:00 | 00:00:00 | |
| SQ9EZE-13 | 2026-08-30 12:05:00 | 49.02032 | 20.91976 | 62° | 15km/h | 17456m | 3.5m/s | -55.4°C | 1.3% | 87.7hPa | 2.6V | 00:00:00 | 00:00:00 | 00:00:00 | |
| SP9KGR-15 | 2026-08-30 12:04:49 | 49.02017 | 20.91940 | 63° | 13km/h | 17406m | 4.1m/s | -55.0°C | 1.3% | 88.5hPa | 2.6V | 00:00:00 | 00:00:00 | 00:00:00 | |
| SQ9EZE-13 | 2026-08-30 12:04:44 | 49.02008 | 20.91919 | 48° | 16km/h | 17384m | 4.8m/s | -55.0°C | 1.3% | 88.8hPa | 2.6V | 00:00:00 | 00:00:00 | 00:00:00 | |
| SQ9EZE-15 | 2026-08-30 12:04:39 | 49.01997 | 20.91901 | 47° | 9km/h | 17362m | 5.1m/s | -55.2°C | 1.2% | 89.1hPa | 2.6V | 00:00:00 | 00:00:00 | 00:00:00 | |
| SP9KGR-15 | 2026-08-30 12:04:33 | 49.01987 | 20.91882 | 60° | 11km/h | 17335m | 4.7m/s | -55.3°C | 1.2% | 89.4hPa | 2.6V | 00:00:00 | 00:00:00 | 00:00:00 | |
| SQ9EZE-13 | 2026-08-30 12:04:29 | 49.01976 | 20.91870 | 32° | 13km/h | 17317m | 4.8m/s | -55.6°C | 1.3% | 89.7hPa | 2.6V | 00:00:00 | 00:00:00 | 00:00:00 | |
| SP9KGR-15 | 2026-08-30 12:04:18 | 49.01947 | 20.91815 | 59° | 18km/h | 17267m | 5.2m/s | -56.7°C | 1.4% | 90.4hPa | 2.6V | 00:00:00 | 00:00:00 | 00:00:00 | |
| SQ9EZE-13 | 2026-08-30 12:04:14 | 49.01933 | 20.91801 | 13° | 20km/h | 17250m | 3.7m/s | -56.6°C | 1.4% | 90.6hPa | 2.6V | 00:00:00 | 00:00:00 | 00:00:00 | |
| SP9KGR-15 | 2026-08-30 12:04:02 | 49.01901 | 20.91771 | 30° | 13km/h | 17196m | 3.9m/s | -56.3°C | 1.4% | 91.4hPa | 2.6V | 00:00:00 | 00:00:00 | 00:00:00 | |
| SQ9EZE-13 | 2026-08-30 12:03:58 | 49.01891 | 20.91765 | 35° | 9km/h | 17178m | 5.1m/s | -56.1°C | 1.4% | 91.7hPa | 2.6V | 00:00:00 | 00:00:00 | 00:00:00 | |
| OE3JTB-15 | 2026-08-30 12:03:57 | 49.01888 | 20.91761 | 60° | 11km/h | 17169m | 4.8m/s | -55.9°C | 4.4% | 91.8hPa | 2.6V | 00:00:00 | 01:14:31 | 00:00:00 | |
| SP9KGR-15 | 2026-08-30 12:03:47 | 49.01883 | 20.91740 | 38° | 9km/h | 17126m | 4.4m/s | -55.8°C | 1.3% | 92.4hPa | 2.6V | 00:00:00 | 00:00:00 | 00:00:00 | |
| SQ9EZE-13 | 2026-08-30 12:03:42 | 49.01876 | 20.91732 | 58° | 7km/h | 17104m | 4.9m/s | -55.6°C | 1.3% | 92.8hPa | 2.6V | 00:00:00 | 00:00:00 | 00:00:00 | |
| SP9KGR-15 | 2026-08-30 12:03:33 | 49.01879 | 20.91708 | 123° | 4km/h | 17059m | 4.2m/s | -55.3°C | 1.3% | 93.4hPa | 2.6V | 00:00:00 | 00:00:00 | 00:00:00 | |
| SQ9EZE-13 | 2026-08-30 12:03:26 | 49.01880 | 20.91699 | 134° | 5km/h | 17033m | 4.1m/s | -55.2°C | 1.3% | 93.8hPa | 2.6V | 00:00:00 | 00:00:00 | 00:00:00 | |
| SQ9EZE-14 | 2026-08-30 12:03:20 | 49.01886 | 20.91692 | 168° | 7km/h | 17005m | 3.7m/s | -55.1°C | 1.3% | 94.2hPa | 2.6V | 00:00:00 | 00:00:00 | 00:00:00 | |
| SP9KGR-15 | 2026-08-30 12:03:16 | 49.01892 | 20.91686 | 139° | 7km/h | 16987m | 5.1m/s | -55.2°C | 1.3% | 94.4hPa | 2.6V | 00:00:00 | 00:00:00 | 00:00:00 | |
| GYPAP8-17 | 2026-08-30 12:03:12 | 49.01900 | 20.91674 | 145° | 11km/h | 16965m | 4.0m/s | -55.0°C | 1.3% | 94.7hPa | 2.6V | 00:00:00 | 00:00:00 | 00:00:00 | |
| SQ9EZE-14 | 2026-08-30 12:03:04 | 49.01916 | 20.91663 | 139° | 13km/h | 16935m | 4.8m/s | -54.9°C | 1.2% | 95.2hPa | 2.6V | 00:00:00 | 00:00:00 | 00:00:00 | |
| SP9KGR-15 | 2026-08-30 12:03:01 | 49.01924 | 20.91652 | 140° | 13km/h | 16923m | 5.0m/s | -55.0°C | 1.3% | 95.4hPa | 2.6V | 00:00:00 | 00:00:00 | 00:00:00 | |
| SQ9EZE-13 | 2026-08-30 12:02:56 | 49.01934 | 20.91637 | 129° | 13km/h | 16900m | 3.8m/s | -55.3°C | 1.3% | 95.7hPa | 2.6V | 00:00:00 | 00:00:00 | 00:00:00 | |
| OE3JTB-15 | 2026-08-30 12:02:51 | 49.01945 | 20.91606 | 116° | 15km/h | 16875m | 3.7m/s | -55.5°C | 4.2% | 96.1hPa | 2.6V | 00:00:00 | 00:00:00 | 08:30:00 | |
| SP9KGR-15 | 2026-08-30 12:02:45 | 49.01952 | 20.91570 | 106° | 18km/h | 16853m | 3.5m/s | -55.6°C | 1.3% | 96.4hPa | 2.7V | 00:00:00 | 00:00:00 | 00:00:00 | |
| SQ9EZE-13 | 2026-08-30 12:02:41 | 49.01954 | 20.91546 | 91° | 13km/h | 16835m | 5.0m/s | -55.5°C | 1.3% | 96.7hPa | 2.7V | 00:00:00 | 00:00:00 | 00:00:00 | |
| SP9KGR-15 | 2026-08-30 12:02:30 | 49.01949 | 20.91482 | 107° | 15km/h | 16783m | 3.8m/s | -55.3°C | 1.3% | 97.5hPa | 2.7V | 00:00:00 | 00:00:00 | 00:00:00 | |
| SQ9EZE-13 | 2026-08-30 12:02:26 | 49.01952 | 20.91467 | 101° | 11km/h | 16770m | 3.6m/s | -55.3°C | 1.3% | 97.7hPa | 2.7V | 00:00:00 | 00:00:00 | 00:00:00 | |
| OE3JTB-15 | 2026-08-30 12:02:19 | 49.01949 | 20.91427 | 78° | 20km/h | 16735m | 4.1m/s | -55.0°C | 4.0% | 98.2hPa | 2.7V | 00:00:00 | 00:00:00 | 00:00:00 | |
| SP9KGR-15 | 2026-08-30 12:02:13 | 49.01945 | 20.91389 | 93° | 18km/h | 16714m | 4.0m/s | -54.9°C | 1.3% | 98.6hPa | 2.7V | 00:00:00 | 00:00:00 | 00:00:00 | |
| SQ9EZE-13 | 2026-08-30 12:02:10 | 49.01944 | 20.91368 | 79° | 18km/h | 16702m | 4.2m/s | -54.9°C | 1.2% | 98.8hPa | 2.7V | 00:00:00 | 00:00:00 | 00:00:00 | |
| GYPAP8-17 | 2026-08-30 12:02:08 | 49.01942 | 20.91355 | 79° | 16km/h | 16693m | 4.9m/s | -54.9°C | 1.3% | 98.9hPa | 2.7V | 00:00:00 | 00:00:00 | 00:00:00 | |
| SP9KGR-15 | 2026-08-30 12:01:58 | 49.01929 | 20.91288 | 80° | 18km/h | 16646m | 4.9m/s | -54.6°C | 1.2% | 99.6hPa | 2.7V | 00:00:00 | 00:00:00 | 00:00:00 | |
| SQ9EZE-13 | 2026-08-30 12:01:55 | 49.01928 | 20.91274 | 80° | 20km/h | 16638m | 4.7m/s | -54.6°C | 1.2% | 99.8hPa | 2.7V | 00:00:00 | 00:00:00 | 00:00:00 | |
| SP9KGR-15 | 2026-08-30 12:01:41 | 49.01910 | 20.91182 | 74° | 18km/h | 16579m | 4.9m/s | -54.5°C | 1.2% | 100.7hPa | 2.7V | 00:00:00 | 00:00:00 | 00:00:00 | |
| SQ9EZE-13 | 2026-08-30 12:01:39 | 49.01906 | 20.91160 | 71° | 24km/h | 16566m | 4.9m/s | -54.5°C | 1.2% | 100.9hPa | 2.7V | 00:00:00 | 00:00:00 | 00:00:00 | |
| SP9KGR-15 | 2026-08-30 12:01:26 | 49.01871 | 20.91051 | 66° | 29km/h | 16513m | 4.5m/s | -54.6°C | 1.3% | 101.8hPa | 2.7V | 00:00:00 | 00:00:00 | 00:00:00 | |
| SQ9EZE-13 | 2026-08-30 12:01:22 | 49.01861 | 20.91012 | 68° | 27km/h | 16495m | 3.9m/s | -54.5°C | 1.2% | 102.0hPa | 2.7V | 00:00:00 | 00:00:00 | 00:00:00 | |
| SP9KGR-15 | 2026-08-30 12:01:10 | 49.01805 | 20.90900 | 54° | 29km/h | 16444m | 3.9m/s | -54.4°C | 1.2% | 102.9hPa | 2.7V | 00:00:00 | 00:00:00 | 00:00:00 | |
| SQ9EZE-13 | 2026-08-30 12:01:06 | 49.01786 | 20.90862 | 51° | 29km/h | 16427m | 5.0m/s | -54.7°C | 1.3% | 103.1hPa | 2.7V | 00:00:00 | 00:00:00 | 00:00:00 | |
| GYPAP8-17 | 2026-08-30 12:01:01 | 49.01764 | 20.90817 | 59° | 31km/h | 16405m | 3.5m/s | -54.8°C | 1.2% | 103.5hPa | 2.7V | 00:00:00 | 00:00:00 | 00:00:00 | |
| SQ9EZE-14 | 2026-08-30 12:00:59 | 49.01751 | 20.90789 | 54° | 29km/h | 16392m | 4.2m/s | -54.8°C | 1.2% | 103.7hPa | 2.7V | 00:00:00 | 00:00:00 | 00:00:00 | |
| SP9KGR-15 | 2026-08-30 12:00:54 | 49.01731 | 20.90754 | 43° | 27km/h | 16375m | 4.6m/s | -54.9°C | 1.2% | 104.0hPa | 2.7V | 00:00:00 | 00:00:00 | 00:00:00 | |
| SQ9EZE-13 | 2026-08-30 12:00:50 | 49.01713 | 20.90727 | 55° | 24km/h | 16358m | 3.7m/s | -54.8°C | 1.3% | 104.3hPa | 2.7V | 00:00:00 | 00:00:00 | 00:00:00 | |
| SQ9EZE-14 | 2026-08-30 12:00:42 | 49.01701 | 20.90667 | 79° | 20km/h | 16321m | 4.4m/s | -54.7°C | 1.3% | 104.8hPa | 2.7V | 00:00:00 | 00:00:00 | 00:00:00 | |
| SP9KGR-15 | 2026-08-30 12:00:38 | 49.01694 | 20.90636 | 69° | 20km/h | 16303m | 4.9m/s | -54.5°C | 1.3% | 105.1hPa | 2.7V | 00:00:00 | 00:00:00 | 00:00:00 | |
| SQ9EZE-15 | 2026-08-30 12:00:37 | 49.01692 | 20.90630 | 71° | 18km/h | 16298m | 4.8m/s | -54.5°C | 1.2% | 105.2hPa | 2.7V | 00:00:00 | 00:00:00 | 00:00:00 | |
| SQ9EZE-13 | 2026-08-30 12:00:34 | 49.01690 | 20.90609 | 87° | 20km/h | 16285m | 4.7m/s | -54.5°C | 1.2% | 105.4hPa | 2.7V | 00:00:00 | 00:00:00 | 00:00:00 | |
| SP9KGR-15 | 2026-08-30 12:00:23 | 49.01688 | 20.90522 | 88° | 16km/h | 16231m | 3.6m/s | -54.0°C | 1.2% | 106.4hPa | 2.7V | 00:00:00 | 00:00:00 | 00:00:00 | |
| SQ9EZE-13 | 2026-08-30 12:00:18 | 49.01688 | 20.90501 | 89° | 15km/h | 16214m | 4.5m/s | -54.0°C | 1.2% | 106.6hPa | 2.7V | 00:00:00 | 00:00:00 | 00:00:00 | |
| OE3JTB-15 | 2026-08-30 12:00:17 | 49.01690 | 20.90471 | 106° | 16km/h | 16196m | 4.9m/s | -53.8°C | 3.9% | 106.8hPa | 2.7V | 00:00:00 | 01:10:49 | 00:00:00 | |
| SP9KGR-15 | 2026-08-30 12:00:07 | 49.01692 | 20.90444 | 273° | 2km/h | 16165m | 2.5m/s | -53.6°C | 1.2% | 107.4hPa | 2.7V | 00:00:00 | 00:00:00 | 00:00:00 | |
| SQ9EZE-15 | 2026-08-30 11:59:56 | 49.01700 | 20.90382 | 31° | 2km/h | 16114m | 5.0m/s | -53.3°C | 1.2% | 108.3hPa | 2.7V | 00:00:00 | 00:00:00 | 00:00:00 | |
| SP9KGR-15 | 2026-08-30 11:59:51 | 49.01696 | 20.90382 | 89° | 11km/h | 16091m | 6.2m/s | -53.1°C | 1.2% | 108.7hPa | 2.7V | 00:00:00 | 00:00:00 | 00:00:00 | |
| SQ9EZE-13 | 2026-08-30 11:59:47 | 49.01704 | 20.90346 | 122° | 35km/h | 16067m | 4.2m/s | -53.0°C | 1.2% | 109.1hPa | 2.7V | 00:00:00 | 00:00:00 | 00:00:00 | |
| OE3JTB-15 | 2026-08-30 11:59:46 | 49.01714 | 20.90325 | 128° | 35km/h | 16057m | 5.5m/s | -53.0°C | 3.7% | 109.2hPa | 2.7V | 00:00:00 | 00:00:00 | 00:00:00 | |
| HA6NAB-11 | 2026-08-30 11:59:38 | 49.01722 | 20.90269 | 97° | 24km/h | 16024m | 4.7m/s | -53.2°C | 0% | 109.8hPa | 2.7V | 00:00:00 | 00:00:00 | 00:00:00 | |
| SP9KGR-15 | 2026-08-30 11:59:35 | 49.01727 | 20.90242 | 114° | 26km/h | 16010m | 4.8m/s | -53.3°C | 1.2% | 110.1hPa | 2.7V | 00:00:00 | 00:00:00 | 00:00:00 | |
| HA6NAB-11 | 2026-08-30 11:59:33 | 49.01733 | 20.90222 | 112° | 31km/h | 16000m | 6.4m/s | -53.3°C | 0% | 110.2hPa | 2.7V | 00:00:00 | 00:00:00 | 00:00:00 | |
| SQ9EZE-13 | 2026-08-30 11:59:31 | 49.01739 | 20.90196 | 109° | 38km/h | 15989m | 4.7m/s | -53.2°C | 1.2% | 110.4hPa | 2.7V | 00:00:00 | 00:00:00 | 00:00:00 | |
| HA6NAB-11 | 2026-08-30 11:59:25 | 49.01758 | 20.90107 | 108° | 40km/h | 15962m | 3.7m/s | -53.3°C | 0% | 110.8hPa | 2.7V | 00:00:00 | 00:00:00 | 00:00:00 | |
| SP9KGR-15 | 2026-08-30 11:59:20 | 49.01774 | 20.90021 | 100° | 40km/h | 15935m | 4.6m/s | -53.1°C | 1.3% | 111.3hPa | 2.7V | 00:00:00 | 00:00:00 | 00:00:00 | |
| OE3JTB-15 | 2026-08-30 11:59:17 | 49.01777 | 20.89976 | 93° | 47km/h | 15921m | 5.0m/s | -53.2°C | 3.8% | 111.5hPa | 2.7V | 00:00:00 | 00:00:00 | 00:00:00 | |
| SQ9EZE-13 | 2026-08-30 11:59:15 | 49.01777 | 20.89960 | 91° | 42km/h | 15915m | 5.2m/s | -53.4°C | 1.3% | 111.6hPa | 2.7V | 00:00:00 | 00:00:00 | 00:00:00 | |
| HA6NAB-11 | 2026-08-30 11:59:14 | 49.01777 | 20.89944 | 91° | 40km/h | 15911m | 3.4m/s | -53.5°C | 0% | 111.7hPa | 2.7V | 00:00:00 | 00:00:00 | 00:00:00 | |
| HA6NAB-11 | 2026-08-30 11:59:08 | 49.01784 | 20.89851 | 102° | 47km/h | 15884m | 3.5m/s | -53.6°C | 0% | 112.2hPa | 2.7V | 00:00:00 | 00:00:00 | 00:00:00 | |
| SP9KGR-15 | 2026-08-30 11:59:04 | 49.01794 | 20.89779 | 100° | 47km/h | 15867m | 3.9m/s | -53.6°C | 1.3% | 112.5hPa | 2.7V | 00:00:00 | 00:00:00 | 00:00:00 | |
| HA6NAB-11 | 2026-08-30 11:59:02 | 49.01797 | 20.89740 | 93° | 53km/h | 15858m | 5.5m/s | -53.6°C | 0% | 112.7hPa | 2.7V | 00:00:00 | 00:00:00 | 00:00:00 | |
| SQ9EZE-13 | 2026-08-30 11:58:59 | 49.01795 | 20.89679 | 88° | 51km/h | 15843m | 5.6m/s | -53.7°C | 1.4% | 112.9hPa | 2.7V | 00:00:00 | 00:00:00 | 00:00:00 | |
| SP9KGR-15 | 2026-08-30 11:58:49 | 49.01787 | 20.89470 | 83° | 55km/h | 15793m | 4.7m/s | -54.0°C | 1.4% | 113.8hPa | 2.7V | 00:00:00 | 00:00:00 | 00:00:00 | |
| OE3JTB-15 | 2026-08-30 11:58:48 | 49.01784 | 20.89449 | 79° | 47km/h | 15789m | 3.4m/s | -54.1°C | 4.1% | 113.9hPa | 2.7V | 00:00:00 | 01:09:22 | 00:00:00 | |
| SQ9EZE-13 | 2026-08-30 11:58:43 | 49.01772 | 20.89373 | 74° | 47km/h | 15771m | 4.3m/s | -54.2°C | 1.5% | 114.2hPa | 2.7V | 00:00:00 | 00:00:00 | 00:00:00 | |
| SQ9EZE-14 | 2026-08-30 11:58:38 | 49.01753 | 20.89282 | 74° | 47km/h | 15749m | 4.5m/s | -54.2°C | 1.5% | 114.6hPa | 2.7V | 00:00:00 | 00:00:00 | 00:00:00 | |
| SP9KGR-15 | 2026-08-30 11:58:33 | 49.01734 | 20.89189 | 73° | 51km/h | 15727m | 5.3m/s | -54.1°C | 1.5% | 115.0hPa | 2.7V | 00:00:00 | 00:00:00 | 00:00:00 | |
| SQ9EZE-13 | 2026-08-30 11:58:26 | 49.01713 | 20.89069 | 79° | 40km/h | 15694m | 4.8m/s | -53.9°C | 1.5% | 115.5hPa | 2.7V | 00:00:00 | 00:00:00 | 00:00:00 | |
| SQ9EZE-14 | 2026-08-30 11:58:22 | 49.01705 | 20.89004 | 83° | 46km/h | 15676m | 4.9m/s | -53.9°C | 1.5% | 115.9hPa | 2.7V | 00:00:00 | 00:00:00 | 00:00:00 | |
| OE3JTB-15 | 2026-08-30 11:58:19 | 49.01700 | 20.88932 | 84° | 42km/h | 15657m | 5.0m/s | -53.8°C | 4.1% | 116.2hPa | 2.7V | 00:00:00 | 00:00:00 | 00:00:00 | |
| SP9KGR-15 | 2026-08-30 11:58:17 | 49.01699 | 20.88914 | 84° | 49km/h | 15653m | 3.3m/s | -53.9°C | 1.5% | 116.3hPa | 2.7V | 00:00:00 | 00:00:00 | 00:00:00 | |
| SQ9EZE-13 | 2026-08-30 11:58:10 | 49.01690 | 20.88807 | 86° | 37km/h | 15622m | 4.3m/s | -53.9°C | 1.6% | 116.9hPa | 2.7V | 00:00:00 | 00:00:00 | 00:00:00 | |
| SP9KGR-15 | 2026-08-30 11:58:02 | 49.01692 | 20.88680 | 99° | 44km/h | 15588m | 4.1m/s | -54.5°C | 1.7% | 117.5hPa | 2.7V | 00:00:00 | 00:00:00 | 00:00:00 | |
| SQ9EZE-13 | 2026-08-30 11:57:54 | 49.01703 | 20.88551 | 100° | 42km/h | 15556m | 4.7m/s | -54.7°C | 1.7% | 118.0hPa | 2.7V | 00:00:00 | 00:00:00 | 00:00:00 | |
| OE3JTB-15 | 2026-08-30 11:57:50 | 49.01713 | 20.88469 | 104° | 44km/h | 15535m | 4.2m/s | -55.9°C | 4.7% | 118.4hPa | 2.7V | 00:00:00 | 00:00:00 | 00:00:00 | |
| SP9KGR-15 | 2026-08-30 11:57:47 | 49.01718 | 20.88434 | 102° | 47km/h | 15526m | 4.1m/s | -56.0°C | 1.9% | 118.6hPa | 2.7V | 00:00:00 | 00:00:00 | 00:00:00 | |
| GYPAP8-17 | 2026-08-30 11:57:41 | 49.01732 | 20.88334 | 101° | 40km/h | 15501m | 3.8m/s | -56.1°C | 1.9% | 119.1hPa | 2.7V | 00:00:00 | 00:00:00 | 00:00:00 | |
| SQ9EZE-13 | 2026-08-30 11:57:38 | 49.01739 | 20.88290 | 104° | 37km/h | 15488m | 4.8m/s | -56.2°C | 1.9% | 119.3hPa | 2.7V | 00:00:00 | 00:00:00 | 00:00:00 | |
| SP9KGR-15 | 2026-08-30 11:57:31 | 49.01757 | 20.88179 | 105° | 51km/h | 15458m | 3.9m/s | -57.1°C | 2.1% | 119.9hPa | 2.7V | 00:00:00 | 00:00:00 | 00:00:00 | |
| SQ9EZE-13 | 2026-08-30 11:57:23 | 49.01792 | 20.88051 | 126° | 37km/h | 15424m | 5.3m/s | -57.2°C | 2.0% | 120.5hPa | 2.7V | 00:00:00 | 00:00:00 | 00:00:00 | |
| OE3JTB-15 | 2026-08-30 11:57:20 | 49.01815 | 20.88002 | 120° | 51km/h | 15407m | 4.3m/s | -57.1°C | 5.1% | 120.8hPa | 2.7V | 00:00:00 | 01:07:54 | 00:00:00 | |
| SP9KGR-15 | 2026-08-30 11:57:16 | 49.01832 | 20.87953 | 120° | 53km/h | 15393m | 4.6m/s | -57.0°C | 2.2% | 121.1hPa | 2.7V | 00:00:00 | 00:00:00 | 00:00:00 | |
| SQ9EZE-13 | 2026-08-30 11:57:07 | 49.01892 | 20.87806 | 128° | 44km/h | 15354m | 5.5m/s | -57.3°C | 2.1% | 121.9hPa | 2.7V | 00:00:00 | 00:00:00 | 00:00:00 | |
| SP9KGR-15 | 2026-08-30 11:57:01 | 49.01934 | 20.87713 | 120° | 55km/h | 15327m | 5.0m/s | -57.3°C | 2.2% | 122.4hPa | 2.7V | 00:00:00 | 00:00:00 | 00:00:00 | |
| SQ9EZE-13 | 2026-08-30 11:56:52 | 49.01996 | 20.87554 | 123° | 53km/h | 15285m | 4.2m/s | -57.0°C | 2.2% | 123.2hPa | 2.7V | 00:00:00 | 00:00:00 | 00:00:00 | |
| OE3JTB-15 | 2026-08-30 11:56:51 | 49.02009 | 20.87519 | 117° | 57km/h | 15277m | 5.4m/s | -56.9°C | 5.3% | 123.3hPa | 2.7V | 00:00:00 | 00:00:00 | 08:30:00 | |
| SP9KGR-15 | 2026-08-30 11:56:45 | 49.02036 | 20.87425 | 113° | 55km/h | 15252m | 5.5m/s | -56.9°C | 2.2% | 123.8hPa | 2.7V | 00:00:00 | 00:00:00 | 00:00:00 | |
| GYPAP8-17 | 2026-08-30 11:56:37 | 49.02084 | 20.87270 | 116° | 55km/h | 15214m | 4.9m/s | -56.7°C | 2.2% | 124.7hPa | 2.7V | 00:00:00 | 00:00:00 | 00:00:00 | |
| SQ9EZE-13 | 2026-08-30 11:56:36 | 49.02090 | 20.87251 | 114° | 55km/h | 15210m | 3.7m/s | -56.7°C | 2.2% | 124.7hPa | 2.7V | 00:00:00 | 00:00:00 | 00:00:00 | |
| SP9KGR-15 | 2026-08-30 11:56:30 | 49.02118 | 20.87133 | 116° | 58km/h | 15183m | 4.2m/s | -56.6°C | 2.3% | 125.2hPa | 2.7V | 00:00:00 | 00:00:00 | 00:00:00 | |
| OE3JTB-15 | 2026-08-30 11:56:22 | 49.02164 | 20.86945 | 107° | 58km/h | 15142m | 5.3m/s | -56.6°C | 5.4% | 126.0hPa | 2.7V | 00:00:00 | 00:00:00 | 00:00:00 | |
| SQ9EZE-13 | 2026-08-30 11:56:20 | 49.02169 | 20.86922 | 108° | 62km/h | 15138m | 3.7m/s | -56.7°C | 2.3% | 126.1hPa | 2.7V | 00:00:00 | 00:00:00 | 00:00:00 | |
| SP9KGR-15 | 2026-08-30 11:56:14 | 49.02196 | 20.86790 | 109° | 53km/h | 15109m | 5.6m/s | -56.6°C | 2.5% | 126.7hPa | 2.7V | 00:00:00 | 00:00:00 | 00:00:00 | |
| SQ9EZE-14 | 2026-08-30 11:56:06 | 49.02221 | 20.86631 | 104° | 64km/h | 15073m | 4.0m/s | -56.5°C | 2.5% | 127.4hPa | 2.7V | 00:00:00 | 00:00:00 | 00:00:00 | |
| SQ9EZE-13 | 2026-08-30 11:56:05 | 49.02224 | 20.86607 | 103° | 64km/h | 15069m | 5.3m/s | -56.5°C | 2.5% | 127.5hPa | 2.7V | 00:00:00 | 00:00:00 | 00:00:00 | |
| SP9KGR-15 | 2026-08-30 11:55:59 | 49.02242 | 20.86471 | 102° | 55km/h | 15042m | 5.0m/s | -56.4°C | 2.6% | 128.0hPa | 2.7V | 00:00:00 | 00:00:00 | 00:00:00 | |
| OE3JTB-15 | 2026-08-30 11:55:51 | 49.02257 | 20.86279 | 95° | 57km/h | 15000m | 5.0m/s | -56.2°C | 5.7% | 128.9hPa | 2.7V | 00:00:00 | 01:06:25 | 00:00:00 | |
| SQ9EZE-14 | 2026-08-30 11:55:50 | 49.02258 | 20.86279 | 95° | 57km/h | 15000m | 5.0m/s | -56.2°C | 2.7% | 128.9hPa | 2.7V | 00:00:00 | 00:00:00 | 00:00:00 | |
| SQ9EZE-13 | 2026-08-30 11:55:44 | 49.02265 | 20.86122 | 97° | 58km/h | 14968m | 4.0m/s | -56.2°C | 2.7% | 129.6hPa | 2.7V | 00:00:00 | 00:00:00 | 00:00:00 | |
| SP9KGR-15 | 2026-08-30 11:55:43 | 49.02265 | 20.86122 | 97° | 58km/h | 14968m | 4.0m/s | -56.2°C | 2.7% | 129.6hPa | 2.7V | 00:00:00 | 00:00:00 | 00:00:00 | |
| SP9KGR-15 | 2026-08-30 11:55:27 | 49.02274 | 20.85762 | 92° | 57km/h | 14896m | 3.7m/s | -56.5°C | 2.8% | 131.1hPa | 2.7V | 00:00:00 | 00:00:00 | 00:00:00 | |
| HA6NAB-11 | 2026-08-30 11:55:20 | 49.02268 | 20.85611 | 86° | 58km/h | 14865m | 4.7m/s | -56.6°C | 0% | 131.7hPa | 2.7V | 00:00:00 | 00:00:00 | 00:00:00 | |
| SQ9EZE-13 | 2026-08-30 11:55:13 | 49.02256 | 20.85441 | 86° | 64km/h | 14832m | 3.5m/s | -56.7°C | 2.7% | 132.3hPa | 2.7V | 00:00:00 | 00:00:00 | 00:00:00 | |
| SP9KGR-15 | 2026-08-30 11:55:11 | 49.02254 | 20.85393 | 87° | 58km/h | 14824m | 3.8m/s | -56.6°C | 2.7% | 132.5hPa | 2.7V | 00:00:00 | 00:00:00 | 00:00:00 | |
| SP9KGR-15 | 2026-08-30 11:54:56 | 49.02218 | 20.85048 | 78° | 62km/h | 14759m | 4.3m/s | -56.6°C | 2.6% | 133.9hPa | 2.7V | 00:00:00 | 00:00:00 | 00:00:00 | |
| SQ9EZE-15 | 2026-08-30 11:54:45 | 49.02177 | 20.84798 | 75° | 64km/h | 14710m | 3.8m/s | -56.3°C | 2.6% | 134.9hPa | 2.7V | 00:00:00 | 00:00:00 | 00:00:00 | |
| SQ9EZE-13 | 2026-08-30 11:54:41 | 49.02163 | 20.84707 | 79° | 58km/h | 14693m | 4.8m/s | -56.1°C | 2.6% | 135.3hPa | 2.7V | 00:00:00 | 00:00:00 | 00:00:00 | |
| SP9KGR-15 | 2026-08-30 11:54:40 | 49.02160 | 20.84685 | 78° | 58km/h | 14689m | 4.3m/s | -56.1°C | 2.6% | 135.4hPa | 2.7V | 00:00:00 | 00:00:00 | 00:00:00 | |
| OE3JTB-15 | 2026-08-30 11:54:32 | 49.02133 | 20.84498 | 79° | 55km/h | 14649m | 5.0m/s | -56.0°C | 5.5% | 136.2hPa | 2.7V | 00:00:00 | 00:00:00 | 00:00:00 | |
| SQ9EZE-13 | 2026-08-30 11:54:25 | 49.02118 | 20.84364 | 82° | 53km/h | 14625m | 4.4m/s | -56.1°C | 2.6% | 136.8hPa | 2.7V | 00:00:00 | 00:00:00 | 00:00:00 | |
| SP9KGR-15 | 2026-08-30 11:54:24 | 49.02116 | 20.84344 | 80° | 53km/h | 14621m | 4.4m/s | -56.2°C | 2.6% | 136.8hPa | 2.7V | 00:00:00 | 00:00:00 | 00:00:00 | |
| GYPAP8-17 | 2026-08-30 11:54:21 | 49.02108 | 20.84284 | 82° | 51km/h | 14608m | 4.6m/s | -56.3°C | 2.6% | 137.2hPa | 2.7V | 00:00:00 | 00:00:00 | 00:00:00 | |
| SQ9EZE-13 | 2026-08-30 11:54:10 | 49.02077 | 20.84059 | 73° | 49km/h | 14562m | 4.3m/s | -56.3°C | 2.7% | 138.2hPa | 2.7V | 00:00:00 | 00:00:00 | 00:00:00 | |
| SP9KGR-15 | 2026-08-30 11:54:09 | 49.02073 | 20.84041 | 71° | 49km/h | 14558m | 3.5m/s | -56.4°C | 2.7% | 138.3hPa | 2.7V | 00:00:00 | 00:00:00 | 00:00:00 | |
| OE3JTB-15 | 2026-08-30 11:54:03 | 49.02046 | 20.83908 | 78° | 51km/h | 14531m | 4.5m/s | -56.4°C | 5.9% | 138.8hPa | 2.7V | 00:00:00 | 00:00:00 | 00:00:00 | |
| SQ9EZE-13 | 2026-08-30 11:53:54 | 49.02010 | 20.83751 | 67° | 51km/h | 14498m | 4.2m/s | -56.3°C | 2.8% | 139.6hPa | 2.7V | 00:00:00 | 00:00:00 | 00:00:00 | |
| SP9KGR-15 | 2026-08-30 11:53:53 | 49.02005 | 20.83734 | 67° | 49km/h | 14494m | 5.0m/s | -56.2°C | 2.8% | 139.6hPa | 2.7V | 00:00:00 | 00:00:00 | 00:00:00 | |
| SQ9EZE-14 | 2026-08-30 11:53:46 | 49.01970 | 20.83611 | 70° | 51km/h | 14464m | 4.9m/s | -56.0°C | 2.8% | 140.3hPa | 2.7V | 00:00:00 | 00:00:00 | 00:00:00 | |
| SQ9EZE-13 | 2026-08-30 11:53:38 | 49.01935 | 20.83464 | 75° | 49km/h | 14430m | 3.7m/s | -55.7°C | 2.7% | 141.0hPa | 2.7V | 00:00:00 | 00:00:00 | 00:00:00 | |
| SP9KGR-15 | 2026-08-30 11:53:37 | 49.01931 | 20.83447 | 74° | 49km/h | 14426m | 5.0m/s | -55.7°C | 2.7% | 141.1hPa | 2.7V | 00:00:00 | 00:00:00 | 00:00:00 | |
| OE3JTB-15 | 2026-08-30 11:53:34 | 49.01916 | 20.83374 | 72° | 47km/h | 14409m | 3.3m/s | -55.5°C | 5.6% | 141.4hPa | 2.7V | 00:00:00 | 01:04:08 | 00:00:00 | |
| SQ9EZE-14 | 2026-08-30 11:53:30 | 49.01904 | 20.83320 | 73° | 49km/h | 14397m | 4.2m/s | -55.5°C | 2.7% | 141.8hPa | 2.7V | 00:00:00 | 00:00:00 | 00:00:00 | |
| SQ9EZE-13 | 2026-08-30 11:53:22 | 49.01880 | 20.83180 | 77° | 47km/h | 14364m | 4.5m/s | -55.3°C | 2.7% | 142.5hPa | 2.7V | 00:00:00 | 00:00:00 | 00:00:00 | |
| SP9KGR-15 | 2026-08-30 11:53:21 | 49.01878 | 20.83162 | 75° | 47km/h | 14360m | 4.4m/s | -55.3°C | 2.7% | 142.6hPa | 2.7V | 00:00:00 | 00:00:00 | 00:00:00 | |
| GYPAP8-17 | 2026-08-30 11:53:18 | 49.01868 | 20.83106 | 76° | 51km/h | 14348m | 3.8m/s | -55.3°C | 2.7% | 142.9hPa | 2.7V | 00:00:00 | 00:00:00 | 00:00:00 | |
| SP9KGR-15 | 2026-08-30 11:53:06 | 49.01846 | 20.82900 | 77° | 46km/h | 14299m | 4.9m/s | -55.2°C | 2.6% | 144.0hPa | 2.7V | 00:00:00 | 00:00:00 | 00:00:00 | |
| OE3JTB-15 | 2026-08-30 11:53:05 | 49.01840 | 20.82865 | 75° | 64km/h | 14291m | 3.9m/s | -55.1°C | 5.4% | 144.1hPa | 2.7V | 00:00:00 | 00:00:00 | 00:00:00 | |
| SQ9EZE-15 | 2026-08-30 11:53:01 | 49.01832 | 20.82812 | 82° | 46km/h | 14280m | 4.4m/s | -55.0°C | 2.6% | 144.4hPa | 2.7V | 00:00:00 | 00:00:00 | 00:00:00 | |
| HA6NAB-11 | 2026-08-30 11:52:59 | 49.01831 | 20.82779 | 88° | 42km/h | 14272m | 3.4m/s | -54.9°C | 0% | 0hPa | 2.7V | 00:00:00 | 00:00:00 | 00:00:00 | |
| SP9KGR-15 | 2026-08-30 11:52:51 | 49.01829 | 20.82646 | 86° | 46km/h | 14239m | 4.5m/s | -54.9°C | 2.5% | 145.3hPa | 2.7V | 00:00:00 | 00:00:00 | 00:00:00 | |
| SP9KGR-15 | 2026-08-30 11:52:36 | 49.01840 | 20.82390 | 99° | 46km/h | 14175m | 4.1m/s | -54.9°C | 2.6% | 146.8hPa | 2.7V | 00:00:00 | 00:00:00 | 00:00:00 | |
| HA6NAB-11 | 2026-08-30 11:52:26 | 49.01853 | 20.82184 | 88° | 46km/h | 14126m | 3.5m/s | -54.6°C | 0% | 0hPa | 2.7V | 00:00:00 | 00:00:00 | 00:00:00 | |
| SP9KGR-15 | 2026-08-30 11:52:20 | 49.01849 | 20.82091 | 91° | 49km/h | 14106m | 4.0m/s | -54.6°C | 2.6% | 148.4hPa | 2.7V | 00:00:00 | 00:00:00 | 00:00:00 | |
| HA6NAB-11 | 2026-08-30 11:52:19 | 49.01849 | 20.82072 | 91° | 49km/h | 14103m | 3.5m/s | !°C | 0% | 0hPa | 2.7V | 00:00:00 | 00:00:00 | 00:00:00 | |
| OM5KV | 2026-08-30 11:52:18 | 49.01848 | 20.82034 | 90° | 51km/h | 14094m | 3.9m/s | -54.7°C | 2.7% | 148.6hPa | 2.7V | 00:00:00 | 00:00:00 | 00:00:00 | |
| GYPAP8-17 | 2026-08-30 11:52:15 | 49.01848 | 20.81996 | 89° | 47km/h | 14087m | 4.5m/s | -54.8°C | 2.7% | 148.8hPa | 2.7V | 00:00:00 | 00:00:00 | 00:00:00 | |
| HA6NAB-11 | 2026-08-30 11:52:13 | 49.01846 | 20.81960 | 86° | 47km/h | 14079m | 3.9m/s | -54.9°C | 0% | 0hPa | 2.7V | 00:00:00 | 00:00:00 | 00:00:00 | |
| OM5KV | 2026-08-30 11:52:11 | 49.01843 | 20.81923 | 84° | 51km/h | 14071m | 3.7m/s | -54.9°C | 2.7% | 149.2hPa | 2.7V | 00:00:00 | 00:00:00 | 00:00:00 | |
| SP9KGR-15 | 2026-08-30 11:52:06 | 49.01839 | 20.81803 | 88° | 51km/h | 14046m | 4.5m/s | -54.8°C | 2.7% | 149.8hPa | 2.7V | 00:00:00 | 00:00:00 | 00:00:00 | |
| OM5KV | 2026-08-30 11:51:54 | 49.01808 | 20.81603 | 79° | 47km/h | 14001m | 4.7m/s | -54.7°C | 2.8% | 150.9hPa | 2.7V | 00:00:00 | 00:00:00 | 00:00:00 | |
| SP9KGR-15 | 2026-08-30 11:51:50 | 49.01802 | 20.81531 | 84° | 49km/h | 13985m | 3.3m/s | -54.5°C | 2.9% | 151.3hPa | 2.7V | 00:00:00 | 00:00:00 | 00:00:00 | |
| SQ9EZE-15 | 2026-08-30 11:51:48 | 49.01799 | 20.81492 | 87° | 51km/h | 13977m | 4.9m/s | -54.5°C | 2.9% | 151.4hPa | 2.7V | 00:00:00 | 00:00:00 | 00:00:00 | |
| OM5KV | 2026-08-30 11:51:41 | 49.01780 | 20.81365 | 78° | 42km/h | 13946m | 5.2m/s | -54.3°C | 2.8% | 152.2hPa | 2.7V | 00:00:00 | 00:00:00 | 00:00:00 | |
| OM5KV | 2026-08-30 11:51:34 | 49.01776 | 20.81260 | 89° | 42km/h | 13913m | 7.3m/s | -54.3°C | 3.1% | 153.0hPa | 2.7V | 00:00:00 | 00:00:00 | 00:00:00 | |
| SQ9EZE-13 | 2026-08-30 11:51:32 | 49.01774 | 20.81224 | 84° | 49km/h | 13904m | 5.4m/s | -54.2°C | 3.1% | 153.1hPa | 2.7V | 00:00:00 | 00:00:00 | 00:00:00 | |
| SQ9EZE-14 | 2026-08-30 11:51:26 | 49.01761 | 20.81125 | 77° | 38km/h | 13871m | 8.4m/s | -54.4°C | 2.9% | 153.9hPa | 2.7V | 00:00:00 | 00:00:00 | 00:00:00 | |
| SP9KGR-15 | 2026-08-30 11:51:19 | 49.01760 | 20.81006 | 93° | 47km/h | 13835m | 8.4m/s | -54.5°C | 3.0% | 154.8hPa | 2.7V | 00:00:00 | 00:00:00 | 00:00:00 | |
| SQ9EZE-13 | 2026-08-30 11:51:17 | 49.01762 | 20.80971 | 97° | 46km/h | 13823m | 6.2m/s | -54.5°C | 3.0% | 155.1hPa | 2.7V | 00:00:00 | 00:00:00 | 00:00:00 | |
| GYPAP8-17 | 2026-08-30 11:51:13 | 49.01769 | 20.80898 | 102° | 51km/h | 13801m | 6.8m/s | -54.4°C | 3.0% | 155.6hPa | 2.7V | 00:00:00 | 00:00:00 | 00:00:00 | |
| OM5KV | 2026-08-30 11:51:12 | 49.01772 | 20.80878 | 104° | 55km/h | 13796m | 2.1m/s | -54.4°C | 3.0% | 155.8hPa | 2.7V | 00:00:00 | 00:00:00 | 00:00:00 | |
| SQ9EZE-14 | 2026-08-30 11:51:10 | 49.01777 | 20.80837 | 102° | 55km/h | 13785m | 9.0m/s | -54.4°C | 3.0% | 156.0hPa | 2.7V | 00:00:00 | 00:00:00 | 00:00:00 | |
| OM5KV | 2026-08-30 11:51:08 | 49.01782 | 20.80796 | 99° | 55km/h | 13774m | 6.6m/s | -54.3°C | 3.0% | 156.3hPa | 2.7V | 00:00:00 | 00:00:00 | 00:00:00 | |
| OM5KV | 2026-08-30 11:51:06 | 49.01785 | 20.80756 | 98° | 51km/h | 13766m | 5.1m/s | -54.2°C | 2.9% | 156.5hPa | 2.7V | 00:00:00 | 00:00:00 | 00:00:00 | |
| SP9KGR-15 | 2026-08-30 11:51:04 | 49.01788 | 20.80715 | 94° | 53km/h | 13753m | 4.0m/s | -54.2°C | 2.8% | 156.8hPa | 2.7V | 00:00:00 | 00:00:00 | 00:00:00 | |
| SQ9EZE-13 | 2026-08-30 11:51:01 | 49.01792 | 20.80655 | 100° | 53km/h | 13739m | 5.3m/s | -54.2°C | 2.8% | 157.2hPa | 2.7V | 00:00:00 | 00:00:00 | 00:00:00 | |
| OM5KV | 2026-08-30 11:51:00 | 49.01794 | 20.80635 | 99° | 55km/h | 13733m | 5.5m/s | -54.1°C | 2.7% | 157.4hPa | 2.7V | 00:00:00 | 00:00:00 | 00:00:00 | |
| OM5KV | 2026-08-30 11:50:54 | 49.01812 | 20.80484 | 100° | 58km/h | 13693m | 5.1m/s | -53.9°C | 2.7% | 158.2hPa | 2.7V | 00:00:00 | 00:00:00 | 00:00:00 | |
| OM5KV | 2026-08-30 11:50:49 | 49.01818 | 20.80397 | 97° | 55km/h | 13668m | 4.2m/s | -54.0°C | 2.7% | 158.8hPa | 2.7V | 00:00:00 | 00:00:00 | 00:00:00 | |
| OM5KV | 2026-08-30 11:50:48 | 49.01820 | 20.80377 | 96° | 55km/h | 13663m | 6.8m/s | -54.1°C | 2.7% | 158.9hPa | 2.7V | 00:00:00 | 00:00:00 | 00:00:00 | |
| SQ9EZE-15 | 2026-08-30 11:50:45 | 49.01822 | 20.80317 | 95° | 51km/h | 13647m | 5.2m/s | -53.9°C | 2.7% | 159.4hPa | 2.7V | 00:00:00 | 00:00:00 | 00:00:00 | |
| OM5KV | 2026-08-30 11:50:43 | 49.01824 | 20.80278 | 95° | 49km/h | 13636m | 7.2m/s | -53.9°C | 2.7% | 159.6hPa | 2.7V | 00:00:00 | 00:00:00 | 00:00:00 | |
| OM5KV | 2026-08-30 11:50:37 | 49.01832 | 20.80159 | 97° | 57km/h | 13600m | 4.6m/s | -53.7°C | 2.6% | 160.5hPa | 2.7V | 00:00:00 | 00:00:00 | 00:00:00 | |
| SP9KGR-15 | 2026-08-30 11:50:33 | 49.01841 | 20.80075 | 100° | 57km/h | 13576m | 9.3m/s | -53.6°C | 2.7% | 161.0hPa | 2.7V | 00:00:00 | 00:00:00 | 00:00:00 | |
| OM5KV | 2026-08-30 11:50:32 | 49.01843 | 20.80054 | 102° | 57km/h | 13569m | 4.5m/s | -53.6°C | 2.7% | 161.2hPa | 2.7V | 00:00:00 | 00:00:00 | 00:00:00 | |
| SQ9EZE-13 | 2026-08-30 11:50:28 | 49.01856 | 20.79970 | 106° | 58km/h | 13544m | 4.3m/s | -53.4°C | 2.7% | 161.8hPa | 2.7V | 00:00:00 | 00:00:00 | 00:00:00 | |
| OM5KV | 2026-08-30 11:50:26 | 49.01863 | 20.79926 | 100° | 60km/h | 13533m | 3.8m/s | -53.5°C | 2.7% | 162.0hPa | 2.7V | 00:00:00 | 00:00:00 | 00:00:00 | |
| SQ9EZE-15 | 2026-08-30 11:50:24 | 49.01867 | 20.79880 | 99° | 58km/h | 13522m | 4.8m/s | -53.5°C | 2.7% | 162.4hPa | 2.7V | 00:00:00 | 00:00:00 | 00:00:00 | |
| OM5KV | 2026-08-30 11:50:21 | 49.01875 | 20.79813 | 105° | 58km/h | 13506m | 5.7m/s | -53.5°C | 2.6% | 162.8hPa | 2.7V | 00:00:00 | 00:00:00 | 00:00:00 | |
| OM5KV | 2026-08-30 11:50:20 | 49.01878 | 20.79792 | 107° | 57km/h | 13500m | 5.1m/s | -53.5°C | 2.7% | 163.0hPa | 2.7V | 00:00:00 | 00:00:00 | 00:00:00 | |
| SP9KGR-15 | 2026-08-30 11:50:18 | 49.01888 | 20.79750 | 111° | 60km/h | 13489m | 3.6m/s | -53.5°C | 2.7% | 163.3hPa | 2.7V | 00:00:00 | 00:00:00 | 00:00:00 | |
| OM5KV | 2026-08-30 11:50:15 | 49.01901 | 20.79681 | 106° | 64km/h | 13476m | 5.6m/s | -53.6°C | 2.7% | 163.6hPa | 2.7V | 00:00:00 | 00:00:00 | 00:00:00 | |
| OM5KV | 2026-08-30 11:50:14 | 49.01906 | 20.79657 | 107° | 66km/h | 13470m | 6.4m/s | -53.6°C | 2.6% | 163.8hPa | 2.7V | 00:00:00 | 00:00:00 | 00:00:00 | |
| SQ9EZE-13 | 2026-08-30 11:50:12 | 49.01916 | 20.79609 | 110° | 66km/h | 13458m | 5.2m/s | -53.5°C | 2.7% | 164.1hPa | 2.7V | 00:00:00 | 00:00:00 | 00:00:00 | |
| OM5KV | 2026-08-30 11:50:10 | 49.01925 | 20.79560 | 108° | 68km/h | 13446m | 4.0m/s | -53.4°C | 2.8% | 164.5hPa | 2.7V | 00:00:00 | 00:00:00 | 00:00:00 | |
| OM5KV | 2026-08-30 11:50:08 | 49.01936 | 20.79510 | 109° | 69km/h | 13436m | 3.9m/s | -53.4°C | 2.8% | 164.7hPa | 2.7V | 00:00:00 | 00:00:00 | 00:00:00 | |
| OM5KV | 2026-08-30 11:50:04 | 49.01956 | 20.79408 | 105° | 69km/h | 13415m | 4.6m/s | -53.3°C | 2.8% | 165.3hPa | 2.7V | 00:00:00 | 00:00:00 | 00:00:00 | |
| SP9KGR-15 | 2026-08-30 11:50:02 | 49.01964 | 20.79356 | 103° | 69km/h | 13404m | 8.9m/s | -53.2°C | 2.7% | 165.5hPa | 2.7V | 00:00:00 | 00:00:00 | 00:00:00 | |
| OM5KV | 2026-08-30 11:49:58 | 49.01979 | 20.79252 | 106° | 69km/h | 13382m | 6.2m/s | -53.3°C | 2.7% | 166.0hPa | 2.7V | 00:00:00 | 00:00:00 | 00:00:00 | |
| OM5KV | 2026-08-30 11:49:57 | 49.01984 | 20.79226 | 105° | 69km/h | 13374m | 8.9m/s | -53.3°C | 2.8% | 166.2hPa | 2.7V | 00:00:00 | 00:00:00 | 00:00:00 | |
| OM5KV | 2026-08-30 11:49:51 | 49.02010 | 20.79080 | 104° | 64km/h | 13342m | 5.1m/s | -53.1°C | 2.9% | 167.1hPa | 2.7V | 00:00:00 | 00:00:00 | 00:00:00 | |
| HA6NAB-11 | 2026-08-30 11:49:48 | 49.02022 | 20.78985 | 100° | 68km/h | 13319m | 4.8m/s | -52.9°C | 0% | 0hPa | 2.7V | 00:00:00 | 00:00:00 | 00:00:00 | |
| OM5KV | 2026-08-30 11:49:46 | 49.02025 | 20.78959 | 100° | 69km/h | 13314m | 5.2m/s | -52.9°C | 2.8% | 167.8hPa | 2.7V | 00:00:00 | 00:00:00 | 00:00:00 | |
| OM5KV | 2026-08-30 11:49:45 | 49.02027 | 20.78933 | 100° | 69km/h | 13309m | 4.4m/s | -52.9°C | 2.8% | 167.9hPa | 2.7V | 00:00:00 | 00:00:00 | 00:00:00 | |
| HA6NAB-11 | 2026-08-30 11:49:41 | 49.02042 | 20.78823 | 102° | 73km/h | 13283m | 8.9m/s | -52.8°C | 0% | 0hPa | 2.7V | 00:00:00 | 00:00:00 | 00:00:00 | |
| OM5KV | 2026-08-30 11:49:40 | 49.02045 | 20.78796 | 101° | 69km/h | 13277m | 4.3m/s | -52.7°C | 2.8% | 168.7hPa | 2.7V | 00:00:00 | 00:00:00 | 00:00:00 | |
| OM5KV | 2026-08-30 11:49:35 | 49.02058 | 20.78669 | 99° | 66km/h | 13248m | 6.4m/s | -52.6°C | 0% | 0hPa | 2.7V | 00:00:00 | 00:00:00 | 00:00:00 | |
| OM5KV | 2026-08-30 11:49:34 | 49.02061 | 20.78644 | 101° | 68km/h | 13243m | 3.9m/s | -52.6°C | 2.9% | 169.6hPa | 2.7V | 00:00:00 | 00:00:00 | 00:00:00 | |
| OE3JTB-15 | 2026-08-30 11:49:33 | 49.02067 | 20.78593 | 101° | 71km/h | 13235m | 2.3m/s | -52.6°C | 5.4% | 169.8hPa | 2.7V | 00:00:00 | 00:00:00 | 00:00:00 | |
| OM5KV | 2026-08-30 11:49:30 | 49.02079 | 20.78514 | 107° | 69km/h | 13217m | 4.4m/s | -52.5°C | 0% | 0hPa | 2.7V | 00:00:00 | 00:00:00 | 00:00:00 | |
| OM5KV | 2026-08-30 11:49:28 | 49.02084 | 20.78489 | 107° | 69km/h | 13211m | 7.1m/s | -52.5°C | 3.0% | 170.5hPa | 2.7V | 00:00:00 | 00:00:00 | 00:00:00 | |
| OM5KV | 2026-08-30 11:49:23 | 49.02108 | 20.78362 | 106° | 68km/h | 13185m | 5.1m/s | -52.6°C | 0% | 0hPa | 2.7V | 00:00:00 | 00:00:00 | 00:00:00 | |
| SQ9EZE-15 | 2026-08-30 11:49:20 | 49.02120 | 20.78286 | 100° | 71km/h | 13168m | 4.0m/s | -52.5°C | 3.1% | 171.6hPa | 2.7V | 00:00:00 | 00:00:00 | 00:00:00 | |
| OM5KV | 2026-08-30 11:49:19 | 49.02126 | 20.78233 | 103° | 71km/h | 13159m | 2.9m/s | -52.6°C | 3.1% | 171.9hPa | 2.7V | 00:00:00 | 00:00:00 | 00:00:00 | |
| OM5KV | 2026-08-30 11:49:16 | 49.02134 | 20.78179 | 105° | 71km/h | 13148m | 8.3m/s | -52.5°C | 0% | 0hPa | 2.7V | 00:00:00 | 00:00:00 | 00:00:00 | |
| SP9KGR-15 | 2026-08-30 11:49:14 | 49.02143 | 20.78126 | 107° | 71km/h | 13137m | 6.2m/s | -52.5°C | 3.2% | 172.4hPa | 2.7V | 00:00:00 | 00:00:00 | 00:00:00 | |
| OM5KV | 2026-08-30 11:49:12 | 49.02154 | 20.78073 | 108° | 71km/h | 13128m | 5.9m/s | -52.5°C | 3.3% | 172.7hPa | 2.7V | 00:00:00 | 00:00:00 | 00:00:00 | |
| OM5KV | 2026-08-30 11:49:10 | 49.02164 | 20.78020 | 105° | 71km/h | 13119m | 5.0m/s | -52.7°C | 0% | 0hPa | 2.7V | 00:00:00 | 00:00:00 | 00:00:00 | |
| OM5KV | 2026-08-30 11:49:06 | 49.02178 | 20.77912 | 99° | 69km/h | 13098m | 4.2m/s | -52.7°C | 3.7% | 173.5hPa | 2.7V | 00:00:00 | 00:00:00 | 00:00:00 | |
| SQ9EZE-14 | 2026-08-30 11:49:05 | 49.02180 | 20.77885 | 99° | 71km/h | 13092m | 7.0m/s | -52.9°C | 3.7% | 173.7hPa | 2.7V | 00:00:00 | 00:00:00 | 00:00:00 | |
| OM5KV | 2026-08-30 11:49:04 | 49.02183 | 20.77858 | 98° | 71km/h | 13087m | 3.7m/s | -52.9°C | 0% | 0hPa | 2.7V | 00:00:00 | 00:00:00 | 00:00:00 | |
| SQ9EZE-13 | 2026-08-30 11:49:03 | 49.02185 | 20.77830 | 96° | 71km/h | 13082m | 6.3m/s | -52.9°C | 3.8% | 173.9hPa | 2.7V | 00:00:00 | 00:00:00 | 00:00:00 | |
| SQ9EZE-15 | 2026-08-30 11:49:00 | 49.02189 | 20.77749 | 96° | 73km/h | 13068m | 3.7m/s | -52.9°C | 3.7% | 174.4hPa | 2.7V | 00:00:00 | 00:00:00 | 00:00:00 | |
| SP9KGR-15 | 2026-08-30 11:48:58 | 49.02192 | 20.77691 | 96° | 77km/h | 13058m | 7.7m/s | -53.0°C | 3.7% | 174.6hPa | 2.7V | 00:00:00 | 00:00:00 | 00:00:00 | |
| OM5KV | 2026-08-30 11:48:54 | 49.02200 | 20.77572 | 99° | 78km/h | 13040m | 5.7m/s | 0°C | 0% | 175.1hPa | 2.7V | 00:00:00 | 00:00:00 | 00:00:00 | |
| SQ9EZE-14 | 2026-08-30 11:48:50 | 49.02210 | 20.77462 | 102° | 68km/h | 13016m | 4.0m/s | -52.6°C | 3.9% | 175.7hPa | 2.7V | 00:00:00 | 00:00:00 | 00:00:00 | |
| OM5KV | 2026-08-30 11:48:48 | 49.02216 | 20.77411 | 101° | 68km/h | 13004m | 3.3m/s | 0°C | 0% | 176.1hPa | 2.7V | 00:00:00 | 00:00:00 | 00:00:00 | |
| SQ9EZE-13 | 2026-08-30 11:48:47 | 49.02219 | 20.77385 | 102° | 69km/h | 12999m | 6.3m/s | -52.5°C | 3.8% | 176.2hPa | 2.7V | 00:00:00 | 00:00:00 | 00:00:00 | |
| OM5KV | 2026-08-30 11:48:36 | 49.02257 | 20.77090 | 104° | 71km/h | 12944m | 7.4m/s | 0°C | 0% | 0hPa | 2.7V | 00:00:00 | 00:00:00 | 00:00:00 | |
| HA6NAB-11 | 2026-08-30 11:48:34 | 49.02266 | 20.77035 | 105° | 75km/h | 12935m | 5.5m/s | -53.0°C | 0% | 0hPa | 2.7V | 00:00:00 | 00:00:00 | 00:00:00 | |
| OM5KV | 2026-08-30 11:48:30 | 49.02283 | 20.76917 | 104° | 78km/h | 12916m | 3.5m/s | 0°C | 0% | 0hPa | 2.7V | 00:00:00 | 00:00:00 | 00:00:00 | |
| HA6NAB-11 | 2026-08-30 11:48:29 | 49.02287 | 20.76887 | 102° | 80km/h | 12911m | 6.3m/s | -53.0°C | 0% | 0hPa | 2.7V | 00:00:00 | 00:00:00 | 00:00:00 | |
| OM5KV | 2026-08-30 11:48:25 | 49.02300 | 20.76766 | 100° | 77km/h | 12891m | 3.8m/s | 0°C | 0% | 0hPa | 2.7V | 00:00:00 | 00:00:00 | 00:00:00 | |
| HA6NAB-11 | 2026-08-30 11:48:23 | 49.02307 | 20.76707 | 102° | 80km/h | 12880m | 3.0m/s | -53.1°C | 0% | 0hPa | 2.7V | 00:00:00 | 00:00:00 | 00:00:00 | |
| OM5KV | 2026-08-30 11:48:20 | 49.02319 | 20.76617 | 103° | 78km/h | 12867m | 4.2m/s | 0°C | 0% | 0hPa | 2.7V | 00:00:00 | 00:00:00 | 00:00:00 | |
| HA6NAB-11 | 2026-08-30 11:48:18 | 49.02328 | 20.76556 | 103° | 84km/h | 12856m | 4.2m/s | -53.3°C | 0% | 0hPa | 2.7V | 00:00:00 | 00:00:00 | 00:00:00 | |
| OM5KV | 2026-08-30 11:48:16 | 49.02341 | 20.76462 | 102° | 84km/h | 12843m | 4.6m/s | 0°C | 0% | 0hPa | 2.7V | 00:00:00 | 00:00:00 | 00:00:00 | |
| GYPAP8-17 | 2026-08-30 11:48:15 | 49.02345 | 20.76430 | 102° | 86km/h | 12839m | 2.3m/s | -53.3°C | 4.6% | 180.7hPa | 2.7V | 00:00:00 | 00:00:00 | 00:00:00 | |
| HA6NAB-11 | 2026-08-30 11:48:12 | 49.02353 | 20.76365 | 102° | 86km/h | 12829m | 8.8m/s | -53.4°C | 0% | 0hPa | 2.7V | 00:00:00 | 00:00:00 | 00:00:00 | |
| HA6NAB-11 | 2026-08-30 11:48:04 | 49.02387 | 20.76100 | 104° | 89km/h | 12793m | 4.8m/s | -53.5°C | 0% | 0hPa | 2.7V | 00:00:00 | 00:00:00 | 00:00:00 | |
| SP9KGR-15 | 2026-08-30 11:47:58 | 49.02417 | 20.75897 | 102° | 88km/h | 12761m | 2.9m/s | -53.4°C | 4.8% | 182.8hPa | 2.7V | 00:00:00 | 00:00:00 | 00:00:00 | |
| SQ9EZE-15 | 2026-08-30 11:47:56 | 49.02425 | 20.75830 | 99° | 91km/h | 12753m | 1.3m/s | -53.4°C | 4.8% | 183.1hPa | 2.7V | 00:00:00 | 00:00:00 | 00:00:00 | |
| HA6NAB-11 | 2026-08-30 11:47:55 | 49.02428 | 20.75796 | 98° | 91km/h | 12750m | 4.5m/s | -53.5°C | 0% | 0hPa | 2.7V | 00:00:00 | 00:00:00 | 00:00:00 | |
| SQ9EZE-13 | 2026-08-30 11:47:49 | 49.02446 | 20.75590 | 99° | 91km/h | 12722m | 8.3m/s | -53.4°C | 5.1% | 183.9hPa | 2.7V | 00:00:00 | 00:00:00 | 00:00:00 | |
| OE3JTB-15 | 2026-08-30 11:47:44 | 49.02466 | 20.75377 | 99° | 91km/h | 12695m | 5.1m/s | -53.2°C | 8.1% | 184.8hPa | 2.7V | 00:00:00 | 00:58:18 | 00:00:00 | |
| SP9KGR-15 | 2026-08-30 11:47:43 | 49.02469 | 20.75341 | 98° | 93km/h | 12692m | 1.5m/s | -53.3°C | 5.3% | 185.0hPa | 2.7V | 00:00:00 | 00:00:00 | 00:00:00 | |
| SQ9EZE-15 | 2026-08-30 11:47:36 | 49.02484 | 20.75130 | 96° | 91km/h | 12662m | 6.0m/s | -53.4°C | 5.3% | 185.8hPa | 2.7V | 00:00:00 | 00:00:00 | 00:00:00 | |
| SQ9EZE-13 | 2026-08-30 11:47:30 | 49.02498 | 20.74923 | 97° | 86km/h | 12627m | 3.4m/s | -53.3°C | 5.5% | 186.7hPa | 2.7V | 00:00:00 | 00:00:00 | 00:00:00 | |
| SP9KGR-15 | 2026-08-30 11:47:25 | 49.02509 | 20.74761 | 95° | 82km/h | 12603m | 4.1m/s | -53.3°C | 5.8% | 187.4hPa | 2.7V | 00:00:00 | 00:00:00 | 00:00:00 | |
| HA6NAB-11 | 2026-08-30 11:47:16 | 49.02529 | 20.74483 | 98° | 78km/h | 12557m | 3.8m/s | -53.6°C | 0% | 0hPa | 2.7V | 00:00:00 | 00:00:00 | 00:00:00 | |
| SP9KGR-15 | 2026-08-30 11:47:09 | 49.02547 | 20.74274 | 98° | 77km/h | 12521m | 4.3m/s | -53.6°C | 6.5% | 189.7hPa | 2.7V | 00:00:00 | 00:00:00 | 00:00:00 | |
| SQ9EZE-13 | 2026-08-30 11:47:08 | 49.02549 | 20.74244 | 96° | 77km/h | 12516m | 7.0m/s | -53.7°C | 6.5% | 189.9hPa | 2.7V | 00:00:00 | 00:00:00 | 00:00:00 | |
| GYPAP8-17 | 2026-08-30 11:46:59 | 49.02567 | 20.73989 | 99° | 73km/h | 12473m | 5.7m/s | -53.6°C | 7.1% | 191.1hPa | 2.7V | 00:00:00 | 00:00:00 | 00:00:00 | |
| SP9KGR-15 | 2026-08-30 11:46:54 | 49.02579 | 20.73843 | 97° | 78km/h | 12445m | 7.8m/s | -53.8°C | 7.5% | 191.9hPa | 2.7V | 00:00:00 | 00:00:00 | 00:00:00 | |
| SQ9EZE-13 | 2026-08-30 11:46:47 | 49.02594 | 20.73635 | 101° | 77km/h | 12412m | 1.9m/s | -53.7°C | 8.1% | 193.0hPa | 2.7V | 00:00:00 | 00:00:00 | 00:00:00 | |
| SQ9EZE-14 | 2026-08-30 11:46:46 | 49.02598 | 20.73606 | 102° | 77km/h | 12408m | 6.0m/s | -53.8°C | 8.0% | 193.1hPa | 2.7V | 00:00:00 | 00:00:00 | 00:00:00 | |
| SP9KGR-15 | 2026-08-30 11:46:40 | 49.02623 | 20.73407 | 101° | 75km/h | 12370m | 5.8m/s | -54.0°C | 8.6% | 194.3hPa | 2.7V | 00:00:00 | 00:00:00 | 00:00:00 | |
| SQ9EZE-13 | 2026-08-30 11:46:32 | 49.02647 | 20.73206 | 100° | 78km/h | 12333m | 6.6m/s | -54.2°C | 9.1% | 195.3hPa | 2.7V | 00:00:00 | 00:00:00 | 00:00:00 | |
| SQ9EZE-14 | 2026-08-30 11:46:30 | 49.02653 | 20.73145 | 101° | 80km/h | 12323m | 5.8m/s | -54.2°C | 9.1% | 195.7hPa | 2.7V | 00:00:00 | 00:00:00 | 00:00:00 | |
| SP9KGR-15 | 2026-08-30 11:46:23 | 49.02683 | 20.72932 | 104° | 82km/h | 12287m | 5.9m/s | -54.4°C | 10.2% | 196.8hPa | 2.7V | 00:00:00 | 00:00:00 | 00:00:00 | |
| SQ9EZE-15 | 2026-08-30 11:46:20 | 49.02695 | 20.72840 | 102° | 80km/h | 12270m | 7.0m/s | -54.4°C | 10.5% | 197.3hPa | 2.7V | 00:00:00 | 00:00:00 | 00:00:00 | |
| SQ9EZE-13 | 2026-08-30 11:46:16 | 49.02707 | 20.72710 | 98° | 88km/h | 12248m | 6.0m/s | -54.4°C | 10.6% | 198.1hPa | 2.7V | 00:00:00 | 00:00:00 | 00:00:00 | |
| OE3JTB-15 | 2026-08-30 11:46:13 | 49.02721 | 20.72577 | 100° | 73km/h | 12228m | 4.7m/s | -54.3°C | 14.3% | 198.6hPa | 2.7V | 00:00:00 | 00:00:00 | 08:30:00 | |
| SP9KGR-15 | 2026-08-30 11:46:09 | 49.02734 | 20.72449 | 97° | 84km/h | 12207m | 2.4m/s | -54.3°C | 10.7% | 199.4hPa | 2.7V | 00:00:00 | 00:00:00 | 00:00:00 | |
| SQ9EZE-13 | 2026-08-30 11:46:00 | 49.02752 | 20.72203 | 101° | 77km/h | 12165m | 3.5m/s | -54.1°C | 11.4% | 200.6hPa | 2.7V | 00:00:00 | 00:00:00 | 00:00:00 | |
| GYPAP8-17 | 2026-08-30 11:45:55 | 49.02769 | 20.72055 | 100° | 75km/h | 12134m | 3.7m/s | -54.1°C | 11.9% | 201.6hPa | 2.7V | 00:00:00 | 00:00:00 | 00:00:00 | |
| SP9KGR-15 | 2026-08-30 11:45:52 | 49.02776 | 20.71969 | 97° | 75km/h | 12120m | 4.8m/s | -54.0°C | 11.8% | 202.0hPa | 2.7V | 00:00:00 | 00:00:00 | 00:00:00 | |
| SQ9EZE-13 | 2026-08-30 11:45:44 | 49.02796 | 20.71747 | 95° | 71km/h | 12076m | 7.4m/s | -54.2°C | 11.7% | 203.5hPa | 2.7V | 00:00:00 | 00:00:00 | 00:00:00 | |
| OE3JTB-15 | 2026-08-30 11:45:37 | 49.02812 | 20.71527 | 100° | 66km/h | 12025m | 3.5m/s | -53.9°C | 14.8% | 205.0hPa | 2.7V | 00:00:00 | 00:00:00 | 00:00:00 | |
| SQ9EZE-13 | 2026-08-30 11:45:28 | 49.02823 | 20.71345 | 97° | 68km/h | 11991m | 4.3m/s | -53.9°C | 11.0% | 206.1hPa | 2.7V | 00:00:00 | 00:00:00 | 00:00:00 | |
| HA6NAB-11 | 2026-08-30 11:45:23 | 49.02833 | 20.71217 | 96° | 69km/h | 11960m | 8.6m/s | -53.8°C | 0% | 0hPa | 2.7V | 00:00:00 | 00:00:00 | 00:00:00 | |
| SP9KGR-15 | 2026-08-30 11:45:21 | 49.02835 | 20.71165 | 93° | 66km/h | 11949m | 6.1m/s | -53.7°C | 11.1% | 207.4hPa | 2.7V | 00:00:00 | 00:00:00 | 00:00:00 | |
| HA6NAB-11 | 2026-08-30 11:45:17 | 49.02839 | 20.71065 | 98° | 66km/h | 11928m | 6.0m/s | -53.7°C | 0% | 0hPa | 2.7V | 00:00:00 | 00:00:00 | 00:00:00 | |
| SQ9EZE-13 | 2026-08-30 11:45:13 | 49.02850 | 20.70965 | 102° | 68km/h | 11908m | 4.8m/s | -53.7°C | 11.1% | 208.8hPa | 2.7V | 00:00:00 | 00:00:00 | 00:00:00 | |
| OE3JTB-15 | 2026-08-30 11:45:07 | 49.02870 | 20.70794 | 98° | 64km/h | 11872m | 5.8m/s | -53.6°C | 14.5% | 209.9hPa | 2.7V | 00:00:00 | 00:55:41 | 00:00:00 | |
| SP9KGR-15 | 2026-08-30 11:45:06 | 49.02872 | 20.70770 | 100° | 62km/h | 11867m | 3.2m/s | -53.6°C | 11.2% | 210.1hPa | 2.7V | 00:00:00 | 00:00:00 | 00:00:00 | |
| SQ9EZE-13 | 2026-08-30 11:44:57 | 49.02892 | 20.70584 | 100° | 62km/h | 11832m | 5.3m/s | -53.5°C | 11.8% | 211.4hPa | 2.7V | 00:00:00 | 00:00:00 | 00:00:00 | |
| SP9KGR-15 | 2026-08-30 11:44:49 | 49.02918 | 20.70392 | 106° | 64km/h | 11785m | 7.4m/s | -53.3°C | 12.6% | 212.8hPa | 2.7V | 00:00:00 | 00:00:00 | 00:00:00 | |
| OE3JTB-15 | 2026-08-30 11:44:38 | 49.02962 | 20.70097 | 102° | 73km/h | 11723m | 8.1m/s | -53.1°C | 17.5% | 214.8hPa | 2.7V | 00:00:00 | 00:00:00 | 00:00:00 | |
| SP9KGR-15 | 2026-08-30 11:44:34 | 49.02973 | 20.70020 | 102° | 69km/h | 11706m | 3.3m/s | -53.1°C | 13.9% | 215.4hPa | 2.7V | 00:00:00 | 00:00:00 | 00:00:00 | |
| SQ9EZE-15 | 2026-08-30 11:44:18 | 49.03018 | 20.69583 | 97° | 75km/h | 11627m | 4.9m/s | -52.8°C | 16.6% | 218.2hPa | 2.7V | 00:00:00 | 00:00:00 | 00:00:00 | |
| OE3JTB-15 | 2026-08-30 11:44:09 | 49.03043 | 20.69297 | 101° | 73km/h | 11571m | 7.4m/s | -52.8°C | 21.8% | 219.9hPa | 2.7V | 00:00:00 | 00:00:00 | 00:00:00 | |
| GYPAP8-17 | 2026-08-30 11:44:05 | 49.03053 | 20.69208 | 99° | 75km/h | 11557m | 3.0m/s | -52.8°C | 18.1% | 220.4hPa | 2.7V | 00:00:00 | 00:00:00 | 00:00:00 | |
| SP9KGR-15 | 2026-08-30 11:44:03 | 49.03057 | 20.69152 | 97° | 71km/h | 11547m | 3.7m/s | -52.8°C | 18.9% | 220.8hPa | 2.7V | 00:00:00 | 00:00:00 | 00:00:00 | |
| SQ9EZE-13 | 2026-08-30 11:44:02 | 49.03059 | 20.69125 | 97° | 69km/h | 11543m | 5.1m/s | -52.9°C | 19.1% | 220.9hPa | 2.7V | 00:00:00 | 00:00:00 | 00:00:00 | |
| SQ9EZE-13 | 2026-08-30 11:43:48 | 49.03086 | 20.68699 | 94° | 77km/h | 11463m | 7.4m/s | -53.0°C | 23.7% | 223.6hPa | 2.7V | 00:00:00 | 00:00:00 | 00:00:00 | |
| OE3JTB-15 | 2026-08-30 11:43:40 | 49.03098 | 20.68463 | 95° | 73km/h | 11421m | 3.2m/s | -52.8°C | 28.7% | 224.9hPa | 2.7V | 00:00:00 | 00:54:14 | 00:00:00 | |
| SP9KGR-15 | 2026-08-30 11:43:32 | 49.03101 | 20.68277 | 88° | 71km/h | 11389m | 2.7m/s | -52.7°C | 24.3% | 226.2hPa | 2.7V | 00:00:00 | 00:00:00 | 00:00:00 | |
| SQ9EZE-13 | 2026-08-30 11:43:31 | 49.03100 | 20.68250 | 89° | 71km/h | 11385m | 5.0m/s | -52.6°C | 24.3% | 226.4hPa | 2.7V | 00:00:00 | 00:00:00 | 00:00:00 | |
| SP9KGR-15 | 2026-08-30 11:43:17 | 49.03106 | 20.67862 | 93° | 75km/h | 11315m | 3.9m/s | -52.3°C | 27.0% | 228.8hPa | 2.7V | 00:00:00 | 00:00:00 | 00:00:00 | |
| SQ9EZE-13 | 2026-08-30 11:43:14 | 49.03110 | 20.67747 | 94° | 78km/h | 11297m | 9.2m/s | -52.2°C | 26.3% | 229.4hPa | 2.7V | 00:00:00 | 00:00:00 | 00:00:00 | |
| SQ9EZE-15 | 2026-08-30 11:43:11 | 49.03111 | 20.67687 | 91° | 78km/h | 11285m | 7.4m/s | -52.1°C | 26.2% | 229.8hPa | 2.7V | 00:00:00 | 00:00:00 | 00:00:00 | |
| OE3JTB-15 | 2026-08-30 11:43:10 | 49.03109 | 20.67629 | 86° | 69km/h | 11275m | 6.2m/s | -52.1°C | 30.4% | 230.1hPa | 2.7V | 00:00:00 | 00:00:00 | 00:00:00 | |
| GYPAP8-17 | 2026-08-30 11:43:02 | 49.03108 | 20.67437 | 97° | 68km/h | 11242m | 4.1m/s | -52.0°C | 25.0% | 231.5hPa | 2.9V | 00:00:00 | 00:00:00 | 00:00:00 | |
| SP9KGR-15 | 2026-08-30 11:43:00 | 49.03112 | 20.67385 | 97° | 68km/h | 11232m | 8.0m/s | -51.9°C | 24.7% | 231.9hPa | 2.9V | 00:00:00 | 00:00:00 | 00:00:00 | |
| SQ9EZE-13 | 2026-08-30 11:42:58 | 49.03114 | 20.67334 | 91° | 66km/h | 11221m | 6.7m/s | -51.8°C | 24.2% | 232.2hPa | 2.9V | 00:00:00 | 00:00:00 | 00:00:00 | |
| SQ9EZE-15 | 2026-08-30 11:42:50 | 49.03114 | 20.67129 | 96° | 69km/h | 11179m | 5.5m/s | -51.5°C | 23.8% | 233.6hPa | 2.9V | 00:00:00 | 00:00:00 | 00:00:00 | |
| SP9KGR-15 | 2026-08-30 11:42:44 | 49.03112 | 20.66969 | 88° | 69km/h | 11152m | 3.1m/s | -51.3°C | 24.3% | 234.7hPa | 2.9V | 00:00:00 | 00:00:00 | 00:00:00 | |
| SQ9EZE-13 | 2026-08-30 11:42:42 | 49.03110 | 20.66916 | 89° | 69km/h | 11144m | 1.8m/s | -51.3°C | 24.2% | 234.9hPa | 2.9V | 00:00:00 | 00:00:00 | 00:00:00 | |
| OE3JTB-15 | 2026-08-30 11:42:41 | 49.03110 | 20.66861 | 91° | 71km/h | 11135m | 4.6m/s | -51.2°C | 28.2% | 235.2hPa | 2.9V | 00:00:00 | 00:00:00 | 00:00:00 | |
| SP9KGR-15 | 2026-08-30 11:42:29 | 49.03105 | 20.66564 | 87° | 68km/h | 11080m | 6.4m/s | -50.9°C | 22.6% | 237.2hPa | 2.9V | 00:00:00 | 00:00:00 | 00:00:00 | |
| SQ9EZE-13 | 2026-08-30 11:42:27 | 49.03102 | 20.66481 | 91° | 75km/h | 11065m | 2.8m/s | -50.7°C | 22.9% | 237.8hPa | 2.9V | 00:00:00 | 00:00:00 | 00:00:00 | |
| SP9KGR-15 | 2026-08-30 11:42:14 | 49.03101 | 20.66147 | 94° | 77km/h | 11003m | 3.6m/s | -50.9°C | 25.1% | 240.0hPa | 2.9V | 00:00:00 | 00:00:00 | 00:00:00 | |
| OE3JTB-15 | 2026-08-30 11:42:12 | 49.03102 | 20.66057 | 91° | 66km/h | 10988m | 6.6m/s | -50.8°C | 29.1% | 240.4hPa | 2.9V | 00:00:00 | 00:52:46 | 00:00:00 | |
| SQ9EZE-13 | 2026-08-30 11:42:11 | 49.03102 | 20.66057 | 92° | 80km/h | 10988m | 6.7m/s | -50.8°C | 25.1% | 240.4hPa | 2.9V | 00:00:00 | 00:00:00 | 00:00:00 | |
| SQ9EZE-14 | 2026-08-30 11:42:06 | 49.03104 | 20.65919 | 91° | 62km/h | 10965m | 2.9m/s | -50.7°C | 27.2% | 241.3hPa | 2.9V | 00:00:00 | 00:00:00 | 00:00:00 | |
| SP9KGR-15 | 2026-08-30 11:41:58 | 49.03099 | 20.65717 | 91° | 68km/h | 10927m | 1.9m/s | -50.4°C | 26.9% | 242.8hPa | 2.9V | 00:00:00 | 00:00:00 | 00:00:00 | |
| GYPAP8-17 | 2026-08-30 11:41:57 | 49.03099 | 20.65690 | 92° | 68km/h | 10924m | 4.7m/s | -50.5°C | 26.3% | 242.9hPa | 2.9V | 00:00:00 | 00:00:00 | 00:00:00 | |
| SQ9EZE-13 | 2026-08-30 11:41:56 | 49.03100 | 20.65664 | 93° | 69km/h | 10918m | 7.8m/s | -50.4°C | 26.0% | 243.1hPa | 2.9V | 00:00:00 | 00:00:00 | 00:00:00 | |
| SQ9EZE-14 | 2026-08-30 11:41:51 | 49.03105 | 20.65535 | 96° | 60km/h | 10891m | 3.2m/s | -50.2°C | 26.1% | 244.1hPa | 2.9V | 00:00:00 | 00:00:00 | 00:00:00 | |
| SQ9EZE-15 | 2026-08-30 11:41:43 | 49.03104 | 20.65353 | 87° | 64km/h | 10852m | 6.0m/s | -49.9°C | 24.9% | 245.5hPa | 2.9V | 00:00:00 | 00:00:00 | 00:00:00 | |
| OE3JTB-15 | 2026-08-30 11:41:42 | 49.03102 | 20.65303 | 88° | 66km/h | 10844m | 4.9m/s | -49.9°C | 28.4% | 245.8hPa | 2.9V | 00:00:00 | 00:00:00 | 08:30:00 | |
| SQ9EZE-13 | 2026-08-30 11:41:40 | 49.03101 | 20.65278 | 89° | 66km/h | 10840m | 2.7m/s | -49.9°C | 24.7% | 246.1hPa | 2.9V | 00:00:00 | 00:00:00 | 00:00:00 | |
| SP9KGR-15 | 2026-08-30 11:41:27 | 49.03095 | 20.64974 | 85° | 60km/h | 10776m | 2.4m/s | -49.8°C | 19.8% | 248.6hPa | 2.9V | 00:00:00 | 00:00:00 | 00:00:00 | |
| HA6NAB-11 | 2026-08-30 11:41:24 | 49.03091 | 20.64905 | 87° | 60km/h | 10762m | 4.5m/s | -49.6°C | 0% | 0hPa | 2.9V | 00:00:00 | 00:00:00 | 00:00:00 | |
| SQ9EZE-13 | 2026-08-30 11:41:23 | 49.03090 | 20.64882 | 87° | 60km/h | 10757m | 5.0m/s | -49.6°C | 18.6% | 249.3hPa | 2.9V | 00:00:00 | 00:00:00 | 00:00:00 | |
| SQ9EZE-15 | 2026-08-30 11:41:22 | 49.03089 | 20.64859 | 87° | 60km/h | 10752m | 5.6m/s | -49.6°C | 18.3% | 249.5hPa | 2.9V | 00:00:00 | 00:00:00 | 00:00:00 | |
| HA6NAB-11 | 2026-08-30 11:41:18 | 49.03088 | 20.64761 | 93° | 66km/h | 10732m | 5.6m/s | 0°C | 0% | 0hPa | 2.9V | 00:00:00 | 00:00:00 | 00:00:00 | |
| HA6NAB-11 | 2026-08-30 11:41:12 | 49.03084 | 20.64612 | 91° | 62km/h | 10707m | 2.4m/s | 0°C | 0% | 0hPa | 2.9V | 00:00:00 | 00:00:00 | 00:00:00 | |
| SP9KGR-15 | 2026-08-30 11:41:11 | 49.03084 | 20.64588 | 91° | 62km/h | 10703m | 5.2m/s | -49.3°C | 18.7% | 251.4hPa | 2.9V | 00:00:00 | 00:00:00 | 00:00:00 | |
| SQ9EZE-13 | 2026-08-30 11:41:07 | 49.03084 | 20.64493 | 93° | 60km/h | 10685m | 4.3m/s | -49.2°C | 19.0% | 252.2hPa | 2.9V | 00:00:00 | 00:00:00 | 00:00:00 | |
| SP9KGR-15 | 2026-08-30 11:40:56 | 49.03089 | 20.64216 | 92° | 64km/h | 10634m | 2.7m/s | -48.7°C | 18.9% | 254.1hPa | 2.9V | 00:00:00 | 00:00:00 | 00:00:00 | |
| SQ9EZE-13 | 2026-08-30 11:40:52 | 49.03092 | 20.64123 | 93° | 60km/h | 10613m | 4.1m/s | -48.6°C | 19.7% | 255.0hPa | 2.9V | 00:00:00 | 00:00:00 | 00:00:00 | |
| GYPAP8-17 | 2026-08-30 11:40:51 | 49.03092 | 20.64099 | 93° | 64km/h | 10607m | 7.8m/s | -48.5°C | 20.1% | 255.2hPa | 2.9V | 00:00:00 | 00:00:00 | 00:00:00 | |
| SP9KGR-15 | 2026-08-30 11:40:40 | 49.03092 | 20.63830 | 95° | 55km/h | 10550m | 5.6m/s | -48.3°C | 22.0% | 257.3hPa | 2.9V | 00:00:00 | 00:00:00 | 00:00:00 | |
| SQ9EZE-13 | 2026-08-30 11:40:36 | 49.03095 | 20.63745 | 96° | 58km/h | 10534m | 5.0m/s | -48.2°C | 21.7% | 258.0hPa | 2.9V | 00:00:00 | 00:00:00 | 00:00:00 | |
| SP9KGR-15 | 2026-08-30 11:40:25 | 49.03103 | 20.63451 | 92° | 58km/h | 10467m | 6.5m/s | -47.8°C | 21.3% | 260.5hPa | 2.9V | 00:00:00 | 00:00:00 | 00:00:00 | |
| SQ9EZE-13 | 2026-08-30 11:40:20 | 49.03105 | 20.63356 | 95° | 60km/h | 10446m | 8.1m/s | -47.6°C | 22.1% | 261.2hPa | 2.9V | 00:00:00 | 00:00:00 | 00:00:00 | |
| OE3JTB-15 | 2026-08-30 11:40:19 | 49.03107 | 20.63311 | 95° | 62km/h | 10436m | 4.9m/s | -47.5°C | 25.6% | 261.6hPa | 2.9V | 00:00:00 | 00:00:00 | 00:00:00 | |
| SQ9EZE-15 | 2026-08-30 11:40:15 | 49.03109 | 20.63240 | 90° | 66km/h | 10420m | 4.9m/s | -47.5°C | 22.1% | 262.2hPa | 2.9V | 00:00:00 | 00:00:00 | 00:00:00 | |
| SP9KGR-15 | 2026-08-30 11:40:09 | 49.03107 | 20.63074 | 89° | 58km/h | 10388m | 4.2m/s | -47.3°C | 21.5% | 263.7hPa | 2.9V | 00:00:00 | 00:00:00 | 00:00:00 | |
| HA6NAB-11 | 2026-08-30 11:40:07 | 49.03106 | 20.63051 | 86° | 58km/h | 10382m | 7.2m/s | 0°C | 0% | 0hPa | 2.9V | 00:00:00 | 00:00:00 | 00:00:00 | |
| SQ9EZE-13 | 2026-08-30 11:40:04 | 49.03104 | 20.62983 | 94° | 60km/h | 10365m | 3.5m/s | -47.1°C | 22.0% | 264.4hPa | 2.9V | 00:00:00 | 00:00:00 | 00:00:00 | |
| HA6NAB-11 | 2026-08-30 11:40:02 | 49.03107 | 20.62936 | 99° | 62km/h | 10357m | 5.0m/s | 0°C | 0% | 0hPa | 2.9V | 00:00:00 | 00:00:00 | 00:00:00 | |
| HA6NAB-11 | 2026-08-30 11:39:56 | 49.03120 | 20.62798 | 95° | 58km/h | 10322m | 4.1m/s | 0°C | 0% | 0hPa | 2.9V | 00:00:00 | 00:00:00 | 00:00:00 | |
| SQ9EZE-15 | 2026-08-30 11:39:54 | 49.03122 | 20.62751 | 95° | 62km/h | 10311m | 3.2m/s | -46.6°C | 20.9% | 266.5hPa | 2.9V | 00:00:00 | 00:00:00 | 00:00:00 | |
| SP9KGR-15 | 2026-08-30 11:39:53 | 49.03123 | 20.62727 | 93° | 62km/h | 10306m | 6.1m/s | -46.6°C | 20.5% | 266.7hPa | 2.9V | 00:00:00 | 00:00:00 | 00:00:00 | |
| OE3JTB-15 | 2026-08-30 11:39:47 | 49.03125 | 20.62566 | 98° | 68km/h | 10269m | 5.6m/s | -46.2°C | 23.0% | 268.1hPa | 2.9V | 00:00:00 | 00:50:21 | 00:00:00 | |
| SQ9EZE-14 | 2026-08-30 11:39:45 | 49.03127 | 20.62544 | 100° | 58km/h | 10264m | 3.7m/s | -46.2°C | 20.2% | 268.4hPa | 2.9V | 00:00:00 | 00:00:00 | 00:00:00 | |
| GYPAP8-17 | 2026-08-30 11:39:43 | 49.03133 | 20.62499 | 104° | 64km/h | 10255m | 4.8m/s | -46.1°C | 20.1% | 268.8hPa | 2.9V | 00:00:00 | 00:00:00 | 00:00:00 | |
| SP9KGR-15 | 2026-08-30 11:39:37 | 49.03149 | 20.62347 | 93° | 64km/h | 10226m | 4.1m/s | -46.0°C | 20.0% | 270.0hPa | 2.9V | 00:00:00 | 00:00:00 | 00:00:00 | |
| SQ9EZE-13 | 2026-08-30 11:39:29 | 49.03162 | 20.62148 | 100° | 71km/h | 10183m | 5.9m/s | -45.6°C | 19.3% | 271.7hPa | 2.9V | 00:00:00 | 00:00:00 | 00:00:00 | |
| SP9KGR-15 | 2026-08-30 11:39:21 | 49.03174 | 20.61954 | 94° | 58km/h | 10139m | 4.7m/s | -45.3°C | 18.7% | 273.5hPa | 2.9V | 00:00:00 | 00:00:00 | 00:00:00 | |
| SQ9EZE-13 | 2026-08-30 11:39:13 | 49.03184 | 20.61743 | 94° | 75km/h | 10101m | 6.6m/s | -45.0°C | 17.9% | 275.1hPa | 2.9V | 00:00:00 | 00:00:00 | 00:00:00 | |
| SP9KGR-15 | 2026-08-30 11:39:06 | 49.03187 | 20.61563 | 93° | 66km/h | 10063m | 8.1m/s | -44.6°C | 17.5% | 276.7hPa | 2.9V | 00:00:00 | 00:00:00 | 00:00:00 | |
| OE3JTB-15 | 2026-08-30 11:39:05 | 49.03189 | 20.61510 | 96° | 68km/h | 10051m | 7.4m/s | -44.5°C | 20.0% | 277.0hPa | 2.9V | 00:00:00 | 00:00:00 | 00:00:00 | |
| SP9KGR-15 | 2026-08-30 11:38:50 | 49.03197 | 20.61144 | 92° | 68km/h | 9979m | 6.1m/s | -43.9°C | 16.7% | 280.1hPa | 2.9V | 00:00:00 | 00:00:00 | 00:00:00 | |
| SQ9EZE-13 | 2026-08-30 11:38:49 | 49.03197 | 20.61119 | 92° | 66km/h | 9975m | 2.5m/s | -43.9°C | 16.7% | 280.3hPa | 2.9V | 00:00:00 | 00:00:00 | 00:00:00 | |
| SQ9EZE-15 | 2026-08-30 11:38:46 | 49.03197 | 20.61043 | 91° | 68km/h | 9958m | 4.0m/s | -43.7°C | 16.4% | 280.9hPa | 2.9V | 00:00:00 | 00:00:00 | 00:00:00 | |
| GYPAP8-17 | 2026-08-30 11:38:39 | 49.03198 | 20.60869 | 92° | 66km/h | 9921m | 2.9m/s | -43.4°C | 16.3% | 282.5hPa | 2.9V | 00:00:00 | 00:00:00 | 00:00:00 | |
| OE3JTB-15 | 2026-08-30 11:38:36 | 49.03197 | 20.60767 | 90° | 64km/h | 9897m | 8.3m/s | -43.2°C | 18.8% | 283.4hPa | 2.9V | 00:00:00 | 00:00:00 | 00:00:00 | |
| SP9KGR-15 | 2026-08-30 11:38:35 | 49.03197 | 20.60767 | 91° | 68km/h | 9897m | 8.3m/s | -43.2°C | 16.3% | 283.5hPa | 2.9V | 00:00:00 | 00:00:00 | 00:00:00 | |
| SQ9EZE-13 | 2026-08-30 11:38:33 | 49.03198 | 20.60714 | 91° | 68km/h | 9885m | 6.6m/s | -43.1°C | 16.2% | 283.8hPa | 2.9V | 00:00:00 | 00:00:00 | 00:00:00 | |
| SQ9EZE-15 | 2026-08-30 11:38:26 | 49.03200 | 20.60540 | 96° | 64km/h | 9848m | 4.0m/s | -42.8°C | 15.7% | 285.6hPa | 2.9V | 00:00:00 | 00:00:00 | 00:00:00 | |
| SP9KGR-15 | 2026-08-30 11:38:20 | 49.03208 | 20.60402 | 90° | 62km/h | 9821m | 3.3m/s | -42.6°C | 14.8% | 286.7hPa | 2.9V | 00:00:00 | 00:00:00 | 00:00:00 | |
| SQ9EZE-13 | 2026-08-30 11:38:17 | 49.03206 | 20.60325 | 89° | 68km/h | 9806m | 5.4m/s | -42.4°C | 14.4% | 287.4hPa | 2.9V | 00:00:00 | 00:00:00 | 00:00:00 | |
| OE3JTB-15 | 2026-08-30 11:38:07 | 49.03224 | 20.60054 | 89° | 66km/h | 9750m | 5.5m/s | -41.9°C | 16.7% | 289.8hPa | 2.9V | 00:00:00 | 00:48:41 | 00:00:00 | |
| SP9KGR-15 | 2026-08-30 11:38:04 | 49.03222 | 20.60001 | 87° | 69km/h | 9742m | 5.5m/s | -41.9°C | 14.1% | 290.3hPa | 2.9V | 00:00:00 | 00:00:00 | 00:00:00 | |
| SQ9EZE-13 | 2026-08-30 11:38:00 | 49.03222 | 20.59903 | 95° | 57km/h | 9726m | 5.0m/s | -41.8°C | 13.5% | 291.1hPa | 2.9V | 00:00:00 | 00:00:00 | 00:00:00 | |
| SP9KGR-15 | 2026-08-30 11:37:49 | 49.03239 | 20.59624 | 94° | 68km/h | 9666m | 4.7m/s | -41.3°C | 12.5% | 293.6hPa | 2.9V | 00:00:00 | 00:00:00 | 00:00:00 | |
| SQ9EZE-13 | 2026-08-30 11:37:45 | 49.03239 | 20.59523 | 90° | 66km/h | 9644m | 6.3m/s | -41.1°C | 12.9% | 294.5hPa | 2.9V | 00:00:00 | 00:00:00 | 00:00:00 | |
| GYPAP8-17 | 2026-08-30 11:37:41 | 49.03240 | 20.59422 | 91° | 64km/h | 9626m | 6.1m/s | -41.0°C | 12.9% | 295.4hPa | 2.9V | 00:00:00 | 00:00:00 | 00:00:00 | |
| OE3JTB-15 | 2026-08-30 11:37:38 | 49.03241 | 20.59327 | 94° | 64km/h | 9605m | 4.4m/s | -40.8°C | 15.1% | 296.2hPa | 2.9V | 00:00:00 | 00:00:00 | 00:00:00 | |
| SP9KGR-15 | 2026-08-30 11:37:33 | 49.03245 | 20.59241 | 95° | 58km/h | 9588m | 5.7m/s | -40.7°C | 12.8% | 297.0hPa | 2.9V | 00:00:00 | 00:00:00 | 00:00:00 | |
| SQ9EZE-13 | 2026-08-30 11:37:27 | 49.03247 | 20.59094 | 93° | 71km/h | 9555m | 5.6m/s | -40.5°C | 12.6% | 298.5hPa | 2.9V | 00:00:00 | 00:00:00 | 00:00:00 | |
| SQ9EZE-14 | 2026-08-30 11:37:24 | 49.03249 | 20.59014 | 91° | 68km/h | 9541m | 6.0m/s | -40.3°C | 12.7% | 299.1hPa | 2.9V | 00:00:00 | 00:00:00 | 00:00:00 | |
| SQ9EZE-15 | 2026-08-30 11:37:19 | 49.03255 | 20.58891 | 99° | 60km/h | 9519m | 5.1m/s | -40.2°C | 13.2% | 300.1hPa | 2.9V | 00:00:00 | 00:00:00 | 00:00:00 | |
| SP9KGR-15 | 2026-08-30 11:37:18 | 49.03257 | 20.58869 | 97° | 58km/h | 9514m | 4.7m/s | -40.1°C | 13.2% | 300.3hPa | 2.9V | 00:00:00 | 00:00:00 | 00:00:00 | |
| SQ9EZE-13 | 2026-08-30 11:37:10 | 49.03258 | 20.58672 | 96° | 69km/h | 9474m | 4.6m/s | -39.9°C | 13.3% | 302.2hPa | 2.9V | 00:00:00 | 00:00:00 | 00:00:00 | |
| OE3JTB-15 | 2026-08-30 11:37:08 | 49.03264 | 20.58593 | 101° | 60km/h | 9459m | 4.9m/s | -39.7°C | 15.7% | 302.7hPa | 2.9V | 00:00:00 | 00:00:00 | 00:00:00 | |
| SP9KGR-15 | 2026-08-30 11:37:03 | 49.03277 | 20.58497 | 98° | 62km/h | 9441m | 2.7m/s | -39.6°C | 14.3% | 303.5hPa | 2.9V | 00:00:00 | 00:00:00 | 00:00:00 | |
| SQ9EZE-15 | 2026-08-30 11:36:58 | 49.03287 | 20.58374 | 100° | 64km/h | 9410m | 5.3m/s | -39.5°C | 14.8% | 304.8hPa | 2.9V | 00:00:00 | 00:00:00 | 00:00:00 | |
| SQ9EZE-13 | 2026-08-30 11:36:55 | 49.03292 | 20.58303 | 95° | 60km/h | 9395m | 5.3m/s | -39.4°C | 15.2% | 305.7hPa | 2.9V | 00:00:00 | 00:00:00 | 00:00:00 | |
| SP9KGR-15 | 2026-08-30 11:36:47 | 49.03306 | 20.58106 | 100° | 66km/h | 9351m | 4.9m/s | -39.1°C | 14.8% | 307.6hPa | 2.9V | 00:00:00 | 00:00:00 | 00:00:00 | |
| SQ9EZE-13 | 2026-08-30 11:36:38 | 49.03322 | 20.57890 | 92° | 64km/h | 9311m | 4.4m/s | -38.7°C | 13.7% | 309.4hPa | 2.9V | 00:00:00 | 00:00:00 | 00:00:00 | |
| SP9KGR-15 | 2026-08-30 11:36:31 | 49.03325 | 20.57718 | 98° | 64km/h | 9276m | 4.2m/s | -38.5°C | 13.1% | 311.1hPa | 2.9V | 00:00:00 | 00:00:00 | 00:00:00 | |
| GYPAP8-17 | 2026-08-30 11:36:30 | 49.03327 | 20.57694 | 99° | 62km/h | 9270m | 7.3m/s | -38.4°C | 13.1% | 311.4hPa | 2.9V | 00:00:00 | 00:00:00 | 00:00:00 | |
| SQ9EZE-13 | 2026-08-30 11:36:22 | 49.03327 | 20.57504 | 89° | 62km/h | 9225m | 5.5m/s | -38.1°C | 12.2% | 313.3hPa | 2.9V | 00:00:00 | 00:00:00 | 00:00:00 | |
| SP9KGR-15 | 2026-08-30 11:36:16 | 49.03334 | 20.57373 | 103° | 60km/h | 9189m | 7.5m/s | -37.9°C | 12.0% | 314.7hPa | 2.9V | 00:00:00 | 00:00:00 | 00:00:00 | |
| OE3JTB-15 | 2026-08-30 11:36:15 | 49.03341 | 20.57326 | 103° | 69km/h | 9177m | 8.0m/s | -37.7°C | 13.9% | 315.2hPa | 2.9V | 00:00:00 | 00:46:49 | 00:00:00 | |
| SQ9EZE-13 | 2026-08-30 11:36:08 | 49.03351 | 20.57143 | 89° | 66km/h | 9143m | 5.3m/s | -37.5°C | 11.4% | 316.9hPa | 2.9V | 00:00:00 | 00:00:00 | 00:00:00 | |
| SP9KGR-15 | 2026-08-30 11:35:45 | 49.03380 | 20.56562 | 99° | 68km/h | 9037m | 4.4m/s | -36.6°C | 9.8% | 321.7hPa | 2.9V | 00:00:00 | 00:00:00 | 00:00:00 | |
| OE3JTB-15 | 2026-08-30 11:35:44 | 49.03386 | 20.56507 | 101° | 64km/h | 9026m | 3.7m/s | -36.4°C | 11.2% | 322.2hPa | 2.9V | 00:00:00 | 00:00:00 | 08:30:00 | |
| GYPAP8-17 | 2026-08-30 11:35:43 | 49.03387 | 20.56507 | 102° | 75km/h | 9026m | 3.8m/s | -36.5°C | 9.7% | 322.2hPa | 2.9V | 00:00:00 | 00:00:00 | 00:00:00 | |
| SQ9EZE-13 | 2026-08-30 11:35:31 | 49.03408 | 20.56201 | 103° | 73km/h | 8966m | 7.5m/s | -36.0°C | 8.9% | 325.0hPa | 2.9V | 00:00:00 | 00:00:00 | 00:00:00 | |
| SP9KGR-15 | 2026-08-30 11:35:30 | 49.03415 | 20.56149 | 103° | 68km/h | 8955m | 6.8m/s | -35.9°C | 9.0% | 325.5hPa | 2.9V | 00:00:00 | 00:00:00 | 00:00:00 | |
| SQ9EZE-13 | 2026-08-30 11:35:16 | 49.03425 | 20.55816 | 93° | 69km/h | 8886m | 8.3m/s | -35.3°C | 10.0% | 328.9hPa | 2.9V | 00:00:00 | 00:00:00 | 00:00:00 | |
| SP9KGR-15 | 2026-08-30 11:35:13 | 49.03425 | 20.55763 | 88° | 69km/h | 8875m | 5.9m/s | -35.2°C | 10.0% | 329.5hPa | 2.9V | 00:00:00 | 00:00:00 | 00:00:00 | |
| SQ9EZE-14 | 2026-08-30 11:35:04 | 49.03416 | 20.55554 | 94° | 62km/h | 8831m | 2.7m/s | -34.8°C | 9.2% | 331.7hPa | 2.9V | 00:00:00 | 00:00:00 | 00:00:00 | |
| SP9KGR-15 | 2026-08-30 11:34:57 | 49.03427 | 20.55378 | 95° | 64km/h | 8794m | 3.5m/s | -34.6°C | 9.0% | 333.5hPa | 2.9V | 00:00:00 | 00:00:00 | 00:00:00 | |
| SQ9EZE-14 | 2026-08-30 11:34:48 | 49.03432 | 20.55158 | 99° | 66km/h | 8749m | 5.2m/s | -34.2°C | 8.9% | 335.5hPa | 2.9V | 00:00:00 | 00:00:00 | 00:00:00 | |
| SQ9EZE-13 | 2026-08-30 11:34:44 | 49.03444 | 20.55061 | 97° | 58km/h | 8730m | 4.1m/s | -34.1°C | 9.0% | 336.4hPa | 2.9V | 00:00:00 | 00:00:00 | 00:00:00 | |
| SP9KGR-15 | 2026-08-30 11:34:41 | 49.03444 | 20.54992 | 85° | 64km/h | 8715m | 5.5m/s | -34.0°C | 8.6% | 337.2hPa | 2.9V | 00:00:00 | 00:00:00 | 00:00:00 | |
| SP9KGR-15 | 2026-08-30 11:34:26 | 49.03451 | 20.54636 | 93° | 60km/h | 8623m | 4.3m/s | -33.3°C | 8.7% | 341.6hPa | 2.9V | 00:00:00 | 00:00:00 | 00:00:00 | |
| SQ9EZE-13 | 2026-08-30 11:34:25 | 49.03452 | 20.54612 | 95° | 62km/h | 8618m | 6.7m/s | -33.3°C | 8.6% | 341.9hPa | 2.9V | 00:00:00 | 00:00:00 | 00:00:00 | |
| OE3JTB-15 | 2026-08-30 11:34:24 | 49.03455 | 20.54563 | 99° | 62km/h | 8608m | 5.9m/s | -33.2°C | 9.8% | 342.2hPa | 2.9V | 00:00:00 | 00:00:00 | 00:00:00 | |
| SQ9EZE-15 | 2026-08-30 11:34:23 | 49.03455 | 20.54563 | 99° | 64km/h | 8608m | 5.9m/s | -33.2°C | 8.6% | 342.3hPa | 2.9V | 00:00:00 | 00:00:00 | 00:00:00 | |
| SP9KGR-15 | 2026-08-30 11:34:10 | 49.03466 | 20.54252 | 96° | 60km/h | 8547m | 6.8m/s | -32.8°C | 9.3% | 345.4hPa | 2.9V | 00:00:00 | 00:00:00 | 00:00:00 | |
| SQ9EZE-13 | 2026-08-30 11:34:09 | 49.03467 | 20.54227 | 90° | 64km/h | 8542m | 3.8m/s | -32.7°C | 9.9% | 345.6hPa | 2.9V | 00:00:00 | 00:00:00 | 00:00:00 | |
| GYPAP8-17 | 2026-08-30 11:34:07 | 49.03464 | 20.54177 | 83° | 66km/h | 8533m | 4.9m/s | -32.7°C | 11.9% | 346.0hPa | 2.9V | 00:00:00 | 00:00:00 | 00:00:00 | |
| SQ9EZE-15 | 2026-08-30 11:34:03 | 49.03457 | 20.54056 | 97° | 62km/h | 8505m | 3.9m/s | -32.8°C | 19.7% | 347.3hPa | 2.9V | 00:00:00 | 00:00:00 | 00:00:00 | |
| SP9KGR-15 | 2026-08-30 11:33:55 | 49.03464 | 20.53872 | 85° | 64km/h | 8466m | 6.6m/s | -32.5°C | 22.3% | 349.3hPa | 2.9V | 00:00:00 | 00:00:00 | 00:00:00 | |
| SQ9EZE-13 | 2026-08-30 11:33:54 | 49.03463 | 20.53847 | 88° | 66km/h | 8461m | 3.1m/s | -32.5°C | 22.3% | 349.5hPa | 2.9V | 00:00:00 | 00:00:00 | 00:00:00 | |
| SP9KGR-15 | 2026-08-30 11:33:38 | 49.03453 | 20.53486 | 89° | 58km/h | 8390m | 6.6m/s | -31.9°C | 20.9% | 352.9hPa | 2.9V | 00:00:00 | 00:00:00 | 00:00:00 | |
| SQ9EZE-13 | 2026-08-30 11:33:37 | 49.03452 | 20.53464 | 88° | 57km/h | 8384m | 5.2m/s | -31.9°C | 21.0% | 353.2hPa | 2.9V | 00:00:00 | 00:00:00 | 00:00:00 | |
| SP9KGR-15 | 2026-08-30 11:33:23 | 49.03449 | 20.53154 | 94° | 49km/h | 8320m | 5.3m/s | -31.3°C | 16.8% | 356.4hPa | 2.9V | 00:00:00 | 00:00:00 | 00:00:00 | |
| SQ9EZE-13 | 2026-08-30 11:33:20 | 49.03451 | 20.53101 | 90° | 44km/h | 8303m | 4.2m/s | -31.1°C | 15.6% | 357.3hPa | 2.9V | 00:00:00 | 00:00:00 | 00:00:00 | |
| GYPAP8-17 | 2026-08-30 11:33:18 | 49.03451 | 20.53067 | 92° | 47km/h | 8292m | 4.4m/s | -31.1°C | 15.7% | 357.8hPa | 2.9V | 00:00:00 | 00:00:00 | 00:00:00 | |
| OE3JTB-15 | 2026-08-30 11:33:08 | 49.03448 | 20.52828 | 87° | 55km/h | 8239m | 4.6m/s | -30.6°C | 17.7% | 360.3hPa | 2.9V | 00:00:00 | 00:00:00 | 00:00:00 | |
| SP9KGR-15 | 2026-08-30 11:33:07 | 49.03448 | 20.52828 | 87° | 49km/h | 8239m | 4.7m/s | -30.6°C | 16.3% | 360.4hPa | 2.9V | 00:00:00 | 00:00:00 | 00:00:00 | |
| SQ9EZE-13 | 2026-08-30 11:33:05 | 49.03445 | 20.52774 | 89° | 47km/h | 8224m | 3.1m/s | -30.4°C | 12.9% | 361.3hPa | 2.9V | 00:00:00 | 00:00:00 | 00:00:00 | |
| SQ9EZE-15 | 2026-08-30 11:32:54 | 49.03454 | 20.52566 | 90° | 62km/h | 8179m | 3.2m/s | -30.1°C | 11.3% | 363.6hPa | 2.9V | 00:00:00 | 00:00:00 | 00:00:00 | |
| SP9KGR-15 | 2026-08-30 11:32:51 | 49.03452 | 20.52495 | 89° | 64km/h | 8167m | 5.7m/s | -30.0°C | 9.1% | 364.2hPa | 2.9V | 00:00:00 | 00:00:00 | 00:00:00 | |
| SQ9EZE-13 | 2026-08-30 11:32:48 | 49.03454 | 20.52424 | 97° | 55km/h | 8154m | 2.8m/s | -29.8°C | 8.8% | 365.0hPa | 2.9V | 00:00:00 | 00:00:00 | 00:00:00 | |
| SQ9EZE-14 | 2026-08-30 11:32:44 | 49.03464 | 20.52346 | 101° | 51km/h | 8138m | 2.8m/s | -29.7°C | 8.7% | 366.0hPa | 2.9V | 00:00:00 | 00:00:00 | 00:00:00 | |
| OE3JTB-15 | 2026-08-30 11:32:39 | 49.03470 | 20.52217 | 94° | 53km/h | 8106m | 3.8m/s | -29.5°C | 9.5% | 367.4hPa | 2.9V | 00:00:00 | 00:00:00 | 00:00:00 | |
| SP9KGR-15 | 2026-08-30 11:32:35 | 49.03472 | 20.52149 | 94° | 57km/h | 8094m | 2.9m/s | -29.5°C | 8.7% | 368.1hPa | 2.9V | 00:00:00 | 00:00:00 | 00:00:00 | |
| SQ9EZE-15 | 2026-08-30 11:32:34 | 49.03473 | 20.52128 | 98° | 55km/h | 8089m | 6.1m/s | -29.4°C | 8.7% | 368.3hPa | 2.9V | 00:00:00 | 00:00:00 | 00:00:00 | |
| SQ9EZE-13 | 2026-08-30 11:32:32 | 49.03477 | 20.52088 | 101° | 51km/h | 8081m | 5.8m/s | -29.4°C | 8.9% | 368.8hPa | 2.9V | 00:00:00 | 00:00:00 | 00:00:00 | |
| GYPAP8-17 | 2026-08-30 11:32:29 | 49.03480 | 20.52032 | 89° | 49km/h | 8067m | 4.6m/s | -29.3°C | 9.3% | 369.6hPa | 2.9V | 00:00:00 | 00:00:00 | 00:00:00 | |
| SQ9EZE-14 | 2026-08-30 11:32:28 | 49.03479 | 20.52013 | 87° | 51km/h | 8063m | 3.3m/s | -29.2°C | 9.4% | 369.8hPa | 2.9V | 00:00:00 | 00:00:00 | 00:00:00 | |
| SP9KGR-15 | 2026-08-30 11:32:20 | 49.03472 | 20.51826 | 95° | 57km/h | 8025m | 3.5m/s | -29.1°C | 10.2% | 371.7hPa | 2.9V | 00:00:00 | 00:00:00 | 00:00:00 | |
| SQ9EZE-13 | 2026-08-30 11:32:17 | 49.03473 | 20.51784 | 96° | 57km/h | 8013m | 4.9m/s | -29.0°C | 10.2% | 372.2hPa | 2.9V | 00:00:00 | 00:00:00 | 00:00:00 | |
| OE3JTB-15 | 2026-08-30 11:32:10 | 49.03478 | 20.51625 | 89° | 57km/h | 7976m | 5.5m/s | -28.7°C | 11.9% | 374.1hPa | 2.9V | 00:00:00 | 00:42:44 | 00:00:00 | |
| SP9KGR-15 | 2026-08-30 11:32:05 | 49.03481 | 20.51516 | 98° | 51km/h | 7948m | 3.5m/s | -28.6°C | 12.0% | 375.5hPa | 2.9V | 00:00:00 | 00:00:00 | 00:00:00 | |
| SQ9EZE-13 | 2026-08-30 11:32:02 | 49.03483 | 20.51458 | 89° | 55km/h | 7934m | 3.6m/s | -28.5°C | 12.2% | 376.3hPa | 2.9V | 00:00:00 | 00:00:00 | 00:00:00 | |
| SP9KGR-15 | 2026-08-30 11:31:48 | 49.03495 | 20.51176 | 91° | 55km/h | 7865m | 5.6m/s | -27.9°C | 12.1% | 379.8hPa | 2.9V | 00:00:00 | 00:00:00 | 00:00:00 | |
| SQ9EZE-13 | 2026-08-30 11:31:46 | 49.03495 | 20.51133 | 87° | 57km/h | 7857m | 5.4m/s | -27.8°C | 12.0% | 380.3hPa | 2.9V | 00:00:00 | 00:00:00 | 00:00:00 | |
| OE3JTB-15 | 2026-08-30 11:31:41 | 49.03493 | 20.50996 | 91° | 55km/h | 7826m | 5.9m/s | -27.5°C | 12.6% | 381.9hPa | 2.9V | 00:00:00 | 00:00:00 | 00:00:00 | |
| SP9KGR-15 | 2026-08-30 11:31:33 | 49.03484 | 20.50830 | 86° | 57km/h | 7789m | 3.6m/s | -27.2°C | 11.8% | 383.9hPa | 0V | 00:00:00 | 00:00:00 | 00:00:00 | |
| SQ9EZE-13 | 2026-08-30 11:31:31 | 49.03483 | 20.50808 | 89° | 58km/h | 7785m | 4.4m/s | -27.2°C | 11.9% | 384.1hPa | 0V | 00:00:00 | 00:00:00 | 00:00:00 | |
| SQ9EZE-15 | 2026-08-30 11:31:26 | 49.03484 | 20.50700 | 91° | 57km/h | 7762m | 4.9m/s | -27.1°C | 12.5% | 385.3hPa | 0V | 00:00:00 | 00:00:00 | 00:00:00 | |
| SP9KGR-15 | 2026-08-30 11:31:17 | 49.03484 | 20.50501 | 91° | 53km/h | 7718m | 6.6m/s | -26.8°C | 13.2% | 387.7hPa | 0V | 00:00:00 | 00:00:00 | 00:00:00 | |
| SQ9EZE-13 | 2026-08-30 11:31:15 | 49.03483 | 20.50463 | 86° | 49km/h | 7704m | 5.0m/s | -26.7°C | 13.9% | 388.5hPa | 0V | 00:00:00 | 00:00:00 | 00:00:00 | |
| OE3JTB-15 | 2026-08-30 11:31:12 | 49.03473 | 20.50387 | 76° | 47km/h | 7679m | 7.9m/s | 0°C | 0% | 0hPa | 0V | 00:00:00 | 00:00:00 | 00:00:00 | |
| SQ9EZE-15 | 2026-08-30 11:31:07 | 49.03461 | 20.50282 | 84° | 57km/h | 7649m | 8.0m/s | -26.3°C | 21.2% | 391.5hPa | 0V | 00:00:00 | 00:00:00 | 00:00:00 | |
| SP9KGR-15 | 2026-08-30 11:31:01 | 49.03457 | 20.50178 | 96° | 53km/h | 7615m | 5.0m/s | -26.0°C | 21.0% | 393.2hPa | 0V | 00:00:00 | 00:00:00 | 00:00:00 | |
| SQ9EZE-13 | 2026-08-30 11:30:59 | 49.03460 | 20.50139 | 100° | 49km/h | 7605m | 5.8m/s | -25.9°C | 21.2% | 393.9hPa | 0V | 00:00:00 | 00:00:00 | 00:00:00 | |
| GYPAP8-17 | 2026-08-30 11:30:53 | 49.03459 | 20.50021 | 82° | 55km/h | 7574m | 5.3m/s | -25.6°C | 22.6% | 395.5hPa | 0V | 00:00:00 | 00:00:00 | 00:00:00 | |
| SP9KGR-15 | 2026-08-30 11:30:46 | 49.03443 | 20.49904 | 84° | 40km/h | 7544m | 4.2m/s | -25.3°C | 25.4% | 397.2hPa | 0V | 00:00:00 | 00:00:00 | 00:00:00 | |
| SQ9EZE-13 | 2026-08-30 11:30:45 | 49.03441 | 20.49873 | 88° | 38km/h | 7534m | 7.2m/s | -25.3°C | 25.4% | 397.7hPa | 0V | 00:00:00 | 00:00:00 | 00:00:00 | |
| SQ9EZE-14 | 2026-08-30 11:30:34 | 49.03429 | 20.49718 | 82° | 40km/h | 7486m | 4.0m/s | -24.8°C | 28.0% | 400.4hPa | 0V | 00:00:00 | 00:00:00 | 00:00:00 | |
| SP9KGR-15 | 2026-08-30 11:30:31 | 49.03428 | 20.49656 | 94° | 46km/h | 7468m | 3.6m/s | -24.6°C | 28.5% | 401.5hPa | 0V | 00:00:00 | 00:00:00 | 00:00:00 | |
| SQ9EZE-13 | 2026-08-30 11:30:29 | 49.03428 | 20.49638 | 88° | 49km/h | 7464m | 2.8m/s | -24.6°C | 28.5% | 401.7hPa | 0V | 00:00:00 | 00:00:00 | 00:00:00 | |
| SQ9EZE-14 | 2026-08-30 11:30:20 | 49.03425 | 20.49471 | 89° | 47km/h | 7404m | 6.5m/s | -24.1°C | 26.5% | 405.0hPa | 0V | 00:00:00 | 00:00:00 | 00:00:00 | |
| SP9KGR-15 | 2026-08-30 11:30:15 | 49.03426 | 20.49376 | 86° | 46km/h | 7381m | 4.9m/s | -23.9°C | 27.6% | 406.3hPa | 0V | 00:00:00 | 00:00:00 | 00:00:00 | |
| SQ9EZE-13 | 2026-08-30 11:30:13 | 49.03424 | 20.49359 | 82° | 44km/h | 7377m | 3.3m/s | -23.9°C | 28.0% | 406.6hPa | 0V | 00:00:00 | 00:00:00 | 00:00:00 | |
| GYPAP8-17 | 2026-08-30 11:30:05 | 49.03419 | 20.49232 | 90° | 42km/h | 7340m | 4.0m/s | -23.6°C | 28.3% | 408.5hPa | 0V | 00:00:00 | 00:00:00 | 00:00:00 | |
| SQ9EZE-14 | 2026-08-30 11:30:04 | 49.03418 | 20.49216 | 85° | 44km/h | 7336m | 3.8m/s | -23.6°C | 27.9% | 408.8hPa | 0V | 00:00:00 | 00:00:00 | 00:00:00 | |
| SQ9EZE-15 | 2026-08-30 11:29:59 | 49.03409 | 20.49123 | 85° | 47km/h | 7316m | 4.2m/s | -23.6°C | 28.7% | 410.0hPa | 0V | 00:00:00 | 00:00:00 | 00:00:00 | |
| SQ9EZE-13 | 2026-08-30 11:29:58 | 49.03408 | 20.49105 | 86° | 47km/h | 7311m | 4.8m/s | -23.6°C | 29.6% | 410.2hPa | 0V | 00:00:00 | 00:00:00 | 00:00:00 | |
| SQ9EZE-13 | 2026-08-30 11:29:43 | 49.03387 | 20.48834 | 99° | 49km/h | 7246m | 4.2m/s | -23.2°C | 32.4% | 413.8hPa | 0V | 00:00:00 | 00:00:00 | 00:00:00 | |
| SQ9EZE-15 | 2026-08-30 11:29:38 | 49.03390 | 20.48764 | 81° | 40km/h | 7231m | 2.7m/s | -23.0°C | 32.5% | 414.7hPa | 0V | 00:00:00 | 00:00:00 | 00:00:00 | |
| SQ9EZE-13 | 2026-08-30 11:29:27 | 49.03365 | 20.48593 | 97° | 51km/h | 7177m | 4.3m/s | -22.6°C | 30.3% | 417.7hPa | 0V | 00:00:00 | 00:00:00 | 00:00:00 | |
| GYPAP8-17 | 2026-08-30 11:29:22 | 49.03366 | 20.48488 | 83° | 47km/h | 7145m | 6.0m/s | -22.3°C | 29.3% | 419.6hPa | 0V | 00:00:00 | 00:00:00 | 00:00:00 | |
| SQ9EZE-13 | 2026-08-30 11:29:12 | 49.03345 | 20.48316 | 84° | 47km/h | 7090m | 7.1m/s | -21.9°C | 21.7% | 422.6hPa | 0V | 00:00:00 | 00:00:00 | 00:00:00 | |
| SP9KGR-15 | 2026-08-30 11:29:11 | 49.03343 | 20.48298 | 80° | 46km/h | 7084m | 4.9m/s | -21.9°C | 21.1% | 423.1hPa | 0V | 00:00:00 | 00:00:00 | 00:00:00 | |
| SQ9EZE-13 | 2026-08-30 11:28:57 | 49.03305 | 20.48050 | 70° | 49km/h | 7011m | 5.6m/s | -21.3°C | 27.4% | 427.1hPa | 0V | 00:00:00 | 00:00:00 | 00:00:00 | |
| SP9KGR-15 | 2026-08-30 11:28:56 | 49.03305 | 20.48050 | 70° | 49km/h | 7011m | 5.6m/s | -21.3°C | 27.4% | 427.1hPa | 0V | 00:00:00 | 00:00:00 | 00:00:00 | |
| SQ9EZE-13 | 2026-08-30 11:28:42 | 49.03251 | 20.47773 | 68° | 44km/h | 6945m | 2.5m/s | -20.9°C | 44.5% | 431.2hPa | 0V | 00:00:00 | 00:00:00 | 00:00:00 | |
| SP9KGR-15 | 2026-08-30 11:28:40 | 49.03246 | 20.47758 | 68° | 44km/h | 6941m | 6.4m/s | -20.9°C | 43.7% | 431.5hPa | 0V | 00:00:00 | 00:00:00 | 00:00:00 | |
| GYPAP8-17 | 2026-08-30 11:28:36 | 49.03227 | 20.47694 | 66° | 44km/h | 6922m | 3.7m/s | -20.7°C | 42.1% | 432.5hPa | 0V | 00:00:00 | 00:00:00 | 00:00:00 | |
| SQ9EZE-15 | 2026-08-30 11:28:31 | 49.03212 | 20.47626 | 80° | 42km/h | 6900m | 3.5m/s | -20.4°C | 41.7% | 433.8hPa | 0V | 00:00:00 | 00:00:00 | 00:00:00 | |
| SP9KGR-15 | 2026-08-30 11:28:25 | 49.03199 | 20.47516 | 75° | 46km/h | 6874m | 4.0m/s | -20.2°C | 42.5% | 435.4hPa | 0V | 00:00:00 | 00:00:00 | 00:00:00 | |
| OE3JTB-15 | 2026-08-30 11:28:18 | 49.03164 | 20.47380 | 77° | 44km/h | 6829m | 3.5m/s | 0°C | 0% | 0hPa | 0V | 00:00:00 | 00:38:52 | 00:00:00 | |
| SQ9EZE-15 | 2026-08-30 11:28:10 | 49.03152 | 20.47262 | 76° | 37km/h | 6796m | 3.6m/s | -19.5°C | 40.3% | 440.1hPa | 0V | 00:00:00 | 00:00:00 | 00:00:00 | |
| SQ9EZE-13 | 2026-08-30 11:28:09 | 49.03149 | 20.47248 | 71° | 37km/h | 6792m | 3.1m/s | -19.5°C | 40.3% | 440.2hPa | 0V | 00:00:00 | 00:00:00 | 00:00:00 | |
| SQ9EZE-14 | 2026-08-30 11:28:07 | 49.03140 | 20.47221 | 64° | 42km/h | 6781m | 5.0m/s | -19.4°C | 40.2% | 440.9hPa | 0V | 00:00:00 | 00:00:00 | 00:00:00 | |
| SP9KGR-15 | 2026-08-30 11:27:53 | 49.03103 | 20.46997 | 94° | 44km/h | 6693m | 5.4m/s | -18.7°C | 36.1% | 446.2hPa | 0V | 00:00:00 | 00:00:00 | 00:00:00 | |
| GYPAP8-17 | 2026-08-30 11:27:52 | 49.03104 | 20.46980 | 94° | 44km/h | 6687m | 6.7m/s | -18.7°C | 36.0% | 446.5hPa | 0V | 00:00:00 | 00:00:00 | 00:00:00 | |
| SQ9EZE-14 | 2026-08-30 11:27:51 | 49.03104 | 20.46963 | 94° | 44km/h | 6681m | 4.7m/s | -18.6°C | 36.0% | 446.9hPa | 0V | 00:00:00 | 00:00:00 | 00:00:00 | |
| OE3JTB-15 | 2026-08-30 11:27:49 | 49.03103 | 20.46915 | 80° | 40km/h | 6668m | 3.8m/s | 0°C | 0% | 0hPa | 0V | 00:00:00 | 00:00:00 | 00:00:00 | |
| SQ9EZE-13 | 2026-08-30 11:27:39 | 49.03086 | 20.46753 | 89° | 46km/h | 6626m | 3.4m/s | -18.2°C | 42.2% | 450.2hPa | 0V | 00:00:00 | 00:00:00 | 00:00:00 | |
| SP9KGR-15 | 2026-08-30 11:27:38 | 49.03086 | 20.46736 | 89° | 42km/h | 6622m | 4.0m/s | -18.2°C | 43.3% | 450.4hPa | 0V | 00:00:00 | 00:00:00 | 00:00:00 | |
| SQ9EZE-13 | 2026-08-30 11:27:22 | 49.03073 | 20.46500 | 103° | 37km/h | 6557m | 7.3m/s | -17.9°C | 45.9% | 454.4hPa | 0V | 00:00:00 | 00:00:00 | 00:00:00 | |
| GYPAP8-17 | 2026-08-30 11:27:08 | 49.03068 | 20.46274 | 90° | 46km/h | 6476m | 3.9m/s | -17.4°C | 48.6% | 459.4hPa | 0V | 00:00:00 | 00:00:00 | 00:00:00 | |
| SP9KGR-15 | 2026-08-30 11:27:07 | 49.03067 | 20.46257 | 89° | 44km/h | 6472m | 4.9m/s | -17.4°C | 48.9% | 459.6hPa | 0V | 00:00:00 | 00:00:00 | 00:00:00 | |
| SQ9EZE-13 | 2026-08-30 11:27:06 | 49.03067 | 20.46240 | 86° | 46km/h | 6467m | 4.9m/s | -17.4°C | 48.9% | 459.9hPa | 0V | 00:00:00 | 00:00:00 | 00:00:00 | |
| SQ9EZE-15 | 2026-08-30 11:27:02 | 49.03061 | 20.46165 | 87° | 47km/h | 6447m | 5.8m/s | -17.2°C | 48.4% | 461.1hPa | 0V | 00:00:00 | 00:00:00 | 00:00:00 | |
| SP9KGR-15 | 2026-08-30 11:26:51 | 49.03047 | 20.45980 | 89° | 47km/h | 6385m | 6.7m/s | -16.9°C | 56.4% | 465.0hPa | 0V | 00:00:00 | 00:00:00 | 00:00:00 | |
| SQ9EZE-13 | 2026-08-30 11:26:50 | 49.03047 | 20.45962 | 92° | 47km/h | 6379m | 5.9m/s | -16.9°C | 57.9% | 465.3hPa | 0V | 00:00:00 | 00:00:00 | 00:00:00 | |
| SQ9EZE-15 | 2026-08-30 11:26:42 | 49.03042 | 20.45807 | 81° | 55km/h | 6337m | 4.4m/s | -16.8°C | 70.5% | 468.0hPa | 0V | 00:00:00 | 00:00:00 | 00:00:00 | |
| SP9KGR-15 | 2026-08-30 11:26:36 | 49.03025 | 20.45703 | 85° | 44km/h | 6300m | 8.3m/s | -16.5°C | 73.4% | 470.3hPa | 0V | 00:00:00 | 00:00:00 | 00:00:00 | |
| SQ9EZE-13 | 2026-08-30 11:26:35 | 49.03026 | 20.45667 | 97° | 47km/h | 6287m | 6.6m/s | -16.4°C | 73.4% | 471.1hPa | 0V | 00:00:00 | 00:00:00 | 00:00:00 | |
| GYPAP8-17 | 2026-08-30 11:26:24 | 49.03026 | 20.45496 | 76° | 46km/h | 6220m | 6.2m/s | -15.9°C | 74.8% | 475.3hPa | 0V | 00:00:00 | 00:00:00 | 00:00:00 | |
| SP9KGR-15 | 2026-08-30 11:26:20 | 49.03018 | 20.45433 | 90° | 40km/h | 6193m | 8.1m/s | -15.7°C | 72.6% | 477.1hPa | 0V | 00:00:00 | 00:00:00 | 00:00:00 | |
| SQ9EZE-13 | 2026-08-30 11:26:18 | 49.03020 | 20.45401 | 103° | 44km/h | 6180m | 8.7m/s | -15.7°C | 73.1% | 477.9hPa | 0V | 00:00:00 | 00:00:00 | 00:00:00 | |
| SP9KGR-15 | 2026-08-30 11:26:04 | 49.03024 | 20.45147 | 87° | 46km/h | 6089m | 4.8m/s | -15.1°C | 73.6% | 483.5hPa | 0V | 00:00:00 | 00:00:00 | 00:00:00 | |
| SQ9EZE-14 | 2026-08-30 11:25:54 | 49.03036 | 20.44949 | 105° | 51km/h | 6036m | 3.4m/s | -14.6°C | 69.9% | 486.9hPa | 0V | 00:00:00 | 00:00:00 | 00:00:00 | |
| SP9KGR-15 | 2026-08-30 11:25:48 | 49.03040 | 20.44834 | 89° | 46km/h | 5996m | 6.7m/s | -14.2°C | 66.3% | 489.5hPa | 0V | 00:00:00 | 00:00:00 | 00:00:00 | |
| SQ9EZE-13 | 2026-08-30 11:25:46 | 49.03041 | 20.44801 | 100° | 42km/h | 5983m | 4.7m/s | -14.1°C | 66.3% | 490.3hPa | 0V | 00:00:00 | 00:00:00 | 00:00:00 | |
| GYPAP8-17 | 2026-08-30 11:25:40 | 49.03056 | 20.44680 | 99° | 57km/h | 5944m | 8.4m/s | -13.8°C | 0% | 0hPa | 0V | 00:00:00 | 00:00:00 | 00:00:00 | |
| SQ9EZE-14 | 2026-08-30 11:25:38 | 49.03059 | 20.44642 | 97° | 44km/h | 5930m | 5.8m/s | -13.7°C | 0% | 493.9hPa | 0V | 00:00:00 | 00:00:00 | 00:00:00 | |
| SQ9EZE-15 | 2026-08-30 11:25:34 | 49.03062 | 20.44580 | 95° | 42km/h | 5904m | 7.5m/s | -13.5°C | 65.7% | 495.6hPa | 0V | 00:00:00 | 00:00:00 | 00:00:00 | |
| SP9KGR-15 | 2026-08-30 11:25:32 | 49.03064 | 20.44543 | 95° | 53km/h | 5891m | 6.9m/s | -13.4°C | 67.8% | 496.4hPa | 0V | 00:00:00 | 00:00:00 | 00:00:00 | |
| SQ9EZE-13 | 2026-08-30 11:25:30 | 49.03065 | 20.44498 | 95° | 60km/h | 5878m | 4.7m/s | -13.3°C | 70.0% | 497.1hPa | 0V | 00:00:00 | 00:00:00 | 00:00:00 | |
| SP9KGR-15 | 2026-08-30 11:25:17 | 49.03097 | 20.44240 | 99° | 49km/h | 5809m | 4.6m/s | -12.6°C | 67.7% | 501.7hPa | 0V | 00:00:00 | 00:00:00 | 00:00:00 | |
| SQ9EZE-15 | 2026-08-30 11:25:15 | 49.03102 | 20.44181 | 101° | 53km/h | 5795m | 4.4m/s | -12.5°C | 66.9% | 502.7hPa | 0V | 00:00:00 | 00:00:00 | 00:00:00 | |
| SP9KGR-15 | 2026-08-30 11:25:01 | 49.03136 | 20.43936 | 99° | 49km/h | 5733m | 4.3m/s | -12.0°C | 65.2% | 506.9hPa | 0V | 00:00:00 | 00:00:00 | 00:00:00 | |
| SQ9EZE-13 | 2026-08-30 11:24:59 | 49.03139 | 20.43897 | 98° | 53km/h | 5724m | 5.8m/s | -12.0°C | 63.2% | 507.5hPa | 0V | 00:00:00 | 00:00:00 | 00:00:00 | |
| GYPAP8-17 | 2026-08-30 11:24:52 | 49.03160 | 20.43766 | 114° | 44km/h | 5690m | 5.8m/s | -11.7°C | 0% | 0hPa | 0V | 00:00:00 | 00:00:00 | 00:00:00 | |
| SP9KGR-15 | 2026-08-30 11:24:46 | 49.03183 | 20.43670 | 96° | 44km/h | 5653m | 6.6m/s | -11.3°C | 61.0% | 512.1hPa | 0V | 00:00:00 | 00:00:00 | 00:00:00 | |
| SQ9EZE-13 | 2026-08-30 11:24:44 | 49.03184 | 20.43653 | 93° | 47km/h | 5646m | 6.3m/s | -11.3°C | 60.7% | 512.5hPa | 0V | 00:00:00 | 00:00:00 | 00:00:00 | |
| SP9KGR-15 | 2026-08-30 11:24:30 | 49.03219 | 20.43399 | 109° | 49km/h | 5547m | 5.5m/s | -10.5°C | 61.3% | 519.2hPa | 0V | 00:00:00 | 00:00:00 | 00:00:00 | |
| SQ9EZE-13 | 2026-08-30 11:24:29 | 49.03227 | 20.43363 | 110° | 51km/h | 5538m | 4.8m/s | -10.5°C | 63.4% | 519.8hPa | 0V | 00:00:00 | 00:00:00 | 00:00:00 | |
| SP9KGR-15 | 2026-08-30 11:24:15 | 49.03263 | 20.43103 | 104° | 66km/h | 5459m | 7.9m/s | -9.9°C | 67.8% | 525.0hPa | 0V | 00:00:00 | 00:00:00 | 00:00:00 | |
| SQ9EZE-13 | 2026-08-30 11:24:12 | 49.03273 | 20.43056 | 114° | 62km/h | 5444m | 7.1m/s | -9.9°C | 71.4% | 526.1hPa | 0V | 00:00:00 | 00:00:00 | 00:00:00 | |
| SQ9EZE-15 | 2026-08-30 11:24:06 | 49.03302 | 20.42959 | 95° | 37km/h | 5408m | 7.8m/s | -9.6°C | 73.1% | 528.7hPa | 0V | 00:00:00 | 00:00:00 | 00:00:00 | |
| GYPAP8-17 | 2026-08-30 11:24:04 | 49.03299 | 20.42915 | 80° | 40km/h | 5386m | 7.3m/s | -9.5°C | 0% | 0hPa | 0V | 00:00:00 | 00:00:00 | 00:00:00 | |
| SP9KGR-15 | 2026-08-30 11:23:59 | 49.03301 | 20.42847 | 103° | 47km/h | 5362m | 7.5m/s | -9.2°C | 72.7% | 531.8hPa | 0V | 00:00:00 | 00:00:00 | 00:00:00 | |
| SQ9EZE-13 | 2026-08-30 11:23:57 | 49.03306 | 20.42810 | 102° | 51km/h | 5347m | 6.9m/s | -9.2°C | 73.2% | 532.8hPa | 0V | 00:00:00 | 00:00:00 | 00:00:00 | |
| SQ9EZE-15 | 2026-08-30 11:23:46 | 49.03324 | 20.42613 | 95° | 37km/h | 5292m | 4.8m/s | -8.7°C | 0% | 0hPa | 0V | 00:00:00 | 00:00:00 | 00:00:00 | |
| SP9KGR-15 | 2026-08-30 11:23:44 | 49.03326 | 20.42590 | 99° | 27km/h | 5282m | 2.9m/s | -8.6°C | 73.5% | 537.3hPa | 0V | 00:00:00 | 00:00:00 | 00:00:00 | |
| SQ9EZE-13 | 2026-08-30 11:23:42 | 49.03327 | 20.42569 | 88° | 27km/h | 5275m | 4.3m/s | -8.6°C | 73.5% | 537.9hPa | 0V | 00:00:00 | 00:00:00 | 00:00:00 | |
| SQ9EZE-14 | 2026-08-30 11:23:41 | 49.03325 | 20.42558 | 77° | 33km/h | 5271m | 4.2m/s | -8.5°C | 0% | 538.2hPa | 0V | 00:00:00 | 00:00:00 | 00:00:00 | |
| SP9KGR-15 | 2026-08-30 11:23:30 | 49.03314 | 20.42355 | 95° | 37km/h | 5196m | 7.3m/s | -8.0°C | 71.2% | 543.3hPa | 0V | 00:00:00 | 00:00:00 | 00:00:00 | |
| SQ9EZE-13 | 2026-08-30 11:23:27 | 49.03316 | 20.42326 | 94° | 38km/h | 5181m | 7.8m/s | -7.8°C | 70.5% | 544.3hPa | 0V | 00:00:00 | 00:00:00 | 00:00:00 | |
| SQ9EZE-14 | 2026-08-30 11:23:26 | 49.03316 | 20.42296 | 93° | 40km/h | 5169m | 4.6m/s | 0°C | 0% | 545.3hPa | 0V | 00:00:00 | 00:00:00 | 00:00:00 | |
| GYPAP8-17 | 2026-08-30 11:23:14 | 49.03334 | 20.42128 | 110° | 35km/h | 5116m | 5.2m/s | -7.2°C | 0% | 0hPa | 0V | 00:00:00 | 00:00:00 | 00:00:00 | |
| SP9KGR-15 | 2026-08-30 11:23:13 | 49.03336 | 20.42116 | 100° | 31km/h | 5111m | 5.0m/s | -7.1°C | 68.1% | 549.4hPa | 0V | 00:00:00 | 00:00:00 | 00:00:00 | |
| SQ9EZE-13 | 2026-08-30 11:23:11 | 49.03337 | 20.42095 | 82° | 26km/h | 5101m | 6.8m/s | -7.0°C | 67.1% | 550.1hPa | 0V | 00:00:00 | 00:00:00 | 00:00:00 | |
| SP9KGR-15 | 2026-08-30 11:22:57 | 49.03340 | 20.41897 | 110° | 38km/h | 5022m | 6.6m/s | -6.4°C | 63.0% | 555.8hPa | 0V | 00:00:00 | 00:00:00 | 00:00:00 | |
| SQ9EZE-13 | 2026-08-30 11:22:55 | 49.03347 | 20.41869 | 112° | 40km/h | 5012m | 3.9m/s | -6.3°C | 62.5% | 556.5hPa | 0V | 00:00:00 | 00:00:00 | 00:00:00 | |
| SQ9EZE-15 | 2026-08-30 11:22:43 | 49.03340 | 20.41717 | 85° | 40km/h | 4951m | 5.1m/s | -6.1°C | 0% | 0hPa | 0V | 00:00:00 | 00:00:00 | 00:00:00 | |
| SP9KGR-15 | 2026-08-30 11:22:42 | 49.03339 | 20.41702 | 89° | 38km/h | 4946m | 5.5m/s | -6.0°C | 0% | 561.1hPa | 0V | 00:00:00 | 00:00:00 | 00:00:00 | |
| SQ9EZE-13 | 2026-08-30 11:22:40 | 49.03338 | 20.41673 | 90° | 37km/h | 4933m | 7.5m/s | -6.0°C | 66.6% | 562.0hPa | 0V | 00:00:00 | 00:00:00 | 00:00:00 | |
| SP9KGR-15 | 2026-08-30 11:22:26 | 49.03347 | 20.41469 | 104° | 51km/h | 4870m | 4.2m/s | 0°C | 0% | 566.7hPa | 0V | 00:00:00 | 00:00:00 | 00:00:00 | |
| SQ9EZE-13 | 2026-08-30 11:22:24 | 49.03351 | 20.41429 | 97° | 51km/h | 4861m | 3.7m/s | -5.9°C | 72.6% | 567.2hPa | 0V | 00:00:00 | 00:00:00 | 00:00:00 | |
| SQ9EZE-15 | 2026-08-30 11:22:22 | 49.03351 | 20.41391 | 85° | 49km/h | 4852m | 5.2m/s | 0°C | 0% | 0hPa | 0V | 00:00:00 | 00:00:00 | 00:00:00 | |
| SP9KGR-15 | 2026-08-30 11:22:10 | 49.03359 | 20.41199 | 97° | 53km/h | 4786m | 8.8m/s | 0°C | 0% | 572.7hPa | 0V | 00:00:00 | 00:00:00 | 00:00:00 | |
| SQ9EZE-13 | 2026-08-30 11:22:09 | 49.03360 | 20.41179 | 96° | 51km/h | 4778m | 7.6m/s | -5.3°C | 72.0% | 573.2hPa | 0V | 00:00:00 | 00:00:00 | 00:00:00 | |
| SP9KGR-15 | 2026-08-30 11:21:54 | 49.03366 | 20.40954 | 94° | 49km/h | 4703m | 7.6m/s | 0°C | 0% | 578.7hPa | 0V | 00:00:00 | 00:00:00 | 00:00:00 | |
| SQ9EZE-13 | 2026-08-30 11:21:53 | 49.03367 | 20.40935 | 95° | 49km/h | 4696m | 6.8m/s | -4.7°C | 72.7% | 579.3hPa | 0V | 00:00:00 | 00:00:00 | 00:00:00 | |
| GYPAP8-17 | 2026-08-30 11:21:39 | 49.03386 | 20.40712 | 89° | 40km/h | 4627m | 4.0m/s | -4.2°C | 0% | 0hPa | 0V | 00:00:00 | 00:00:00 | 00:00:00 | |
| SP9KGR-15 | 2026-08-30 11:21:38 | 49.03385 | 20.40697 | 87° | 40km/h | 4624m | 3.6m/s | 0°C | 0% | 584.7hPa | 0V | 00:00:00 | 00:00:00 | 00:00:00 | |
| SQ9EZE-13 | 2026-08-30 11:21:37 | 49.03384 | 20.40681 | 92° | 42km/h | 4620m | 3.7m/s | -4.1°C | 74.2% | 585.0hPa | 0V | 00:00:00 | 00:00:00 | 00:00:00 | |
| SQ9EZE-14 | 2026-08-30 11:21:27 | 49.03419 | 20.40543 | 98° | 40km/h | 4583m | 6.3m/s | 0°C | 0% | 0hPa | 0V | 00:00:00 | 00:00:00 | 00:00:00 | |
| SP9KGR-15 | 2026-08-30 11:21:23 | 49.03424 | 20.40476 | 100° | 44km/h | 4556m | 5.9m/s | 0°C | 0% | 0hPa | 0V | 00:00:00 | 00:00:00 | 00:00:00 | |
| SQ9EZE-13 | 2026-08-30 11:21:21 | 49.03428 | 20.40445 | 107° | 40km/h | 4545m | 5.7m/s | -3.6°C | 0% | 0hPa | 0V | 00:00:00 | 00:00:00 | 00:00:00 | |
| SQ9EZE-15 | 2026-08-30 11:21:19 | 49.03433 | 20.40417 | 103° | 33km/h | 4537m | 4.0m/s | 0°C | 0% | 0hPa | 0V | 00:00:00 | 00:00:00 | 00:00:00 | |
| SQ9EZE-14 | 2026-08-30 11:21:12 | 49.03425 | 20.40316 | 86° | 42km/h | 4511m | 4.3m/s | 0°C | 0% | 0hPa | 0V | 00:00:00 | 00:00:00 | 00:00:00 | |
| SP9KGR-15 | 2026-08-30 11:21:07 | 49.03432 | 20.40234 | 107° | 42km/h | 4482m | 5.8m/s | 0°C | 0% | 0hPa | 0V | 00:00:00 | 00:00:00 | 00:00:00 | |
| SQ9EZE-15 | 2026-08-30 11:20:58 | 49.03452 | 20.40101 | 100° | 44km/h | 4447m | 4.0m/s | 0°C | 0% | 0hPa | 0V | 00:00:00 | 00:00:00 | 00:00:00 | |
| SQ9EZE-13 | 2026-08-30 11:20:49 | 49.03445 | 20.39970 | 76° | 33km/h | 4417m | 3.6m/s | 0°C | 0% | 0hPa | 0V | 00:00:00 | 00:00:00 | 00:00:00 | |
| GYPAP8-17 | 2026-08-30 11:20:48 | 49.03443 | 20.39958 | 78° | 35km/h | 4413m | 3.9m/s | -2.6°C | 0% | 0hPa | 0V | 00:00:00 | 00:00:00 | 00:00:00 | |
| SQ9EZE-13 | 2026-08-30 11:20:34 | 49.03473 | 20.39745 | 127° | 38km/h | 4337m | 3.7m/s | 0°C | 0% | 0hPa | 0V | 00:00:00 | 00:00:00 | 00:00:00 | |
| SQ9EZE-13 | 2026-08-30 11:20:17 | 49.03515 | 20.39550 | 95° | 26km/h | 4269m | 4.2m/s | 0°C | 0% | 0hPa | 0V | 00:00:00 | 00:00:00 | 00:00:00 | |
| GYPAP8-17 | 2026-08-30 11:20:00 | 49.03538 | 20.39345 | 118° | 27km/h | 4181m | 5.1m/s | 0°C | 0% | 0hPa | 0V | 00:00:00 | 00:00:00 | 00:00:00 | |
| SQ9EZE-13 | 2026-08-30 11:19:57 | 49.03545 | 20.39316 | 111° | 27km/h | 4166m | 6.5m/s | 0°C | 0% | 0hPa | 0V | 00:00:00 | 00:00:00 | 00:00:00 | |
| SQ9EZE-13 | 2026-08-30 11:19:42 | 49.03568 | 20.39093 | 108° | 40km/h | 4084m | 6.2m/s | 0°C | 0% | 0hPa | 0V | 00:00:00 | 00:00:00 | 00:00:00 | |
| GYPAP8-17 | 2026-08-30 11:19:16 | 49.03631 | 20.38770 | 116° | 27km/h | 3961m | 3.1m/s | 0°C | 0% | 0hPa | 0V | 00:00:00 | 00:00:00 | 00:00:00 | |
| GYPAP8-17 | 2026-08-30 11:18:32 | 49.03666 | 20.38232 | 95° | 24km/h | 3765m | 4.2m/s | 0°C | 0% | 0hPa | 0V | 00:00:00 | 00:00:00 | 00:00:00 | |
| GYPAP8-17 | 2026-08-30 11:17:45 | 49.03629 | 20.37715 | 72° | 40km/h | 3544m | 3.6m/s | 0°C | 0% | 0hPa | 0V | 00:00:00 | 00:00:00 | 00:00:00 | |
| GYPAP8-17 | 2026-08-30 11:16:56 | 49.03633 | 20.37094 | 87° | 44km/h | 3293m | 4.7m/s | 0°C | 0% | 0hPa | 0V | 00:00:00 | 00:00:00 | 00:00:00 |